<?xml version="1.0" encoding="UTF-8" standalone="no" ?>
<gpx xmlns="http://www.topografix.com/GPX/1/1" xmlns:xsi="http://www.w3.org/2001/XMLSchema-instance" xsi:schemaLocation="http://www.topografix.com/GPX/1/1 http://www.topografix.com/GPX/1/1/gpx.xsd" version="1.1" creator="VisuGPX - https://www.visugpx.com">
  <metadata>
    <name>ciclabile-dei-fiori</name>
  </metadata>
  <trk>
    <name><![CDATA[ciclabile-dei-f]]></name>
    <extensions>
      <line xmlns="http://www.topografix.com/GPX/gpx_style/0/2">
        <color>0000FF</color>
        <width>4</width>
      </line>
    </extensions>
    <trkseg>
      <trkpt lat="43.80143" lon="7.71271">
        <ele>9.25</ele>
        <time>2007-05-21T08:40:58.130Z</time>
      </trkpt>
      <trkpt lat="43.80137" lon="7.71271">
        <ele>9.25</ele>
        <time>2007-05-21T08:40:56.130Z</time>
      </trkpt>
      <trkpt lat="43.80132" lon="7.71346">
        <ele>9.25</ele>
        <time>2007-05-21T08:40:34.130Z</time>
      </trkpt>
      <trkpt lat="43.80124" lon="7.71413">
        <ele>8.25</ele>
        <time>2007-05-21T08:40:14.130Z</time>
      </trkpt>
      <trkpt lat="43.80119" lon="7.71449">
        <ele>7.75</ele>
        <time>2007-05-21T08:40:04.130Z</time>
      </trkpt>
      <trkpt lat="43.80112" lon="7.71484">
        <ele>7.25</ele>
        <time>2007-05-21T08:39:53.130Z</time>
      </trkpt>
      <trkpt lat="43.80068" lon="7.71666">
        <ele>6.25</ele>
        <time>2007-05-21T08:38:58.130Z</time>
      </trkpt>
      <trkpt lat="43.80043" lon="7.71764">
        <ele>9.25</ele>
        <time>2007-05-21T08:38:28.130Z</time>
      </trkpt>
      <trkpt lat="43.80015" lon="7.71888">
        <ele>12.75</ele>
        <time>2007-05-21T08:37:50.130Z</time>
      </trkpt>
      <trkpt lat="43.79974" lon="7.72127">
        <ele>8</ele>
        <time>2007-05-21T08:36:39.130Z</time>
      </trkpt>
      <trkpt lat="43.79961" lon="7.72197">
        <ele>8.5</ele>
        <time>2007-05-21T08:36:18.130Z</time>
      </trkpt>
      <trkpt lat="43.79941" lon="7.72293">
        <ele>9.5</ele>
        <time>2007-05-21T08:35:49.130Z</time>
      </trkpt>
      <trkpt lat="43.79928" lon="7.72348">
        <ele>9.75</ele>
        <time>2007-05-21T08:35:32.130Z</time>
      </trkpt>
      <trkpt lat="43.79912" lon="7.72403">
        <ele>13</ele>
        <time>2007-05-21T08:35:15.130Z</time>
      </trkpt>
      <trkpt lat="43.7989" lon="7.72475">
        <ele>13</ele>
        <time>2007-05-21T08:34:53.130Z</time>
      </trkpt>
      <trkpt lat="43.79848" lon="7.72621">
        <ele>13</ele>
        <time>2007-05-21T08:34:07.130Z</time>
      </trkpt>
      <trkpt lat="43.79841" lon="7.7265">
        <ele>12.75</ele>
        <time>2007-05-21T08:33:58.130Z</time>
      </trkpt>
      <trkpt lat="43.79826" lon="7.72732">
        <ele>17.75</ele>
        <time>2007-05-21T08:33:34.130Z</time>
      </trkpt>
      <trkpt lat="43.79805" lon="7.72943">
        <ele>17</ele>
        <time>2007-05-21T08:32:32.130Z</time>
      </trkpt>
      <trkpt lat="43.79794" lon="7.73041">
        <ele>17</ele>
        <time>2007-05-21T08:32:04.130Z</time>
      </trkpt>
      <trkpt lat="43.79792" lon="7.73109">
        <ele>17</ele>
        <time>2007-05-21T08:31:44.130Z</time>
      </trkpt>
      <trkpt lat="43.79804" lon="7.73166">
        <ele>17</ele>
        <time>2007-05-21T08:31:27.130Z</time>
      </trkpt>
      <trkpt lat="43.79875" lon="7.73335">
        <ele>17</ele>
        <time>2007-05-21T08:30:30.130Z</time>
      </trkpt>
      <trkpt lat="43.80431" lon="7.74697">
        <ele>17</ele>
        <time>2007-05-21T08:22:58.130Z</time>
      </trkpt>
      <trkpt lat="43.80435" lon="7.74704">
        <ele>16.75</ele>
        <time>2007-05-21T08:22:55.130Z</time>
      </trkpt>
      <trkpt lat="43.80518" lon="7.7483">
        <ele>14.5</ele>
        <time>2007-05-21T08:22:06.130Z</time>
      </trkpt>
      <trkpt lat="43.80535" lon="7.74859">
        <ele>15.75</ele>
        <time>2007-05-21T08:21:55.130Z</time>
      </trkpt>
      <trkpt lat="43.80615" lon="7.75002">
        <ele>14</ele>
        <time>2007-05-21T08:21:03.130Z</time>
      </trkpt>
      <trkpt lat="43.80618" lon="7.75008">
        <ele>14.25</ele>
        <time>2007-05-21T08:21:00.130Z</time>
      </trkpt>
      <trkpt lat="43.80713" lon="7.75175">
        <ele>15</ele>
        <time>2007-05-21T08:19:59.130Z</time>
      </trkpt>
      <trkpt lat="43.80747" lon="7.7524">
        <ele>16</ele>
        <time>2007-05-21T08:19:35.130Z</time>
      </trkpt>
      <trkpt lat="43.80757" lon="7.75262">
        <ele>15.5</ele>
        <time>2007-05-21T08:19:28.130Z</time>
      </trkpt>
      <trkpt lat="43.80769" lon="7.75289">
        <ele>14.25</ele>
        <time>2007-05-21T08:19:19.130Z</time>
      </trkpt>
      <trkpt lat="43.80785" lon="7.75332">
        <ele>11.25</ele>
        <time>2007-05-21T08:19:05.130Z</time>
      </trkpt>
      <trkpt lat="43.80798" lon="7.75376">
        <ele>10.5</ele>
        <time>2007-05-21T08:18:52.130Z</time>
      </trkpt>
      <trkpt lat="43.80804" lon="7.75401">
        <ele>10</ele>
        <time>2007-05-21T08:18:44.130Z</time>
      </trkpt>
      <trkpt lat="43.80817" lon="7.75461">
        <ele>10</ele>
        <time>2007-05-21T08:18:26.130Z</time>
      </trkpt>
      <trkpt lat="43.80823" lon="7.75522">
        <ele>9.25</ele>
        <time>2007-05-21T08:18:08.130Z</time>
      </trkpt>
      <trkpt lat="43.80827" lon="7.75598">
        <ele>7.25</ele>
        <time>2007-05-21T08:17:46.130Z</time>
      </trkpt>
      <trkpt lat="43.80828" lon="7.75626">
        <ele>6.5</ele>
        <time>2007-05-21T08:17:37.130Z</time>
      </trkpt>
      <trkpt lat="43.80828" lon="7.75689">
        <ele>6</ele>
        <time>2007-05-21T08:17:19.130Z</time>
      </trkpt>
      <trkpt lat="43.8083" lon="7.75753">
        <ele>7.25</ele>
        <time>2007-05-21T08:17:01.130Z</time>
      </trkpt>
      <trkpt lat="43.80836" lon="7.75836">
        <ele>6</ele>
        <time>2007-05-21T08:16:37.130Z</time>
      </trkpt>
      <trkpt lat="43.8084" lon="7.7588">
        <ele>5.75</ele>
        <time>2007-05-21T08:16:24.130Z</time>
      </trkpt>
      <trkpt lat="43.80848" lon="7.75939">
        <ele>5.75</ele>
        <time>2007-05-21T08:16:07.130Z</time>
      </trkpt>
      <trkpt lat="43.80853" lon="7.75967">
        <ele>5.75</ele>
        <time>2007-05-21T08:15:58.130Z</time>
      </trkpt>
      <trkpt lat="43.80857" lon="7.75983">
        <ele>5.75</ele>
        <time>2007-05-21T08:15:53.130Z</time>
      </trkpt>
      <trkpt lat="43.80867" lon="7.76027">
        <ele>6</ele>
        <time>2007-05-21T08:15:40.130Z</time>
      </trkpt>
      <trkpt lat="43.8088" lon="7.76074">
        <ele>6.25</ele>
        <time>2007-05-21T08:15:25.130Z</time>
      </trkpt>
      <trkpt lat="43.80887" lon="7.76098">
        <ele>6.25</ele>
        <time>2007-05-21T08:15:18.130Z</time>
      </trkpt>
      <trkpt lat="43.80902" lon="7.76139">
        <ele>6.5</ele>
        <time>2007-05-21T08:15:05.130Z</time>
      </trkpt>
      <trkpt lat="43.80912" lon="7.76164">
        <ele>6.75</ele>
        <time>2007-05-21T08:14:56.130Z</time>
      </trkpt>
      <trkpt lat="43.80922" lon="7.76186">
        <ele>7.5</ele>
        <time>2007-05-21T08:14:49.130Z</time>
      </trkpt>
      <trkpt lat="43.80934" lon="7.76214">
        <ele>8.75</ele>
        <time>2007-05-21T08:14:39.130Z</time>
      </trkpt>
      <trkpt lat="43.80937" lon="7.76221">
        <ele>9</ele>
        <time>2007-05-21T08:14:37.130Z</time>
      </trkpt>
      <trkpt lat="43.81002" lon="7.76358">
        <ele>11.25</ele>
        <time>2007-05-21T08:13:50.130Z</time>
      </trkpt>
      <trkpt lat="43.81033" lon="7.76419">
        <ele>10.25</ele>
        <time>2007-05-21T08:13:28.130Z</time>
      </trkpt>
      <trkpt lat="43.81058" lon="7.76462">
        <ele>9.75</ele>
        <time>2007-05-21T08:13:12.130Z</time>
      </trkpt>
      <trkpt lat="43.81066" lon="7.76475">
        <ele>9.5</ele>
        <time>2007-05-21T08:13:07.130Z</time>
      </trkpt>
      <trkpt lat="43.81091" lon="7.76509">
        <ele>9.25</ele>
        <time>2007-05-21T08:12:53.130Z</time>
      </trkpt>
      <trkpt lat="43.81166" lon="7.76598">
        <ele>11.25</ele>
        <time>2007-05-21T08:12:13.130Z</time>
      </trkpt>
      <trkpt lat="43.81179" lon="7.76616">
        <ele>11.25</ele>
        <time>2007-05-21T08:12:06.130Z</time>
      </trkpt>
      <trkpt lat="43.81212" lon="7.76664">
        <ele>13.5</ele>
        <time>2007-05-21T08:11:47.130Z</time>
      </trkpt>
      <trkpt lat="43.81232" lon="7.767">
        <ele>9.25</ele>
        <time>2007-05-21T08:11:34.130Z</time>
      </trkpt>
      <trkpt lat="43.81245" lon="7.76727">
        <ele>9.25</ele>
        <time>2007-05-21T08:11:24.130Z</time>
      </trkpt>
      <trkpt lat="43.8126" lon="7.76758">
        <ele>9.25</ele>
        <time>2007-05-21T08:11:14.130Z</time>
      </trkpt>
      <trkpt lat="43.81276" lon="7.76791">
        <ele>9.75</ele>
        <time>2007-05-21T08:11:02.130Z</time>
      </trkpt>
      <trkpt lat="43.81313" lon="7.76869">
        <ele>9.75</ele>
        <time>2007-05-21T08:10:35.130Z</time>
      </trkpt>
      <trkpt lat="43.81331" lon="7.76908">
        <ele>8.5</ele>
        <time>2007-05-21T08:10:22.130Z</time>
      </trkpt>
      <trkpt lat="43.81354" lon="7.76959">
        <ele>10</ele>
        <time>2007-05-21T08:10:05.130Z</time>
      </trkpt>
      <trkpt lat="43.81368" lon="7.76995">
        <ele>10.25</ele>
        <time>2007-05-21T08:09:53.130Z</time>
      </trkpt>
      <trkpt lat="43.81376" lon="7.77025">
        <ele>9.75</ele>
        <time>2007-05-21T08:09:43.130Z</time>
      </trkpt>
      <trkpt lat="43.81378" lon="7.77037">
        <ele>9.5</ele>
        <time>2007-05-21T08:09:40.130Z</time>
      </trkpt>
      <trkpt lat="43.8138" lon="7.77052">
        <ele>9</ele>
        <time>2007-05-21T08:09:35.130Z</time>
      </trkpt>
      <trkpt lat="43.81388" lon="7.77096">
        <ele>8</ele>
        <time>2007-05-21T08:09:22.130Z</time>
      </trkpt>
      <trkpt lat="43.81389" lon="7.771">
        <ele>8</ele>
        <time>2007-05-21T08:09:21.130Z</time>
      </trkpt>
      <trkpt lat="43.81388" lon="7.77106">
        <ele>7.75</ele>
        <time>2007-05-21T08:09:19.130Z</time>
      </trkpt>
      <trkpt lat="43.81387" lon="7.77113">
        <ele>7.5</ele>
        <time>2007-05-21T08:09:17.130Z</time>
      </trkpt>
      <trkpt lat="43.814" lon="7.77223">
        <ele>8.5</ele>
        <time>2007-05-21T08:08:45.130Z</time>
      </trkpt>
      <trkpt lat="43.81402" lon="7.77244">
        <ele>9.25</ele>
        <time>2007-05-21T08:08:39.130Z</time>
      </trkpt>
      <trkpt lat="43.81405" lon="7.77257">
        <ele>9.5</ele>
        <time>2007-05-21T08:08:35.130Z</time>
      </trkpt>
      <trkpt lat="43.81414" lon="7.77332">
        <ele>9.75</ele>
        <time>2007-05-21T08:08:13.130Z</time>
      </trkpt>
      <trkpt lat="43.81424" lon="7.77425">
        <ele>7.75</ele>
        <time>2007-05-21T08:07:46.130Z</time>
      </trkpt>
      <trkpt lat="43.81428" lon="7.7747">
        <ele>8</ele>
        <time>2007-05-21T08:07:33.130Z</time>
      </trkpt>
      <trkpt lat="43.8143" lon="7.7749">
        <ele>8.25</ele>
        <time>2007-05-21T08:07:27.130Z</time>
      </trkpt>
      <trkpt lat="43.81434" lon="7.77505">
        <ele>8.75</ele>
        <time>2007-05-21T08:07:22.130Z</time>
      </trkpt>
      <trkpt lat="43.81435" lon="7.7751">
        <ele>9</ele>
        <time>2007-05-21T08:07:21.130Z</time>
      </trkpt>
      <trkpt lat="43.81438" lon="7.77512">
        <ele>9.25</ele>
        <time>2007-05-21T08:07:19.130Z</time>
      </trkpt>
      <trkpt lat="43.8144" lon="7.77517">
        <ele>9.25</ele>
        <time>2007-05-21T08:07:18.130Z</time>
      </trkpt>
      <trkpt lat="43.8144" lon="7.77521">
        <ele>9.25</ele>
        <time>2007-05-21T08:07:17.130Z</time>
      </trkpt>
      <trkpt lat="43.81441" lon="7.77548">
        <ele>9.5</ele>
        <time>2007-05-21T08:07:09.130Z</time>
      </trkpt>
      <trkpt lat="43.81443" lon="7.77563">
        <ele>9.75</ele>
        <time>2007-05-21T08:07:05.130Z</time>
      </trkpt>
      <trkpt lat="43.81446" lon="7.77578">
        <ele>10</ele>
        <time>2007-05-21T08:07:00.130Z</time>
      </trkpt>
      <trkpt lat="43.81454" lon="7.77607">
        <ele>11</ele>
        <time>2007-05-21T08:06:51.130Z</time>
      </trkpt>
      <trkpt lat="43.81464" lon="7.77638">
        <ele>12</ele>
        <time>2007-05-21T08:06:41.130Z</time>
      </trkpt>
      <trkpt lat="43.81474" lon="7.77664">
        <ele>12.5</ele>
        <time>2007-05-21T08:06:33.130Z</time>
      </trkpt>
      <trkpt lat="43.81484" lon="7.7769">
        <ele>11.5</ele>
        <time>2007-05-21T08:06:24.130Z</time>
      </trkpt>
      <trkpt lat="43.81493" lon="7.77709">
        <ele>10.5</ele>
        <time>2007-05-21T08:06:17.130Z</time>
      </trkpt>
      <trkpt lat="43.81502" lon="7.77728">
        <ele>9.5</ele>
        <time>2007-05-21T08:06:11.130Z</time>
      </trkpt>
      <trkpt lat="43.81508" lon="7.77739">
        <ele>9</ele>
        <time>2007-05-21T08:06:07.130Z</time>
      </trkpt>
      <trkpt lat="43.81528" lon="7.77771">
        <ele>9</ele>
        <time>2007-05-21T08:05:55.130Z</time>
      </trkpt>
      <trkpt lat="43.81544" lon="7.77795">
        <ele>9.5</ele>
        <time>2007-05-21T08:05:45.130Z</time>
      </trkpt>
      <trkpt lat="43.81578" lon="7.77837">
        <ele>11</ele>
        <time>2007-05-21T08:05:27.130Z</time>
      </trkpt>
      <trkpt lat="43.81605" lon="7.77868">
        <ele>9.25</ele>
        <time>2007-05-21T08:05:13.130Z</time>
      </trkpt>
      <trkpt lat="43.81627" lon="7.7789">
        <ele>8.75</ele>
        <time>2007-05-21T08:05:02.130Z</time>
      </trkpt>
      <trkpt lat="43.81628" lon="7.77891">
        <ele>8.75</ele>
        <time>2007-05-21T08:05:01.130Z</time>
      </trkpt>
      <trkpt lat="43.81631" lon="7.77894">
        <ele>8.75</ele>
        <time>2007-05-21T08:05:00.130Z</time>
      </trkpt>
      <trkpt lat="43.81643" lon="7.77907">
        <ele>9</ele>
        <time>2007-05-21T08:04:54.130Z</time>
      </trkpt>
      <trkpt lat="43.81662" lon="7.77926">
        <ele>10</ele>
        <time>2007-05-21T08:04:45.130Z</time>
      </trkpt>
      <trkpt lat="43.81668" lon="7.77932">
        <ele>10.75</ele>
        <time>2007-05-21T08:04:42.130Z</time>
      </trkpt>
      <trkpt lat="43.81696" lon="7.77953">
        <ele>10.75</ele>
        <time>2007-05-21T08:04:29.130Z</time>
      </trkpt>
      <trkpt lat="43.81736" lon="7.77982">
        <ele>12</ele>
        <time>2007-05-21T08:04:11.130Z</time>
      </trkpt>
      <trkpt lat="43.81765" lon="7.78004">
        <ele>13.75</ele>
        <time>2007-05-21T08:03:57.130Z</time>
      </trkpt>
      <trkpt lat="43.81791" lon="7.78026">
        <ele>14.5</ele>
        <time>2007-05-21T08:03:45.130Z</time>
      </trkpt>
      <trkpt lat="43.81799" lon="7.78033">
        <ele>14.75</ele>
        <time>2007-05-21T08:03:41.130Z</time>
      </trkpt>
      <trkpt lat="43.81819" lon="7.78053">
        <ele>15.5</ele>
        <time>2007-05-21T08:03:32.130Z</time>
      </trkpt>
      <trkpt lat="43.81837" lon="7.78074">
        <ele>16.25</ele>
        <time>2007-05-21T08:03:22.130Z</time>
      </trkpt>
      <trkpt lat="43.81859" lon="7.78104">
        <ele>16</ele>
        <time>2007-05-21T08:03:10.130Z</time>
      </trkpt>
      <trkpt lat="43.8187" lon="7.78119">
        <ele>15.75</ele>
        <time>2007-05-21T08:03:04.130Z</time>
      </trkpt>
      <trkpt lat="43.81874" lon="7.78127">
        <ele>15.75</ele>
        <time>2007-05-21T08:03:01.130Z</time>
      </trkpt>
      <trkpt lat="43.81886" lon="7.78146">
        <ele>15.5</ele>
        <time>2007-05-21T08:02:54.130Z</time>
      </trkpt>
      <trkpt lat="43.81905" lon="7.78184">
        <ele>14.25</ele>
        <time>2007-05-21T08:02:40.130Z</time>
      </trkpt>
      <trkpt lat="43.81917" lon="7.78211">
        <ele>14.25</ele>
        <time>2007-05-21T08:02:31.130Z</time>
      </trkpt>
      <trkpt lat="43.81928" lon="7.78238">
        <ele>13.75</ele>
        <time>2007-05-21T08:02:22.130Z</time>
      </trkpt>
      <trkpt lat="43.81934" lon="7.78254">
        <ele>13.5</ele>
        <time>2007-05-21T08:02:17.130Z</time>
      </trkpt>
      <trkpt lat="43.81952" lon="7.78317">
        <ele>13.25</ele>
        <time>2007-05-21T08:01:57.130Z</time>
      </trkpt>
      <trkpt lat="43.81959" lon="7.78348">
        <ele>13.25</ele>
        <time>2007-05-21T08:01:48.130Z</time>
      </trkpt>
      <trkpt lat="43.81977" lon="7.78448">
        <ele>13</ele>
        <time>2007-05-21T08:01:18.130Z</time>
      </trkpt>
      <trkpt lat="43.81988" lon="7.78515">
        <ele>8.25</ele>
        <time>2007-05-21T08:00:58.130Z</time>
      </trkpt>
      <trkpt lat="43.82017" lon="7.78683">
        <ele>8.25</ele>
        <time>2007-05-21T08:00:08.130Z</time>
      </trkpt>
      <trkpt lat="43.8203" lon="7.78754">
        <ele>7.25</ele>
        <time>2007-05-21T07:59:47.130Z</time>
      </trkpt>
      <trkpt lat="43.82043" lon="7.78834">
        <ele>7.5</ele>
        <time>2007-05-21T07:59:23.130Z</time>
      </trkpt>
      <trkpt lat="43.82055" lon="7.7891">
        <ele>8.25</ele>
        <time>2007-05-21T07:59:01.130Z</time>
      </trkpt>
      <trkpt lat="43.82063" lon="7.78948">
        <ele>8.5</ele>
        <time>2007-05-21T07:58:49.130Z</time>
      </trkpt>
      <trkpt lat="43.8207" lon="7.78987">
        <ele>8.5</ele>
        <time>2007-05-21T07:58:38.130Z</time>
      </trkpt>
      <trkpt lat="43.82077" lon="7.79049">
        <ele>9.75</ele>
        <time>2007-05-21T07:58:20.130Z</time>
      </trkpt>
      <trkpt lat="43.82079" lon="7.79103">
        <ele>10.75</ele>
        <time>2007-05-21T07:58:04.130Z</time>
      </trkpt>
      <trkpt lat="43.82079" lon="7.79135">
        <ele>11.5</ele>
        <time>2007-05-21T07:57:55.130Z</time>
      </trkpt>
      <trkpt lat="43.82077" lon="7.79165">
        <ele>12</ele>
        <time>2007-05-21T07:57:46.130Z</time>
      </trkpt>
      <trkpt lat="43.82071" lon="7.79227">
        <ele>12</ele>
        <time>2007-05-21T07:57:28.130Z</time>
      </trkpt>
      <trkpt lat="43.82066" lon="7.79257">
        <ele>11.75</ele>
        <time>2007-05-21T07:57:19.130Z</time>
      </trkpt>
      <trkpt lat="43.82059" lon="7.7929">
        <ele>11.25</ele>
        <time>2007-05-21T07:57:09.130Z</time>
      </trkpt>
      <trkpt lat="43.82042" lon="7.79369">
        <ele>9.25</ele>
        <time>2007-05-21T07:56:45.130Z</time>
      </trkpt>
      <trkpt lat="43.82036" lon="7.79404">
        <ele>8.5</ele>
        <time>2007-05-21T07:56:35.130Z</time>
      </trkpt>
      <trkpt lat="43.8203" lon="7.79453">
        <ele>7.5</ele>
        <time>2007-05-21T07:56:20.130Z</time>
      </trkpt>
      <trkpt lat="43.82028" lon="7.79481">
        <ele>7</ele>
        <time>2007-05-21T07:56:12.130Z</time>
      </trkpt>
      <trkpt lat="43.82027" lon="7.79551">
        <ele>6.5</ele>
        <time>2007-05-21T07:55:52.130Z</time>
      </trkpt>
      <trkpt lat="43.82027" lon="7.79572">
        <ele>6.5</ele>
        <time>2007-05-21T07:55:46.130Z</time>
      </trkpt>
      <trkpt lat="43.8203" lon="7.79612">
        <ele>7.25</ele>
        <time>2007-05-21T07:55:34.130Z</time>
      </trkpt>
      <trkpt lat="43.82034" lon="7.7965">
        <ele>8.5</ele>
        <time>2007-05-21T07:55:23.130Z</time>
      </trkpt>
      <trkpt lat="43.82042" lon="7.79694">
        <ele>8.25</ele>
        <time>2007-05-21T07:55:10.130Z</time>
      </trkpt>
      <trkpt lat="43.82051" lon="7.79736">
        <ele>7.5</ele>
        <time>2007-05-21T07:54:57.130Z</time>
      </trkpt>
      <trkpt lat="43.82061" lon="7.79772">
        <ele>6.75</ele>
        <time>2007-05-21T07:54:47.130Z</time>
      </trkpt>
      <trkpt lat="43.82074" lon="7.79812">
        <ele>6</ele>
        <time>2007-05-21T07:54:34.130Z</time>
      </trkpt>
      <trkpt lat="43.82102" lon="7.79873">
        <ele>5.5</ele>
        <time>2007-05-21T07:54:13.130Z</time>
      </trkpt>
      <trkpt lat="43.82147" lon="7.79959">
        <ele>6</ele>
        <time>2007-05-21T07:53:42.130Z</time>
      </trkpt>
      <trkpt lat="43.82175" lon="7.80006">
        <ele>5.5</ele>
        <time>2007-05-21T07:53:24.130Z</time>
      </trkpt>
      <trkpt lat="43.82184" lon="7.80022">
        <ele>6.25</ele>
        <time>2007-05-21T07:53:19.130Z</time>
      </trkpt>
      <trkpt lat="43.82199" lon="7.80049">
        <ele>7.5</ele>
        <time>2007-05-21T07:53:09.130Z</time>
      </trkpt>
      <trkpt lat="43.82214" lon="7.80075">
        <ele>9</ele>
        <time>2007-05-21T07:52:59.130Z</time>
      </trkpt>
      <trkpt lat="43.82231" lon="7.80109">
        <ele>9.5</ele>
        <time>2007-05-21T07:52:47.130Z</time>
      </trkpt>
      <trkpt lat="43.8225" lon="7.80139">
        <ele>9.5</ele>
        <time>2007-05-21T07:52:35.130Z</time>
      </trkpt>
      <trkpt lat="43.82265" lon="7.80169">
        <ele>8.5</ele>
        <time>2007-05-21T07:52:25.130Z</time>
      </trkpt>
      <trkpt lat="43.82284" lon="7.80211">
        <ele>9.25</ele>
        <time>2007-05-21T07:52:11.130Z</time>
      </trkpt>
      <trkpt lat="43.82304" lon="7.80261">
        <ele>11</ele>
        <time>2007-05-21T07:51:54.130Z</time>
      </trkpt>
      <trkpt lat="43.82313" lon="7.80287">
        <ele>11.75</ele>
        <time>2007-05-21T07:51:46.130Z</time>
      </trkpt>
      <trkpt lat="43.82314" lon="7.80293">
        <ele>12</ele>
        <time>2007-05-21T07:51:44.130Z</time>
      </trkpt>
      <trkpt lat="43.82315" lon="7.80294">
        <ele>12</ele>
        <time>2007-05-21T07:51:44.130Z</time>
      </trkpt>
      <trkpt lat="43.82316" lon="7.80299">
        <ele>12.25</ele>
        <time>2007-05-21T07:51:42.130Z</time>
      </trkpt>
      <trkpt lat="43.82321" lon="7.80318">
        <ele>12.5</ele>
        <time>2007-05-21T07:51:36.130Z</time>
      </trkpt>
      <trkpt lat="43.82332" lon="7.80379">
        <ele>14</ele>
        <time>2007-05-21T07:51:18.130Z</time>
      </trkpt>
      <trkpt lat="43.82339" lon="7.8042">
        <ele>14</ele>
        <time>2007-05-21T07:51:06.130Z</time>
      </trkpt>
      <trkpt lat="43.82344" lon="7.80462">
        <ele>16.5</ele>
        <time>2007-05-21T07:50:54.130Z</time>
      </trkpt>
      <trkpt lat="43.82345" lon="7.80498">
        <ele>18</ele>
        <time>2007-05-21T07:50:43.130Z</time>
      </trkpt>
      <trkpt lat="43.82346" lon="7.80529">
        <ele>16.5</ele>
        <time>2007-05-21T07:50:34.130Z</time>
      </trkpt>
      <trkpt lat="43.82345" lon="7.80567">
        <ele>14.25</ele>
        <time>2007-05-21T07:50:23.130Z</time>
      </trkpt>
      <trkpt lat="43.82344" lon="7.80582">
        <ele>13</ele>
        <time>2007-05-21T07:50:19.130Z</time>
      </trkpt>
      <trkpt lat="43.82341" lon="7.80617">
        <ele>12.75</ele>
        <time>2007-05-21T07:50:09.130Z</time>
      </trkpt>
      <trkpt lat="43.82338" lon="7.80649">
        <ele>12.5</ele>
        <time>2007-05-21T07:49:59.130Z</time>
      </trkpt>
      <trkpt lat="43.82336" lon="7.80663">
        <ele>12.25</ele>
        <time>2007-05-21T07:49:55.130Z</time>
      </trkpt>
      <trkpt lat="43.82334" lon="7.80674">
        <ele>12.25</ele>
        <time>2007-05-21T07:49:52.130Z</time>
      </trkpt>
      <trkpt lat="43.82317" lon="7.80809">
        <ele>15</ele>
        <time>2007-05-21T07:49:12.130Z</time>
      </trkpt>
      <trkpt lat="43.82313" lon="7.80834">
        <ele>15</ele>
        <time>2007-05-21T07:49:05.130Z</time>
      </trkpt>
      <trkpt lat="43.82309" lon="7.80873">
        <ele>13.5</ele>
        <time>2007-05-21T07:48:53.130Z</time>
      </trkpt>
      <trkpt lat="43.82306" lon="7.80893">
        <ele>12.5</ele>
        <time>2007-05-21T07:48:48.130Z</time>
      </trkpt>
      <trkpt lat="43.82299" lon="7.80948">
        <ele>12</ele>
        <time>2007-05-21T07:48:31.130Z</time>
      </trkpt>
      <trkpt lat="43.82284" lon="7.81059">
        <ele>14</ele>
        <time>2007-05-21T07:47:59.130Z</time>
      </trkpt>
      <trkpt lat="43.8226" lon="7.81252">
        <ele>11.25</ele>
        <time>2007-05-21T07:47:02.130Z</time>
      </trkpt>
      <trkpt lat="43.82247" lon="7.81364">
        <ele>14</ele>
        <time>2007-05-21T07:46:29.130Z</time>
      </trkpt>
      <trkpt lat="43.82244" lon="7.81374">
        <ele>14</ele>
        <time>2007-05-21T07:46:26.130Z</time>
      </trkpt>
      <trkpt lat="43.82237" lon="7.81426">
        <ele>14</ele>
        <time>2007-05-21T07:46:11.130Z</time>
      </trkpt>
      <trkpt lat="43.82215" lon="7.81532">
        <ele>14</ele>
        <time>2007-05-21T07:45:39.130Z</time>
      </trkpt>
      <trkpt lat="43.82211" lon="7.81549">
        <ele>14</ele>
        <time>2007-05-21T07:45:34.130Z</time>
      </trkpt>
      <trkpt lat="43.82187" lon="7.81643">
        <ele>14</ele>
        <time>2007-05-21T07:45:05.130Z</time>
      </trkpt>
      <trkpt lat="43.82183" lon="7.81653">
        <ele>13.25</ele>
        <time>2007-05-21T07:45:02.130Z</time>
      </trkpt>
      <trkpt lat="43.82171" lon="7.81698">
        <ele>13.25</ele>
        <time>2007-05-21T07:44:48.130Z</time>
      </trkpt>
      <trkpt lat="43.82158" lon="7.81743">
        <ele>24.25</ele>
        <time>2007-05-21T07:44:34.130Z</time>
      </trkpt>
      <trkpt lat="43.82155" lon="7.81755">
        <ele>24.25</ele>
        <time>2007-05-21T07:44:30.130Z</time>
      </trkpt>
      <trkpt lat="43.82142" lon="7.81793">
        <ele>24.25</ele>
        <time>2007-05-21T07:44:18.130Z</time>
      </trkpt>
      <trkpt lat="43.82131" lon="7.81819">
        <ele>24.25</ele>
        <time>2007-05-21T07:44:09.130Z</time>
      </trkpt>
      <trkpt lat="43.82061" lon="7.82008">
        <ele>24.25</ele>
        <time>2007-05-21T07:43:08.130Z</time>
      </trkpt>
      <trkpt lat="43.82052" lon="7.82032">
        <ele>22.5</ele>
        <time>2007-05-21T07:43:00.130Z</time>
      </trkpt>
      <trkpt lat="43.82041" lon="7.82057">
        <ele>20</ele>
        <time>2007-05-21T07:42:52.130Z</time>
      </trkpt>
      <trkpt lat="43.82038" lon="7.82066">
        <ele>19.5</ele>
        <time>2007-05-21T07:42:49.130Z</time>
      </trkpt>
      <trkpt lat="43.82029" lon="7.82089">
        <ele>17.75</ele>
        <time>2007-05-21T07:42:41.130Z</time>
      </trkpt>
      <trkpt lat="43.81999" lon="7.82159">
        <ele>15</ele>
        <time>2007-05-21T07:42:18.130Z</time>
      </trkpt>
      <trkpt lat="43.81982" lon="7.82195">
        <ele>15</ele>
        <time>2007-05-21T07:42:05.130Z</time>
      </trkpt>
      <trkpt lat="43.81929" lon="7.82295">
        <ele>13.25</ele>
        <time>2007-05-21T07:41:29.130Z</time>
      </trkpt>
      <trkpt lat="43.81921" lon="7.82311">
        <ele>13</ele>
        <time>2007-05-21T07:41:24.130Z</time>
      </trkpt>
      <trkpt lat="43.81899" lon="7.82362">
        <ele>15.75</ele>
        <time>2007-05-21T07:41:06.130Z</time>
      </trkpt>
      <trkpt lat="43.81887" lon="7.82391">
        <ele>15.75</ele>
        <time>2007-05-21T07:40:57.130Z</time>
      </trkpt>
      <trkpt lat="43.81875" lon="7.82429">
        <ele>15.75</ele>
        <time>2007-05-21T07:40:45.130Z</time>
      </trkpt>
      <trkpt lat="43.81872" lon="7.82436">
        <ele>15.75</ele>
        <time>2007-05-21T07:40:42.130Z</time>
      </trkpt>
      <trkpt lat="43.8186" lon="7.82481">
        <ele>16.5</ele>
        <time>2007-05-21T07:40:29.130Z</time>
      </trkpt>
      <trkpt lat="43.81836" lon="7.82559">
        <ele>15.75</ele>
        <time>2007-05-21T07:40:04.130Z</time>
      </trkpt>
      <trkpt lat="43.81831" lon="7.82571">
        <ele>15.5</ele>
        <time>2007-05-21T07:40:00.130Z</time>
      </trkpt>
      <trkpt lat="43.81824" lon="7.82596">
        <ele>16.5</ele>
        <time>2007-05-21T07:39:52.130Z</time>
      </trkpt>
      <trkpt lat="43.81818" lon="7.8261">
        <ele>17</ele>
        <time>2007-05-21T07:39:48.130Z</time>
      </trkpt>
      <trkpt lat="43.81795" lon="7.82658">
        <ele>17.25</ele>
        <time>2007-05-21T07:39:31.130Z</time>
      </trkpt>
      <trkpt lat="43.81765" lon="7.82714">
        <ele>18</ele>
        <time>2007-05-21T07:39:11.130Z</time>
      </trkpt>
      <trkpt lat="43.8174" lon="7.82765">
        <ele>18.5</ele>
        <time>2007-05-21T07:38:53.130Z</time>
      </trkpt>
      <trkpt lat="43.81725" lon="7.82801">
        <ele>19.75</ele>
        <time>2007-05-21T07:38:41.130Z</time>
      </trkpt>
      <trkpt lat="43.81715" lon="7.82832">
        <ele>20.75</ele>
        <time>2007-05-21T07:38:31.130Z</time>
      </trkpt>
      <trkpt lat="43.8171" lon="7.82851">
        <ele>21.25</ele>
        <time>2007-05-21T07:38:25.130Z</time>
      </trkpt>
      <trkpt lat="43.81705" lon="7.82864">
        <ele>21.5</ele>
        <time>2007-05-21T07:38:21.130Z</time>
      </trkpt>
      <trkpt lat="43.81687" lon="7.82903">
        <ele>21.5</ele>
        <time>2007-05-21T07:38:08.130Z</time>
      </trkpt>
      <trkpt lat="43.81649" lon="7.83055">
        <ele>21.5</ele>
        <time>2007-05-21T07:37:21.130Z</time>
      </trkpt>
      <trkpt lat="43.81647" lon="7.83064">
        <ele>21.5</ele>
        <time>2007-05-21T07:37:18.130Z</time>
      </trkpt>
      <trkpt lat="43.81647" lon="7.8307">
        <ele>21.5</ele>
        <time>2007-05-21T07:37:17.130Z</time>
      </trkpt>
      <trkpt lat="43.81656" lon="7.83142">
        <ele>21.5</ele>
        <time>2007-05-21T07:36:56.130Z</time>
      </trkpt>
      <trkpt lat="43.8171" lon="7.83253">
        <ele>21.5</ele>
        <time>2007-05-21T07:36:17.130Z</time>
      </trkpt>
      <trkpt lat="43.81716" lon="7.83276">
        <ele>21.5</ele>
        <time>2007-05-21T07:36:10.130Z</time>
      </trkpt>
      <trkpt lat="43.8172" lon="7.83292">
        <ele>20.75</ele>
        <time>2007-05-21T07:36:05.130Z</time>
      </trkpt>
      <trkpt lat="43.8178" lon="7.83416">
        <ele>17.75</ele>
        <time>2007-05-21T07:35:22.130Z</time>
      </trkpt>
      <trkpt lat="43.8182" lon="7.83471">
        <ele>16.75</ele>
        <time>2007-05-21T07:34:59.130Z</time>
      </trkpt>
      <trkpt lat="43.81873" lon="7.83531">
        <ele>13.75</ele>
        <time>2007-05-21T07:34:32.130Z</time>
      </trkpt>
      <trkpt lat="43.81887" lon="7.83542">
        <ele>13.75</ele>
        <time>2007-05-21T07:34:25.130Z</time>
      </trkpt>
      <trkpt lat="43.81888" lon="7.83543">
        <ele>13.5</ele>
        <time>2007-05-21T07:34:25.130Z</time>
      </trkpt>
      <trkpt lat="43.81891" lon="7.83545">
        <ele>13.75</ele>
        <time>2007-05-21T07:34:23.130Z</time>
      </trkpt>
      <trkpt lat="43.81929" lon="7.83574">
        <ele>12.5</ele>
        <time>2007-05-21T07:34:06.130Z</time>
      </trkpt>
      <trkpt lat="43.81967" lon="7.83616">
        <ele>10.25</ele>
        <time>2007-05-21T07:33:47.130Z</time>
      </trkpt>
      <trkpt lat="43.82017" lon="7.83696">
        <ele>8.25</ele>
        <time>2007-05-21T07:33:16.130Z</time>
      </trkpt>
      <trkpt lat="43.82023" lon="7.83706">
        <ele>8.25</ele>
        <time>2007-05-21T07:33:12.130Z</time>
      </trkpt>
      <trkpt lat="43.82034" lon="7.83729">
        <ele>8.25</ele>
        <time>2007-05-21T07:33:04.130Z</time>
      </trkpt>
      <trkpt lat="43.82074" lon="7.83805">
        <ele>7.75</ele>
        <time>2007-05-21T07:32:37.130Z</time>
      </trkpt>
      <trkpt lat="43.82084" lon="7.83822">
        <ele>7.25</ele>
        <time>2007-05-21T07:32:31.130Z</time>
      </trkpt>
      <trkpt lat="43.82096" lon="7.83842">
        <ele>8.75</ele>
        <time>2007-05-21T07:32:23.130Z</time>
      </trkpt>
      <trkpt lat="43.82104" lon="7.83853">
        <ele>9.75</ele>
        <time>2007-05-21T07:32:19.130Z</time>
      </trkpt>
      <trkpt lat="43.8214" lon="7.83897">
        <ele>14</ele>
        <time>2007-05-21T07:32:00.130Z</time>
      </trkpt>
      <trkpt lat="43.8215" lon="7.83911">
        <ele>15</ele>
        <time>2007-05-21T07:31:54.130Z</time>
      </trkpt>
      <trkpt lat="43.82168" lon="7.8393">
        <ele>17</ele>
        <time>2007-05-21T07:31:45.130Z</time>
      </trkpt>
      <trkpt lat="43.82195" lon="7.83952">
        <ele>20.25</ele>
        <time>2007-05-21T07:31:32.130Z</time>
      </trkpt>
      <trkpt lat="43.82222" lon="7.83971">
        <ele>20.75</ele>
        <time>2007-05-21T07:31:20.130Z</time>
      </trkpt>
      <trkpt lat="43.82252" lon="7.83989">
        <ele>19.25</ele>
        <time>2007-05-21T07:31:07.130Z</time>
      </trkpt>
      <trkpt lat="43.82279" lon="7.84002">
        <ele>19.5</ele>
        <time>2007-05-21T07:30:56.130Z</time>
      </trkpt>
      <trkpt lat="43.82299" lon="7.84009">
        <ele>20.25</ele>
        <time>2007-05-21T07:30:47.130Z</time>
      </trkpt>
      <trkpt lat="43.82312" lon="7.84011">
        <ele>21</ele>
        <time>2007-05-21T07:30:42.130Z</time>
      </trkpt>
      <trkpt lat="43.82363" lon="7.84021">
        <ele>20.5</ele>
        <time>2007-05-21T07:30:21.130Z</time>
      </trkpt>
      <trkpt lat="43.82376" lon="7.84024">
        <ele>20.5</ele>
        <time>2007-05-21T07:30:16.130Z</time>
      </trkpt>
      <trkpt lat="43.82442" lon="7.84035">
        <ele>17.5</ele>
        <time>2007-05-21T07:29:50.130Z</time>
      </trkpt>
      <trkpt lat="43.82469" lon="7.84044">
        <ele>16</ele>
        <time>2007-05-21T07:29:38.130Z</time>
      </trkpt>
      <trkpt lat="43.82497" lon="7.84055">
        <ele>14.5</ele>
        <time>2007-05-21T07:29:27.130Z</time>
      </trkpt>
      <trkpt lat="43.82516" lon="7.84068">
        <ele>14</ele>
        <time>2007-05-21T07:29:18.130Z</time>
      </trkpt>
      <trkpt lat="43.82595" lon="7.8412">
        <ele>13.5</ele>
        <time>2007-05-21T07:28:43.130Z</time>
      </trkpt>
      <trkpt lat="43.8262" lon="7.84145">
        <ele>13.5</ele>
        <time>2007-05-21T07:28:31.130Z</time>
      </trkpt>
      <trkpt lat="43.82635" lon="7.84161">
        <ele>13.25</ele>
        <time>2007-05-21T07:28:23.130Z</time>
      </trkpt>
      <trkpt lat="43.82659" lon="7.84192">
        <ele>13</ele>
        <time>2007-05-21T07:28:10.130Z</time>
      </trkpt>
      <trkpt lat="43.82691" lon="7.84242">
        <ele>16.25</ele>
        <time>2007-05-21T07:27:50.130Z</time>
      </trkpt>
      <trkpt lat="43.82715" lon="7.84284">
        <ele>19.25</ele>
        <time>2007-05-21T07:27:35.130Z</time>
      </trkpt>
      <trkpt lat="43.82771" lon="7.84376">
        <ele>21</ele>
        <time>2007-05-21T07:27:00.130Z</time>
      </trkpt>
      <trkpt lat="43.82844" lon="7.84499">
        <ele>21.5</ele>
        <time>2007-05-21T07:26:14.130Z</time>
      </trkpt>
      <trkpt lat="43.82902" lon="7.84592">
        <ele>24</ele>
        <time>2007-05-21T07:25:39.130Z</time>
      </trkpt>
      <trkpt lat="43.82904" lon="7.84595">
        <ele>24</ele>
        <time>2007-05-21T07:25:38.130Z</time>
      </trkpt>
      <trkpt lat="43.82975" lon="7.84716">
        <ele>20.5</ele>
        <time>2007-05-21T07:24:53.130Z</time>
      </trkpt>
      <trkpt lat="43.83067" lon="7.84868">
        <ele>10.5</ele>
        <time>2007-05-21T07:23:55.130Z</time>
      </trkpt>
      <trkpt lat="43.83076" lon="7.84887">
        <ele>10.75</ele>
        <time>2007-05-21T07:23:49.130Z</time>
      </trkpt>
      <trkpt lat="43.83083" lon="7.849">
        <ele>11</ele>
        <time>2007-05-21T07:23:44.130Z</time>
      </trkpt>
      <trkpt lat="43.83089" lon="7.84911">
        <ele>11.25</ele>
        <time>2007-05-21T07:23:40.130Z</time>
      </trkpt>
      <trkpt lat="43.83104" lon="7.84936">
        <ele>11.25</ele>
        <time>2007-05-21T07:23:31.130Z</time>
      </trkpt>
      <trkpt lat="43.83118" lon="7.84966">
        <ele>11</ele>
        <time>2007-05-21T07:23:20.130Z</time>
      </trkpt>
      <trkpt lat="43.83124" lon="7.8498">
        <ele>11</ele>
        <time>2007-05-21T07:23:15.130Z</time>
      </trkpt>
      <trkpt lat="43.83128" lon="7.8499">
        <ele>10.75</ele>
        <time>2007-05-21T07:23:12.130Z</time>
      </trkpt>
      <trkpt lat="43.83142" lon="7.85028">
        <ele>10.75</ele>
        <time>2007-05-21T07:23:00.130Z</time>
      </trkpt>
      <trkpt lat="43.83155" lon="7.85042">
        <ele>11</ele>
        <time>2007-05-21T07:22:53.130Z</time>
      </trkpt>
      <trkpt lat="43.83165" lon="7.8508">
        <ele>11</ele>
        <time>2007-05-21T07:22:49.689Z</time>
      </trkpt>
      <trkpt lat="43.83165" lon="7.8508">
        <ele>11</ele>
        <time>2007-05-21T07:22:49.689Z</time>
      </trkpt>
      <trkpt lat="43.83175" lon="7.85127">
        <ele>11.5</ele>
        <time>2007-05-21T07:22:35.363Z</time>
      </trkpt>
      <trkpt lat="43.83183" lon="7.8517">
        <ele>11.75</ele>
        <time>2007-05-21T07:22:22.527Z</time>
      </trkpt>
      <trkpt lat="43.83184" lon="7.85176">
        <ele>11.75</ele>
        <time>2007-05-21T07:22:20.797Z</time>
      </trkpt>
      <trkpt lat="43.83186" lon="7.85188">
        <ele>11.5</ele>
        <time>2007-05-21T07:22:17.314Z</time>
      </trkpt>
      <trkpt lat="43.83201" lon="7.85258">
        <ele>10.5</ele>
        <time>2007-05-21T07:21:56.165Z</time>
      </trkpt>
      <trkpt lat="43.83208" lon="7.85296">
        <ele>10.25</ele>
        <time>2007-05-21T07:21:44.814Z</time>
      </trkpt>
      <trkpt lat="43.83205" lon="7.853">
        <ele>10.25</ele>
        <time>2007-05-21T07:21:43.086Z</time>
      </trkpt>
      <trkpt lat="43.83199" lon="7.85302">
        <ele>10.25</ele>
        <time>2007-05-21T07:21:40.428Z</time>
      </trkpt>
      <trkpt lat="43.83195" lon="7.85306">
        <ele>10</ele>
        <time>2007-05-21T07:21:38.625Z</time>
      </trkpt>
      <trkpt lat="43.83193" lon="7.85312">
        <ele>10</ele>
        <time>2007-05-21T07:21:36.621Z</time>
      </trkpt>
      <trkpt lat="43.83199" lon="7.85349">
        <ele>9.75</ele>
        <time>2007-05-21T07:21:25.527Z</time>
      </trkpt>
      <trkpt lat="43.83204" lon="7.85351">
        <ele>9.75</ele>
        <time>2007-05-21T07:21:23.523Z</time>
      </trkpt>
      <trkpt lat="43.83209" lon="7.85367">
        <ele>9.5</ele>
        <time>2007-05-21T07:21:18.519Z</time>
      </trkpt>
      <trkpt lat="43.83219" lon="7.85422">
        <ele>8.5</ele>
        <time>2007-05-21T07:21:02.138Z</time>
      </trkpt>
      <trkpt lat="43.83219" lon="7.85434">
        <ele>8.75</ele>
        <time>2007-05-21T07:20:58.538Z</time>
      </trkpt>
      <trkpt lat="43.83236" lon="7.85533">
        <ele>8.75</ele>
        <time>2007-05-21T07:20:26.011Z</time>
      </trkpt>
      <trkpt lat="43.83236" lon="7.85533">
        <ele>8.75</ele>
        <time>2007-05-21T07:20:25.963Z</time>
      </trkpt>
      <trkpt lat="43.83237" lon="7.85535">
        <ele>9</ele>
        <time>2007-05-21T07:20:25.270Z</time>
      </trkpt>
      <trkpt lat="43.8324" lon="7.85541">
        <ele>9</ele>
        <time>2007-05-21T07:20:22.918Z</time>
      </trkpt>
      <trkpt lat="43.83243" lon="7.85542">
        <ele>9</ele>
        <time>2007-05-21T07:20:21.785Z</time>
      </trkpt>
      <trkpt lat="43.83248" lon="7.8554">
        <ele>9</ele>
        <time>2007-05-21T07:20:19.867Z</time>
      </trkpt>
      <trkpt lat="43.83249" lon="7.85545">
        <ele>8.75</ele>
        <time>2007-05-21T07:20:18.259Z</time>
      </trkpt>
      <trkpt lat="43.8325" lon="7.85551">
        <ele>8.75</ele>
        <time>2007-05-21T07:20:16.573Z</time>
      </trkpt>
      <trkpt lat="43.83246" lon="7.85552">
        <ele>8.75</ele>
        <time>2007-05-21T07:20:14.939Z</time>
      </trkpt>
      <trkpt lat="43.83244" lon="7.85553">
        <ele>8.75</ele>
        <time>2007-05-21T07:20:14.136Z</time>
      </trkpt>
      <trkpt lat="43.83241" lon="7.85559">
        <ele>8.5</ele>
        <time>2007-05-21T07:20:12.096Z</time>
      </trkpt>
      <trkpt lat="43.8324" lon="7.85565">
        <ele>8.5</ele>
        <time>2007-05-21T07:20:10.449Z</time>
      </trkpt>
      <trkpt lat="43.83248" lon="7.85614">
        <ele>7.25</ele>
        <time>2007-05-21T07:19:55.719Z</time>
      </trkpt>
      <trkpt lat="43.83248" lon="7.85614">
        <ele>7.25</ele>
        <time>2007-05-21T07:19:55.719Z</time>
      </trkpt>
      <trkpt lat="43.8326" lon="7.85617">
        <ele>7.25</ele>
        <time>2007-05-21T07:19:50.997Z</time>
      </trkpt>
      <trkpt lat="43.83271" lon="7.85618">
        <ele>7.5</ele>
        <time>2007-05-21T07:19:46.627Z</time>
      </trkpt>
      <trkpt lat="43.83278" lon="7.85616">
        <ele>7.75</ele>
        <time>2007-05-21T07:19:43.762Z</time>
      </trkpt>
      <trkpt lat="43.83282" lon="7.85618">
        <ele>7.75</ele>
        <time>2007-05-21T07:19:41.995Z</time>
      </trkpt>
      <trkpt lat="43.83282" lon="7.85618">
        <ele>7.75</ele>
        <time>2007-05-21T07:19:41.947Z</time>
      </trkpt>
      <trkpt lat="43.83305" lon="7.85731">
        <ele>5.25</ele>
        <time>2007-05-21T07:19:08.130Z</time>
      </trkpt>
      <trkpt lat="43.83315" lon="7.85813">
        <ele>4.75</ele>
        <time>2007-05-21T07:18:44.130Z</time>
      </trkpt>
      <trkpt lat="43.83332" lon="7.85914">
        <ele>3</ele>
        <time>2007-05-21T07:18:14.130Z</time>
      </trkpt>
      <trkpt lat="43.83356" lon="7.86026">
        <ele>3</ele>
        <time>2007-05-21T07:17:41.130Z</time>
      </trkpt>
      <trkpt lat="43.83424" lon="7.86309">
        <ele>3.25</ele>
        <time>2007-05-21T07:16:15.130Z</time>
      </trkpt>
      <trkpt lat="43.83428" lon="7.86328">
        <ele>3</ele>
        <time>2007-05-21T07:16:09.130Z</time>
      </trkpt>
      <trkpt lat="43.83489" lon="7.86609">
        <ele>4.75</ele>
        <time>2007-05-21T07:14:44.130Z</time>
      </trkpt>
      <trkpt lat="43.83514" lon="7.86723">
        <ele>5.75</ele>
        <time>2007-05-21T07:14:09.130Z</time>
      </trkpt>
      <trkpt lat="43.83541" lon="7.86848">
        <ele>6.75</ele>
        <time>2007-05-21T07:13:32.130Z</time>
      </trkpt>
      <trkpt lat="43.83615" lon="7.87189">
        <ele>10</ele>
        <time>2007-05-21T07:11:49.130Z</time>
      </trkpt>
      <trkpt lat="43.83641" lon="7.87311">
        <ele>8.5</ele>
        <time>2007-05-21T07:11:12.130Z</time>
      </trkpt>
      <trkpt lat="43.83643" lon="7.87321">
        <ele>8.25</ele>
        <time>2007-05-21T07:11:09.130Z</time>
      </trkpt>
      <trkpt lat="43.83646" lon="7.87333">
        <ele>8</ele>
        <time>2007-05-21T07:11:05.130Z</time>
      </trkpt>
      <trkpt lat="43.83649" lon="7.87345">
        <ele>8.25</ele>
        <time>2007-05-21T07:11:02.130Z</time>
      </trkpt>
      <trkpt lat="43.83651" lon="7.87354">
        <ele>8.5</ele>
        <time>2007-05-21T07:10:59.130Z</time>
      </trkpt>
      <trkpt lat="43.83668" lon="7.87445">
        <ele>11.25</ele>
        <time>2007-05-21T07:10:32.130Z</time>
      </trkpt>
      <trkpt lat="43.83692" lon="7.87538">
        <ele>12.5</ele>
        <time>2007-05-21T07:10:03.130Z</time>
      </trkpt>
      <trkpt lat="43.83725" lon="7.87638">
        <ele>11.75</ele>
        <time>2007-05-21T07:09:31.130Z</time>
      </trkpt>
      <trkpt lat="43.838" lon="7.87827">
        <ele>8.5</ele>
        <time>2007-05-21T07:08:29.130Z</time>
      </trkpt>
      <trkpt lat="43.83807" lon="7.87844">
        <ele>8.25</ele>
        <time>2007-05-21T07:08:23.130Z</time>
      </trkpt>
      <trkpt lat="43.83821" lon="7.87879">
        <ele>9</ele>
        <time>2007-05-21T07:08:12.130Z</time>
      </trkpt>
      <trkpt lat="43.83881" lon="7.88053">
        <ele>12.25</ele>
        <time>2007-05-21T07:07:16.130Z</time>
      </trkpt>
      <trkpt lat="43.83904" lon="7.88154">
        <ele>14.25</ele>
        <time>2007-05-21T07:06:45.130Z</time>
      </trkpt>
      <trkpt lat="43.83916" lon="7.88205">
        <ele>14.5</ele>
        <time>2007-05-21T07:06:30.130Z</time>
      </trkpt>
      <trkpt lat="43.83928" lon="7.88328">
        <ele>13.5</ele>
        <time>2007-05-21T07:05:54.130Z</time>
      </trkpt>
      <trkpt lat="43.8393" lon="7.88372">
        <ele>12.75</ele>
        <time>2007-05-21T07:05:41.130Z</time>
      </trkpt>
      <trkpt lat="43.83933" lon="7.88431">
        <ele>11.75</ele>
        <time>2007-05-21T07:05:24.130Z</time>
      </trkpt>
      <trkpt lat="43.83934" lon="7.8849">
        <ele>10.25</ele>
        <time>2007-05-21T07:05:07.130Z</time>
      </trkpt>
      <trkpt lat="43.8393" lon="7.88569">
        <ele>10.5</ele>
        <time>2007-05-21T07:04:44.130Z</time>
      </trkpt>
      <trkpt lat="43.83928" lon="7.88595">
        <ele>10.75</ele>
        <time>2007-05-21T07:04:37.130Z</time>
      </trkpt>
      <trkpt lat="43.83916" lon="7.88691">
        <ele>12.5</ele>
        <time>2007-05-21T07:04:08.130Z</time>
      </trkpt>
      <trkpt lat="43.83909" lon="7.88746">
        <ele>13.5</ele>
        <time>2007-05-21T07:03:53.130Z</time>
      </trkpt>
      <trkpt lat="43.83903" lon="7.88812">
        <ele>15.25</ele>
        <time>2007-05-21T07:03:33.130Z</time>
      </trkpt>
      <trkpt lat="43.83882" lon="7.89012">
        <ele>12.5</ele>
        <time>2007-05-21T07:02:35.130Z</time>
      </trkpt>
      <trkpt lat="43.8388" lon="7.89038">
        <ele>12.5</ele>
        <time>2007-05-21T07:02:27.130Z</time>
      </trkpt>
      <trkpt lat="43.8388" lon="7.89066">
        <ele>12.75</ele>
        <time>2007-05-21T07:02:19.130Z</time>
      </trkpt>
      <trkpt lat="43.83878" lon="7.89082">
        <ele>12.5</ele>
        <time>2007-05-21T07:02:14.130Z</time>
      </trkpt>
      <trkpt lat="43.83864" lon="7.89173">
        <ele>13.25</ele>
        <time>2007-05-21T07:01:47.130Z</time>
      </trkpt>
      <trkpt lat="43.83854" lon="7.8926">
        <ele>13</ele>
        <time>2007-05-21T07:01:22.130Z</time>
      </trkpt>
      <trkpt lat="43.83848" lon="7.893">
        <ele>13</ele>
        <time>2007-05-21T07:01:10.130Z</time>
      </trkpt>
      <trkpt lat="43.83845" lon="7.89348">
        <ele>13.5</ele>
        <time>2007-05-21T07:00:56.130Z</time>
      </trkpt>
      <trkpt lat="43.83827" lon="7.89493">
        <ele>16</ele>
        <time>2007-05-21T07:00:14.130Z</time>
      </trkpt>
      <trkpt lat="43.83815" lon="7.89623">
        <ele>13.5</ele>
        <time>2007-05-21T06:59:36.130Z</time>
      </trkpt>
      <trkpt lat="43.83808" lon="7.89695">
        <ele>13</ele>
        <time>2007-05-21T06:59:15.130Z</time>
      </trkpt>
      <trkpt lat="43.838" lon="7.89752">
        <ele>13.5</ele>
        <time>2007-05-21T06:58:58.130Z</time>
      </trkpt>
      <trkpt lat="43.83786" lon="7.89878">
        <ele>11.25</ele>
        <time>2007-05-21T06:58:21.130Z</time>
      </trkpt>
      <trkpt lat="43.83779" lon="7.89927">
        <ele>10.75</ele>
        <time>2007-05-21T06:58:07.130Z</time>
      </trkpt>
      <trkpt lat="43.83772" lon="7.89959">
        <ele>11.25</ele>
        <time>2007-05-21T06:57:57.130Z</time>
      </trkpt>
      <trkpt lat="43.83759" lon="7.90004">
        <ele>11</ele>
        <time>2007-05-21T06:57:43.130Z</time>
      </trkpt>
      <trkpt lat="43.83728" lon="7.90109">
        <ele>11.5</ele>
        <time>2007-05-21T06:57:11.130Z</time>
      </trkpt>
      <trkpt lat="43.8371" lon="7.90185">
        <ele>13.25</ele>
        <time>2007-05-21T06:56:47.130Z</time>
      </trkpt>
      <trkpt lat="43.83683" lon="7.90297">
        <ele>10</ele>
        <time>2007-05-21T06:56:13.130Z</time>
      </trkpt>
      <trkpt lat="43.83665" lon="7.90386">
        <ele>9.25</ele>
        <time>2007-05-21T06:55:46.130Z</time>
      </trkpt>
      <trkpt lat="43.83666" lon="7.90413">
        <ele>9.25</ele>
        <time>2007-05-21T06:55:39.130Z</time>
      </trkpt>
      <trkpt lat="43.83676" lon="7.90437">
        <ele>9.25</ele>
        <time>2007-05-21T06:55:30.130Z</time>
      </trkpt>
      <trkpt lat="43.83713" lon="7.90471">
        <ele>15.5</ele>
        <time>2007-05-21T06:55:13.130Z</time>
      </trkpt>
      <trkpt lat="43.83721" lon="7.90484">
        <ele>16.25</ele>
        <time>2007-05-21T06:55:08.130Z</time>
      </trkpt>
      <trkpt lat="43.83725" lon="7.90496">
        <ele>16.25</ele>
        <time>2007-05-21T06:55:04.130Z</time>
      </trkpt>
      <trkpt lat="43.83752" lon="7.90606">
        <ele>14.25</ele>
        <time>2007-05-21T06:54:30.130Z</time>
      </trkpt>
      <trkpt lat="43.83773" lon="7.90683">
        <ele>15</ele>
        <time>2007-05-21T06:54:07.130Z</time>
      </trkpt>
      <trkpt lat="43.83794" lon="7.90739">
        <ele>14.75</ele>
        <time>2007-05-21T06:53:49.130Z</time>
      </trkpt>
      <trkpt lat="43.83834" lon="7.90806">
        <ele>13</ele>
        <time>2007-05-21T06:53:23.130Z</time>
      </trkpt>
      <trkpt lat="43.83888" lon="7.90876">
        <ele>16.5</ele>
        <time>2007-05-21T06:52:53.130Z</time>
      </trkpt>
      <trkpt lat="43.83956" lon="7.91006">
        <ele>18</ele>
        <time>2007-05-21T06:52:07.130Z</time>
      </trkpt>
      <trkpt lat="43.84027" lon="7.91151">
        <ele>16.75</ele>
        <time>2007-05-21T06:51:16.130Z</time>
      </trkpt>
      <trkpt lat="43.84075" lon="7.91284">
        <ele>13.5</ele>
        <time>2007-05-21T06:50:33.130Z</time>
      </trkpt>
      <trkpt lat="43.84095" lon="7.91332">
        <ele>11.5</ele>
        <time>2007-05-21T06:50:18.130Z</time>
      </trkpt>
      <trkpt lat="43.84141" lon="7.91409">
        <ele>9</ele>
        <time>2007-05-21T06:49:48.130Z</time>
      </trkpt>
      <trkpt lat="43.84165" lon="7.91435">
        <ele>10.5</ele>
        <time>2007-05-21T06:49:37.130Z</time>
      </trkpt>
      <trkpt lat="43.84264" lon="7.91543">
        <ele>14.25</ele>
        <time>2007-05-21T06:48:46.130Z</time>
      </trkpt>
      <trkpt lat="43.84294" lon="7.91589">
        <ele>13</ele>
        <time>2007-05-21T06:48:28.130Z</time>
      </trkpt>
      <trkpt lat="43.84308" lon="7.91613">
        <ele>11.75</ele>
        <time>2007-05-21T06:48:19.130Z</time>
      </trkpt>
      <trkpt lat="43.84343" lon="7.91692">
        <ele>9.75</ele>
        <time>2007-05-21T06:47:52.130Z</time>
      </trkpt>
      <trkpt lat="43.84361" lon="7.91744">
        <ele>11.25</ele>
        <time>2007-05-21T06:47:35.130Z</time>
      </trkpt>
      <trkpt lat="43.84373" lon="7.91792">
        <ele>11.75</ele>
        <time>2007-05-21T06:47:21.130Z</time>
      </trkpt>
      <trkpt lat="43.8439" lon="7.91884">
        <ele>8</ele>
        <time>2007-05-21T06:46:53.130Z</time>
      </trkpt>
      <trkpt lat="43.84418" lon="7.91975">
        <ele>7</ele>
        <time>2007-05-21T06:46:25.130Z</time>
      </trkpt>
      <trkpt lat="43.84447" lon="7.92073">
        <ele>11</ele>
        <time>2007-05-21T06:45:54.130Z</time>
      </trkpt>
      <trkpt lat="43.84466" lon="7.92186">
        <ele>11.5</ele>
        <time>2007-05-21T06:45:21.130Z</time>
      </trkpt>
      <trkpt lat="43.84473" lon="7.92282">
        <ele>12.75</ele>
        <time>2007-05-21T06:44:53.130Z</time>
      </trkpt>
      <trkpt lat="43.84471" lon="7.92365">
        <ele>12.75</ele>
        <time>2007-05-21T06:44:29.130Z</time>
      </trkpt>
      <trkpt lat="43.84463" lon="7.92515">
        <ele>13</ele>
        <time>2007-05-21T06:43:45.130Z</time>
      </trkpt>
      <trkpt lat="43.84463" lon="7.92565">
        <ele>14</ele>
        <time>2007-05-21T06:43:31.130Z</time>
      </trkpt>
      <trkpt lat="43.84466" lon="7.92611">
        <ele>15.25</ele>
        <time>2007-05-21T06:43:17.130Z</time>
      </trkpt>
      <trkpt lat="43.84479" lon="7.92704">
        <ele>18</ele>
        <time>2007-05-21T06:42:50.130Z</time>
      </trkpt>
      <trkpt lat="43.84488" lon="7.92801">
        <ele>19.75</ele>
        <time>2007-05-21T06:42:22.130Z</time>
      </trkpt>
      <trkpt lat="43.84488" lon="7.92855">
        <ele>19</ele>
        <time>2007-05-21T06:42:06.130Z</time>
      </trkpt>
      <trkpt lat="43.84486" lon="7.92917">
        <ele>17.5</ele>
        <time>2007-05-21T06:41:48.130Z</time>
      </trkpt>
      <trkpt lat="43.84482" lon="7.92973">
        <ele>17.75</ele>
        <time>2007-05-21T06:41:32.130Z</time>
      </trkpt>
      <trkpt lat="43.84479" lon="7.93032">
        <ele>16.75</ele>
        <time>2007-05-21T06:41:15.130Z</time>
      </trkpt>
      <trkpt lat="43.8448" lon="7.93084">
        <ele>15.25</ele>
        <time>2007-05-21T06:41:00.130Z</time>
      </trkpt>
      <trkpt lat="43.84485" lon="7.93136">
        <ele>17.25</ele>
        <time>2007-05-21T06:40:44.130Z</time>
      </trkpt>
      <trkpt lat="43.84494" lon="7.932">
        <ele>18.75</ele>
        <time>2007-05-21T06:40:26.130Z</time>
      </trkpt>
      <trkpt lat="43.84502" lon="7.93263">
        <ele>18</ele>
        <time>2007-05-21T06:40:07.130Z</time>
      </trkpt>
      <trkpt lat="43.84509" lon="7.93318">
        <ele>18.25</ele>
        <time>2007-05-21T06:39:51.130Z</time>
      </trkpt>
      <trkpt lat="43.84513" lon="7.93349">
        <ele>18.25</ele>
        <time>2007-05-21T06:39:42.130Z</time>
      </trkpt>
      <trkpt lat="43.84515" lon="7.93383">
        <ele>18</ele>
        <time>2007-05-21T06:39:32.130Z</time>
      </trkpt>
      <trkpt lat="43.84518" lon="7.93456">
        <ele>16.25</ele>
        <time>2007-05-21T06:39:11.130Z</time>
      </trkpt>
      <trkpt lat="43.84521" lon="7.93498">
        <ele>16.5</ele>
        <time>2007-05-21T06:38:59.130Z</time>
      </trkpt>
      <trkpt lat="43.84525" lon="7.93537">
        <ele>17.75</ele>
        <time>2007-05-21T06:38:47.130Z</time>
      </trkpt>
      <trkpt lat="43.84533" lon="7.93586">
        <ele>19.5</ele>
        <time>2007-05-21T06:38:33.130Z</time>
      </trkpt>
      <trkpt lat="43.84539" lon="7.93619">
        <ele>18.5</ele>
        <time>2007-05-21T06:38:23.130Z</time>
      </trkpt>
      <trkpt lat="43.84545" lon="7.93646">
        <ele>18</ele>
        <time>2007-05-21T06:38:15.130Z</time>
      </trkpt>
      <trkpt lat="43.84555" lon="7.937">
        <ele>16.75</ele>
        <time>2007-05-21T06:37:59.130Z</time>
      </trkpt>
      <trkpt lat="43.84569" lon="7.9377">
        <ele>17</ele>
        <time>2007-05-21T06:37:38.130Z</time>
      </trkpt>
      <trkpt lat="43.84574" lon="7.93806">
        <ele>18.25</ele>
        <time>2007-05-21T06:37:27.130Z</time>
      </trkpt>
      <trkpt lat="43.84578" lon="7.93823">
        <ele>19</ele>
        <time>2007-05-21T06:37:22.130Z</time>
      </trkpt>
      <trkpt lat="43.84613" lon="7.93952">
        <ele>19.25</ele>
        <time>2007-05-21T06:36:42.130Z</time>
      </trkpt>
      <trkpt lat="43.84679" lon="7.94087">
        <ele>19.25</ele>
        <time>2007-05-21T06:35:55.130Z</time>
      </trkpt>
      <trkpt lat="43.84824" lon="7.94377">
        <ele>19.25</ele>
        <time>2007-05-21T06:34:13.130Z</time>
      </trkpt>
      <trkpt lat="43.84945" lon="7.94988">
        <ele>19.25</ele>
        <time>2007-05-21T06:31:10.130Z</time>
      </trkpt>
      <trkpt lat="43.85019" lon="7.95596">
        <ele>19.25</ele>
        <time>2007-05-21T06:28:12.130Z</time>
      </trkpt>
      <trkpt lat="43.85027" lon="7.95663">
        <ele>16.75</ele>
        <time>2007-05-21T06:27:52.130Z</time>
      </trkpt>
      <trkpt lat="43.85034" lon="7.95744">
        <ele>18</ele>
        <time>2007-05-21T06:27:29.130Z</time>
      </trkpt>
      <trkpt lat="43.85051" lon="7.95891">
        <ele>14.5</ele>
        <time>2007-05-21T06:26:46.130Z</time>
      </trkpt>
      <trkpt lat="43.85055" lon="7.95919">
        <ele>13.5</ele>
        <time>2007-05-21T06:26:37.130Z</time>
      </trkpt>
      <trkpt lat="43.85059" lon="7.95944">
        <ele>13.25</ele>
        <time>2007-05-21T06:26:29.517Z</time>
      </trkpt>
      <trkpt lat="43.85059" lon="7.95944">
        <ele>13.25</ele>
        <time>2007-05-21T06:26:29.517Z</time>
      </trkpt>
      <trkpt lat="43.85072" lon="7.95991">
        <ele>12.75</ele>
        <time>2007-05-21T06:26:15.020Z</time>
      </trkpt>
      <trkpt lat="43.85076" lon="7.96003">
        <ele>12.5</ele>
        <time>2007-05-21T06:26:11.030Z</time>
      </trkpt>
      <trkpt lat="43.8508" lon="7.96017">
        <ele>12</ele>
        <time>2007-05-21T06:26:06.827Z</time>
      </trkpt>
      <trkpt lat="43.85085" lon="7.96031">
        <ele>11.75</ele>
        <time>2007-05-21T06:26:02.327Z</time>
      </trkpt>
      <trkpt lat="43.85093" lon="7.96054">
        <ele>12.25</ele>
        <time>2007-05-21T06:25:54.775Z</time>
      </trkpt>
      <trkpt lat="43.85109" lon="7.96091">
        <ele>13</ele>
        <time>2007-05-21T06:25:42.246Z</time>
      </trkpt>
      <trkpt lat="43.85176" lon="7.96205">
        <ele>14</ele>
        <time>2007-05-21T06:24:59.776Z</time>
      </trkpt>
      <trkpt lat="43.8523" lon="7.96284">
        <ele>12</ele>
        <time>2007-05-21T06:24:28.444Z</time>
      </trkpt>
      <trkpt lat="43.8526" lon="7.9633">
        <ele>10.25</ele>
        <time>2007-05-21T06:24:10.334Z</time>
      </trkpt>
      <trkpt lat="43.85302" lon="7.96423">
        <ele>9</ele>
        <time>2007-05-21T06:23:38.590Z</time>
      </trkpt>
      <trkpt lat="43.85317" lon="7.96464">
        <ele>9.25</ele>
        <time>2007-05-21T06:23:25.580Z</time>
      </trkpt>
      <trkpt lat="43.85333" lon="7.96494">
        <ele>9.75</ele>
        <time>2007-05-21T06:23:14.584Z</time>
      </trkpt>
      <trkpt lat="43.85342" lon="7.96509">
        <ele>10.25</ele>
        <time>2007-05-21T06:23:08.914Z</time>
      </trkpt>
      <trkpt lat="43.85345" lon="7.96513">
        <ele>10.25</ele>
        <time>2007-05-21T06:23:07.305Z</time>
      </trkpt>
      <trkpt lat="43.85361" lon="7.96532">
        <ele>10.75</ele>
        <time>2007-05-21T06:22:58.924Z</time>
      </trkpt>
      <trkpt lat="43.85371" lon="7.96541">
        <ele>11.25</ele>
        <time>2007-05-21T06:22:54.230Z</time>
      </trkpt>
      <trkpt lat="43.8538" lon="7.9655">
        <ele>11.5</ele>
        <time>2007-05-21T06:22:49.665Z</time>
      </trkpt>
      <trkpt lat="43.85396" lon="7.96561">
        <ele>12.25</ele>
        <time>2007-05-21T06:22:42.673Z</time>
      </trkpt>
      <trkpt lat="43.85437" lon="7.96594">
        <ele>14.25</ele>
        <time>2007-05-21T06:22:23.485Z</time>
      </trkpt>
      <trkpt lat="43.85463" lon="7.96614">
        <ele>14.75</ele>
        <time>2007-05-21T06:22:11.531Z</time>
      </trkpt>
      <trkpt lat="43.85477" lon="7.96622">
        <ele>14.75</ele>
        <time>2007-05-21T06:22:05.405Z</time>
      </trkpt>
      <trkpt lat="43.85521" lon="7.9664">
        <ele>15.75</ele>
        <time>2007-05-21T06:21:47.227Z</time>
      </trkpt>
      <trkpt lat="43.85552" lon="7.96657">
        <ele>14.5</ele>
        <time>2007-05-21T06:21:33.774Z</time>
      </trkpt>
      <trkpt lat="43.85574" lon="7.96665">
        <ele>14.5</ele>
        <time>2007-05-21T06:21:24.736Z</time>
      </trkpt>
      <trkpt lat="43.85634" lon="7.96687">
        <ele>13.25</ele>
        <time>2007-05-21T06:20:59.728Z</time>
      </trkpt>
      <trkpt lat="43.8572" lon="7.96717">
        <ele>11.75</ele>
        <time>2007-05-21T06:20:24.429Z</time>
      </trkpt>
      <trkpt lat="43.85734" lon="7.96723">
        <ele>11.5</ele>
        <time>2007-05-21T06:20:18.325Z</time>
      </trkpt>
      <trkpt lat="43.85755" lon="7.96728">
        <ele>12.25</ele>
        <time>2007-05-21T06:20:09.696Z</time>
      </trkpt>
      <trkpt lat="43.85801" lon="7.96747">
        <ele>14</ele>
        <time>2007-05-21T06:19:50.666Z</time>
      </trkpt>
      <trkpt lat="43.8582" lon="7.96757">
        <ele>14.75</ele>
        <time>2007-05-21T06:19:42.633Z</time>
      </trkpt>
      <trkpt lat="43.8586" lon="7.96776">
        <ele>17</ele>
        <time>2007-05-21T06:19:25.486Z</time>
      </trkpt>
      <trkpt lat="43.85872" lon="7.96778">
        <ele>18.25</ele>
        <time>2007-05-21T06:19:20.562Z</time>
      </trkpt>
      <trkpt lat="43.85895" lon="7.96791">
        <ele>18</ele>
        <time>2007-05-21T06:19:10.639Z</time>
      </trkpt>
      <trkpt lat="43.85914" lon="7.96803">
        <ele>16.75</ele>
        <time>2007-05-21T06:19:02.525Z</time>
      </trkpt>
      <trkpt lat="43.85944" lon="7.96826">
        <ele>15.25</ele>
        <time>2007-05-21T06:18:48.567Z</time>
      </trkpt>
      <trkpt lat="43.85971" lon="7.9685">
        <ele>15.75</ele>
        <time>2007-05-21T06:18:35.660Z</time>
      </trkpt>
      <trkpt lat="43.85979" lon="7.96858">
        <ele>15.75</ele>
        <time>2007-05-21T06:18:31.839Z</time>
      </trkpt>
      <trkpt lat="43.85993" lon="7.96873">
        <ele>15.25</ele>
        <time>2007-05-21T06:18:24.635Z</time>
      </trkpt>
      <trkpt lat="43.86002" lon="7.96885">
        <ele>14.25</ele>
        <time>2007-05-21T06:18:19.760Z</time>
      </trkpt>
      <trkpt lat="43.86032" lon="7.9693">
        <ele>11.5</ele>
        <time>2007-05-21T06:18:02.198Z</time>
      </trkpt>
      <trkpt lat="43.86074" lon="7.96997">
        <ele>8.5</ele>
        <time>2007-05-21T06:17:36.450Z</time>
      </trkpt>
      <trkpt lat="43.8609" lon="7.97031">
        <ele>8.5</ele>
        <time>2007-05-21T06:17:24.692Z</time>
      </trkpt>
      <trkpt lat="43.861" lon="7.97054">
        <ele>9.75</ele>
        <time>2007-05-21T06:17:17.057Z</time>
      </trkpt>
      <trkpt lat="43.86115" lon="7.97098">
        <ele>12.25</ele>
        <time>2007-05-21T06:17:02.843Z</time>
      </trkpt>
      <trkpt lat="43.8612" lon="7.97119">
        <ele>12.5</ele>
        <time>2007-05-21T06:16:56.481Z</time>
      </trkpt>
      <trkpt lat="43.86124" lon="7.97139">
        <ele>13</ele>
        <time>2007-05-21T06:16:50.244Z</time>
      </trkpt>
      <trkpt lat="43.86135" lon="7.97201">
        <ele>14</ele>
        <time>2007-05-21T06:16:32.025Z</time>
      </trkpt>
      <trkpt lat="43.86138" lon="7.97229">
        <ele>14.5</ele>
        <time>2007-05-21T06:16:23.619Z</time>
      </trkpt>
      <trkpt lat="43.86145" lon="7.97279">
        <ele>15.5</ele>
        <time>2007-05-21T06:16:09.106Z</time>
      </trkpt>
      <trkpt lat="43.86154" lon="7.97326">
        <ele>16.75</ele>
        <time>2007-05-21T06:15:54.942Z</time>
      </trkpt>
      <trkpt lat="43.86162" lon="7.97359">
        <ele>15.75</ele>
        <time>2007-05-21T06:15:44.896Z</time>
      </trkpt>
      <trkpt lat="43.86177" lon="7.97403">
        <ele>15.25</ele>
        <time>2007-05-21T06:15:30.865Z</time>
      </trkpt>
      <trkpt lat="43.86191" lon="7.97434">
        <ele>15.25</ele>
        <time>2007-05-21T06:15:20.324Z</time>
      </trkpt>
      <trkpt lat="43.86236" lon="7.97526">
        <ele>17.5</ele>
        <time>2007-05-21T06:14:48.035Z</time>
      </trkpt>
      <trkpt lat="43.86252" lon="7.97561">
        <ele>18.5</ele>
        <time>2007-05-21T06:14:36.082Z</time>
      </trkpt>
      <trkpt lat="43.86268" lon="7.97601">
        <ele>19.5</ele>
        <time>2007-05-21T06:14:22.856Z</time>
      </trkpt>
      <trkpt lat="43.86276" lon="7.9763">
        <ele>21.25</ele>
        <time>2007-05-21T06:14:14.056Z</time>
      </trkpt>
      <trkpt lat="43.86285" lon="7.97668">
        <ele>22.75</ele>
        <time>2007-05-21T06:14:02.392Z</time>
      </trkpt>
      <trkpt lat="43.86292" lon="7.97716">
        <ele>24.75</ele>
        <time>2007-05-21T06:13:48.449Z</time>
      </trkpt>
      <trkpt lat="43.86296" lon="7.97748">
        <ele>25.5</ele>
        <time>2007-05-21T06:13:38.927Z</time>
      </trkpt>
      <trkpt lat="43.86303" lon="7.97828">
        <ele>24.5</ele>
        <time>2007-05-21T06:13:15.670Z</time>
      </trkpt>
      <trkpt lat="43.86307" lon="7.97864">
        <ele>24.5</ele>
        <time>2007-05-21T06:13:05.196Z</time>
      </trkpt>
      <trkpt lat="43.86318" lon="7.9792">
        <ele>24.75</ele>
        <time>2007-05-21T06:12:48.317Z</time>
      </trkpt>
      <trkpt lat="43.86331" lon="7.97968">
        <ele>25.25</ele>
        <time>2007-05-21T06:12:33.377Z</time>
      </trkpt>
      <trkpt lat="43.86347" lon="7.98015">
        <ele>25.75</ele>
        <time>2007-05-21T06:12:18.519Z</time>
      </trkpt>
      <trkpt lat="43.86364" lon="7.98071">
        <ele>26.25</ele>
        <time>2007-05-21T06:12:00.848Z</time>
      </trkpt>
      <trkpt lat="43.86371" lon="7.98102">
        <ele>27</ele>
        <time>2007-05-21T06:11:51.631Z</time>
      </trkpt>
      <trkpt lat="43.86378" lon="7.98135">
        <ele>27</ele>
        <time>2007-05-21T06:11:41.501Z</time>
      </trkpt>
      <trkpt lat="43.86397" lon="7.98247">
        <ele>25.75</ele>
        <time>2007-05-21T06:11:08.303Z</time>
      </trkpt>
      <trkpt lat="43.86435" lon="7.98465">
        <ele>23.5</ele>
        <time>2007-05-21T06:10:03.634Z</time>
      </trkpt>
      <trkpt lat="43.8644" lon="7.98502">
        <ele>23.25</ele>
        <time>2007-05-21T06:09:52.670Z</time>
      </trkpt>
      <trkpt lat="43.86444" lon="7.98548">
        <ele>24.25</ele>
        <time>2007-05-21T06:09:39.246Z</time>
      </trkpt>
      <trkpt lat="43.86447" lon="7.98621">
        <ele>25.75</ele>
        <time>2007-05-21T06:09:18.270Z</time>
      </trkpt>
      <trkpt lat="43.8645" lon="7.98768">
        <ele>24</ele>
        <time>2007-05-21T06:08:35.568Z</time>
      </trkpt>
      <trkpt lat="43.86453" lon="7.98822">
        <ele>22</ele>
        <time>2007-05-21T06:08:19.942Z</time>
      </trkpt>
      <trkpt lat="43.86458" lon="7.98881">
        <ele>21.75</ele>
        <time>2007-05-21T06:08:02.733Z</time>
      </trkpt>
      <trkpt lat="43.86465" lon="7.98933">
        <ele>21.75</ele>
        <time>2007-05-21T06:07:47.588Z</time>
      </trkpt>
      <trkpt lat="43.86474" lon="7.98992">
        <ele>20.75</ele>
        <time>2007-05-21T06:07:30.180Z</time>
      </trkpt>
      <trkpt lat="43.865" lon="7.9913">
        <ele>18.75</ele>
        <time>2007-05-21T06:06:48.735Z</time>
      </trkpt>
      <trkpt lat="43.86523" lon="7.99228">
        <ele>21.75</ele>
        <time>2007-05-21T06:06:19.180Z</time>
      </trkpt>
      <trkpt lat="43.86534" lon="7.99262">
        <ele>23.25</ele>
        <time>2007-05-21T06:06:08.284Z</time>
      </trkpt>
      <trkpt lat="43.8655" lon="7.99304">
        <ele>26.5</ele>
        <time>2007-05-21T06:05:54.429Z</time>
      </trkpt>
      <trkpt lat="43.86561" lon="7.99328">
        <ele>28</ele>
        <time>2007-05-21T06:05:46.330Z</time>
      </trkpt>
      <trkpt lat="43.86668" lon="7.99556">
        <ele>16.75</ele>
        <time>2007-05-21T06:04:27.760Z</time>
      </trkpt>
      <trkpt lat="43.8676" lon="7.99756">
        <ele>8</ele>
        <time>2007-05-21T06:03:19.123Z</time>
      </trkpt>
      <trkpt lat="43.8681" lon="7.99868">
        <ele>4.5</ele>
        <time>2007-05-21T06:02:41.089Z</time>
      </trkpt>
      <trkpt lat="43.86811" lon="7.9987">
        <ele>4.5</ele>
        <time>2007-05-21T06:02:40.479Z</time>
      </trkpt>
      <trkpt lat="43.86833" lon="7.9992">
        <ele>2.75</ele>
        <time>2007-05-21T06:02:23.501Z</time>
      </trkpt>
      <trkpt lat="43.86839" lon="7.9993">
        <ele>3</ele>
        <time>2007-05-21T06:02:19.770Z</time>
      </trkpt>
      <trkpt lat="43.8688" lon="8.00019">
        <ele>2.75</ele>
        <time>2007-05-21T06:01:49.263Z</time>
      </trkpt>
      <trkpt lat="43.86957" lon="8.00179">
        <ele>2</ele>
        <time>2007-05-21T06:00:53.458Z</time>
      </trkpt>
      <trkpt lat="43.86976" lon="8.00221">
        <ele>2.5</ele>
        <time>2007-05-21T06:00:39.303Z</time>
      </trkpt>
      <trkpt lat="43.87014" lon="8.00297">
        <ele>2.5</ele>
        <time>2007-05-21T06:00:12.645Z</time>
      </trkpt>
      <trkpt lat="43.87015" lon="8.00298">
        <ele>4.5</ele>
        <time>2007-05-21T06:00:12.224Z</time>
      </trkpt>
      <trkpt lat="43.87017" lon="8.00302">
        <ele>4.75</ele>
        <time>2007-05-21T06:00:10.700Z</time>
      </trkpt>
      <trkpt lat="43.87019" lon="8.00307">
        <ele>5</ele>
        <time>2007-05-21T06:00:09.082Z</time>
      </trkpt>
      <trkpt lat="43.87026" lon="8.00321">
        <ele>5.75</ele>
        <time>2007-05-21T06:00:04.057Z</time>
      </trkpt>
      <trkpt lat="43.8703" lon="8.0033">
        <ele>6.5</ele>
        <time>2007-05-21T06:00:01.167Z</time>
      </trkpt>
      <trkpt lat="43.87061" lon="8.00399">
        <ele>10.75</ele>
        <time>2007-05-21T05:59:37.447Z</time>
      </trkpt>
      <trkpt lat="43.87077" lon="8.00436">
        <ele>14</ele>
        <time>2007-05-21T05:59:25.050Z</time>
      </trkpt>
      <trkpt lat="43.87085" lon="8.00456">
        <ele>14</ele>
        <time>2007-05-21T05:59:18.543Z</time>
      </trkpt>
      <trkpt lat="43.8712" lon="8.00563">
        <ele>14.5</ele>
        <time>2007-05-21T05:58:44.599Z</time>
      </trkpt>
      <trkpt lat="43.87144" lon="8.00624">
        <ele>14.75</ele>
        <time>2007-05-21T05:58:24.391Z</time>
      </trkpt>
      <trkpt lat="43.87176" lon="8.00691">
        <ele>15.25</ele>
        <time>2007-05-21T05:58:01.145Z</time>
      </trkpt>
      <trkpt lat="43.87216" lon="8.00768">
        <ele>15.75</ele>
        <time>2007-05-21T05:57:33.954Z</time>
      </trkpt>
      <trkpt lat="43.87253" lon="8.00828">
        <ele>16.25</ele>
        <time>2007-05-21T05:57:10.936Z</time>
      </trkpt>
      <trkpt lat="43.87273" lon="8.00854">
        <ele>16.5</ele>
        <time>2007-05-21T05:57:00.076Z</time>
      </trkpt>
      <trkpt lat="43.87303" lon="8.00883">
        <ele>16.75</ele>
        <time>2007-05-21T05:56:45.304Z</time>
      </trkpt>
      <trkpt lat="43.87322" lon="8.00897">
        <ele>16.75</ele>
        <time>2007-05-21T05:56:36.857Z</time>
      </trkpt>
      <trkpt lat="43.87325" lon="8.00899">
        <ele>17</ele>
        <time>2007-05-21T05:56:35.595Z</time>
      </trkpt>
      <trkpt lat="43.87372" lon="8.00933">
        <ele>11.5</ele>
        <time>2007-05-21T05:56:14.290Z</time>
      </trkpt>
      <trkpt lat="43.87386" lon="8.00942">
        <ele>10.25</ele>
        <time>2007-05-21T05:56:07.935Z</time>
      </trkpt>
      <trkpt lat="43.8742" lon="8.0096">
        <ele>8</ele>
        <time>2007-05-21T05:55:53.562Z</time>
      </trkpt>
      <trkpt lat="43.87441" lon="8.00969">
        <ele>8.25</ele>
        <time>2007-05-21T05:55:44.497Z</time>
      </trkpt>
      <trkpt lat="43.87456" lon="8.00975">
        <ele>8.5</ele>
        <time>2007-05-21T05:55:38.317Z</time>
      </trkpt>
      <trkpt lat="43.87512" lon="8.00992">
        <ele>10</ele>
        <time>2007-05-21T05:55:15.542Z</time>
      </trkpt>
      <trkpt lat="43.87539" lon="8.01002">
        <ele>10.25</ele>
        <time>2007-05-21T05:55:04.228Z</time>
      </trkpt>
      <trkpt lat="43.87569" lon="8.01013">
        <ele>11</ele>
        <time>2007-05-21T05:54:51.729Z</time>
      </trkpt>
      <trkpt lat="43.87592" lon="8.01025">
        <ele>11.75</ele>
        <time>2007-05-21T05:54:41.778Z</time>
      </trkpt>
      <trkpt lat="43.87607" lon="8.01035">
        <ele>12.5</ele>
        <time>2007-05-21T05:54:35.209Z</time>
      </trkpt>
      <trkpt lat="43.87612" lon="8.01039">
        <ele>12.75</ele>
        <time>2007-05-21T05:54:33.022Z</time>
      </trkpt>
      <trkpt lat="43.87617" lon="8.01043">
        <ele>13</ele>
        <time>2007-05-21T05:54:30.814Z</time>
      </trkpt>
      <trkpt lat="43.87641" lon="8.01061">
        <ele>14</ele>
        <time>2007-05-21T05:54:19.519Z</time>
      </trkpt>
      <trkpt lat="43.87664" lon="8.01081">
        <ele>14.75</ele>
        <time>2007-05-21T05:54:08.623Z</time>
      </trkpt>
      <trkpt lat="43.87695" lon="8.01113">
        <ele>17.25</ele>
        <time>2007-05-21T05:53:53.225Z</time>
      </trkpt>
      <trkpt lat="43.87724" lon="8.01147">
        <ele>18</ele>
        <time>2007-05-21T05:53:37.926Z</time>
      </trkpt>
      <trkpt lat="43.87754" lon="8.01187">
        <ele>19</ele>
        <time>2007-05-21T05:53:21.601Z</time>
      </trkpt>
      <trkpt lat="43.87773" lon="8.01215">
        <ele>20.75</ele>
        <time>2007-05-21T05:53:10.351Z</time>
      </trkpt>
      <trkpt lat="43.87785" lon="8.01237">
        <ele>20.75</ele>
        <time>2007-05-21T05:53:02.162Z</time>
      </trkpt>
      <trkpt lat="43.8781" lon="8.01286">
        <ele>21</ele>
        <time>2007-05-21T05:52:44.955Z</time>
      </trkpt>
      <trkpt lat="43.87832" lon="8.0134">
        <ele>21.25</ele>
        <time>2007-05-21T05:52:27.148Z</time>
      </trkpt>
      <trkpt lat="43.87849" lon="8.01397">
        <ele>21.75</ele>
        <time>2007-05-21T05:52:09.141Z</time>
      </trkpt>
      <trkpt lat="43.87863" lon="8.01463">
        <ele>22.25</ele>
        <time>2007-05-21T05:51:49.284Z</time>
      </trkpt>
      <trkpt lat="43.87876" lon="8.01536">
        <ele>22.5</ele>
        <time>2007-05-21T05:51:27.661Z</time>
      </trkpt>
      <trkpt lat="43.87887" lon="8.01595">
        <ele>23</ele>
        <time>2007-05-21T05:51:10.089Z</time>
      </trkpt>
      <trkpt lat="43.87901" lon="8.01647">
        <ele>23.25</ele>
        <time>2007-05-21T05:50:53.957Z</time>
      </trkpt>
      <trkpt lat="43.87915" lon="8.01684">
        <ele>23.5</ele>
        <time>2007-05-21T05:50:41.828Z</time>
      </trkpt>
      <trkpt lat="43.8793" lon="8.01717">
        <ele>23.75</ele>
        <time>2007-05-21T05:50:30.654Z</time>
      </trkpt>
      <trkpt lat="43.87943" lon="8.0174">
        <ele>24</ele>
        <time>2007-05-21T05:50:22.257Z</time>
      </trkpt>
      <trkpt lat="43.87953" lon="8.01759">
        <ele>24.25</ele>
        <time>2007-05-21T05:50:15.388Z</time>
      </trkpt>
      <trkpt lat="43.87965" lon="8.01792">
        <ele>20.25</ele>
        <time>2007-05-21T05:50:04.763Z</time>
      </trkpt>
      <trkpt lat="43.87972" lon="8.01813">
        <ele>16.75</ele>
        <time>2007-05-21T05:49:58.059Z</time>
      </trkpt>
      <trkpt lat="43.87986" lon="8.01845">
        <ele>13</ele>
        <time>2007-05-21T05:49:47.289Z</time>
      </trkpt>
      <trkpt lat="43.87996" lon="8.01864">
        <ele>12.25</ele>
        <time>2007-05-21T05:49:40.398Z</time>
      </trkpt>
      <trkpt lat="43.88008" lon="8.01884">
        <ele>12.5</ele>
        <time>2007-05-21T05:49:32.798Z</time>
      </trkpt>
      <trkpt lat="43.8802" lon="8.01902">
        <ele>12.5</ele>
        <time>2007-05-21T05:49:25.805Z</time>
      </trkpt>
      <trkpt lat="43.88059" lon="8.01953">
        <ele>12.5</ele>
        <time>2007-05-21T05:49:04.292Z</time>
      </trkpt>
      <trkpt lat="43.88059" lon="8.01953">
        <ele>12.5</ele>
        <time>2007-05-21T05:49:04.233Z</time>
      </trkpt>
      <trkpt lat="43.88106" lon="8.02016">
        <ele>12.75</ele>
        <time>2007-05-21T05:48:38.021Z</time>
      </trkpt>
      <trkpt lat="43.88128" lon="8.02047">
        <ele>14.5</ele>
        <time>2007-05-21T05:48:25.431Z</time>
      </trkpt>
      <trkpt lat="43.88149" lon="8.02081">
        <ele>15.75</ele>
        <time>2007-05-21T05:48:12.468Z</time>
      </trkpt>
      <trkpt lat="43.88164" lon="8.02108">
        <ele>15.25</ele>
        <time>2007-05-21T05:48:02.689Z</time>
      </trkpt>
      <trkpt lat="43.88177" lon="8.02132">
        <ele>14.5</ele>
        <time>2007-05-21T05:47:54.251Z</time>
      </trkpt>
      <trkpt lat="43.88189" lon="8.02157">
        <ele>14</ele>
        <time>2007-05-21T05:47:45.316Z</time>
      </trkpt>
      <trkpt lat="43.88224" lon="8.02235">
        <ele>16</ele>
        <time>2007-05-21T05:47:18.808Z</time>
      </trkpt>
      <trkpt lat="43.88234" lon="8.02252">
        <ele>17</ele>
        <time>2007-05-21T05:47:12.388Z</time>
      </trkpt>
      <trkpt lat="43.88235" lon="8.02256">
        <ele>17</ele>
        <time>2007-05-21T05:47:11.147Z</time>
      </trkpt>
      <trkpt lat="43.88237" lon="8.02263">
        <ele>17.25</ele>
        <time>2007-05-21T05:47:09.116Z</time>
      </trkpt>
      <trkpt lat="43.88241" lon="8.02273">
        <ele>17.25</ele>
        <time>2007-05-21T05:47:05.876Z</time>
      </trkpt>
      <trkpt lat="43.8826" lon="8.02348">
        <ele>18.5</ele>
        <time>2007-05-21T05:46:42.717Z</time>
      </trkpt>
      <trkpt lat="43.88275" lon="8.02425">
        <ele>20</ele>
        <time>2007-05-21T05:46:19.745Z</time>
      </trkpt>
      <trkpt lat="43.88292" lon="8.02475">
        <ele>19.25</ele>
        <time>2007-05-21T05:46:03.807Z</time>
      </trkpt>
      <trkpt lat="43.88308" lon="8.02513">
        <ele>18.75</ele>
        <time>2007-05-21T05:45:51.196Z</time>
      </trkpt>
      <trkpt lat="43.8832" lon="8.02538">
        <ele>17.5</ele>
        <time>2007-05-21T05:45:42.381Z</time>
      </trkpt>
      <trkpt lat="43.8834" lon="8.02573">
        <ele>15.5</ele>
        <time>2007-05-21T05:45:29.524Z</time>
      </trkpt>
      <trkpt lat="43.88357" lon="8.02599">
        <ele>16.75</ele>
        <time>2007-05-21T05:45:19.479Z</time>
      </trkpt>
      <trkpt lat="43.88382" lon="8.02628">
        <ele>19.5</ele>
        <time>2007-05-21T05:45:06.279Z</time>
      </trkpt>
      <trkpt lat="43.88445" lon="8.02699">
        <ele>21.5</ele>
        <time>2007-05-21T05:44:33.840Z</time>
      </trkpt>
      <trkpt lat="43.88468" lon="8.02729">
        <ele>20.75</ele>
        <time>2007-05-21T05:44:21.284Z</time>
      </trkpt>
      <trkpt lat="43.88482" lon="8.0275">
        <ele>20.25</ele>
        <time>2007-05-21T05:44:12.785Z</time>
      </trkpt>
      <trkpt lat="43.88502" lon="8.02783">
        <ele>20.25</ele>
        <time>2007-05-21T05:44:00.457Z</time>
      </trkpt>
      <trkpt lat="43.88529" lon="8.02836">
        <ele>16.75</ele>
        <time>2007-05-21T05:43:41.659Z</time>
      </trkpt>
      <trkpt lat="43.88555" lon="8.02884">
        <ele>14.75</ele>
        <time>2007-05-21T05:43:24.361Z</time>
      </trkpt>
      <trkpt lat="43.88582" lon="8.02931">
        <ele>13.75</ele>
        <time>2007-05-21T05:43:06.857Z</time>
      </trkpt>
      <trkpt lat="43.88604" lon="8.02967">
        <ele>14</ele>
        <time>2007-05-21T05:42:53.261Z</time>
      </trkpt>
      <trkpt lat="43.88611" lon="8.02977">
        <ele>13.75</ele>
        <time>2007-05-21T05:42:49.150Z</time>
      </trkpt>
      <trkpt lat="43.88622" lon="8.02993">
        <ele>13.5</ele>
        <time>2007-05-21T05:42:42.844Z</time>
      </trkpt>
      <trkpt lat="43.88635" lon="8.03013">
        <ele>13.25</ele>
        <time>2007-05-21T05:42:34.984Z</time>
      </trkpt>
      <trkpt lat="43.88656" lon="8.03041">
        <ele>12.25</ele>
        <time>2007-05-21T05:42:23.554Z</time>
      </trkpt>
      <trkpt lat="43.88676" lon="8.03064">
        <ele>11.5</ele>
        <time>2007-05-21T05:42:13.064Z</time>
      </trkpt>
      <trkpt lat="43.88693" lon="8.03084">
        <ele>11</ele>
        <time>2007-05-21T05:42:03.982Z</time>
      </trkpt>
      <trkpt lat="43.88728" lon="8.03118">
        <ele>12.25</ele>
        <time>2007-05-21T05:41:46.905Z</time>
      </trkpt>
      <trkpt lat="43.88758" lon="8.03141">
        <ele>13</ele>
        <time>2007-05-21T05:41:33.143Z</time>
      </trkpt>
      <trkpt lat="43.88818" lon="8.03185">
        <ele>14.25</ele>
        <time>2007-05-21T05:41:05.953Z</time>
      </trkpt>
      <trkpt lat="43.88856" lon="8.03208">
        <ele>15.75</ele>
        <time>2007-05-21T05:40:49.318Z</time>
      </trkpt>
      <trkpt lat="43.88866" lon="8.03214">
        <ele>16</ele>
        <time>2007-05-21T05:40:44.974Z</time>
      </trkpt>
      <trkpt lat="43.88941" lon="8.03258">
        <ele>16</ele>
        <time>2007-05-21T05:40:12.469Z</time>
      </trkpt>
      <trkpt lat="43.88944" lon="8.03261">
        <ele>15.75</ele>
        <time>2007-05-21T05:40:10.805Z</time>
      </trkpt>
      <trkpt lat="43.88944" lon="8.03261">
        <ele>16</ele>
        <time>2007-05-21T05:40:10.746Z</time>
      </trkpt>
      <trkpt lat="43.8897" lon="8.03284">
        <ele>15.25</ele>
        <time>2007-05-21T05:39:58.371Z</time>
      </trkpt>
      <trkpt lat="43.88997" lon="8.03313">
        <ele>13.25</ele>
        <time>2007-05-21T05:39:44.743Z</time>
      </trkpt>
      <trkpt lat="43.89031" lon="8.03346">
        <ele>11.75</ele>
        <time>2007-05-21T05:39:28.374Z</time>
      </trkpt>
      <trkpt lat="43.8906" lon="8.0338">
        <ele>11</ele>
        <time>2007-05-21T05:39:13.155Z</time>
      </trkpt>
      <trkpt lat="43.89077" lon="8.03413">
        <ele>10</ele>
        <time>2007-05-21T05:39:01.202Z</time>
      </trkpt>
      <trkpt lat="43.89078" lon="8.03426">
        <ele>9.25</ele>
        <time>2007-05-21T05:38:57.410Z</time>
      </trkpt>
      <trkpt lat="43.8908" lon="8.0343">
        <ele>9</ele>
        <time>2007-05-21T05:38:56.095Z</time>
      </trkpt>
      <trkpt lat="43.89084" lon="8.03436">
        <ele>8.75</ele>
        <time>2007-05-21T05:38:53.696Z</time>
      </trkpt>
      <trkpt lat="43.89098" lon="8.03449">
        <ele>8</ele>
        <time>2007-05-21T05:38:46.862Z</time>
      </trkpt>
      <trkpt lat="43.89103" lon="8.0346">
        <ele>7.5</ele>
        <time>2007-05-21T05:38:43.203Z</time>
      </trkpt>
      <trkpt lat="43.89146" lon="8.03564">
        <ele>7.25</ele>
        <time>2007-05-21T05:38:08.515Z</time>
      </trkpt>
      <trkpt lat="43.89156" lon="8.03588">
        <ele>7.75</ele>
        <time>2007-05-21T05:38:00.532Z</time>
      </trkpt>
      <trkpt lat="43.89172" lon="8.03628">
        <ele>8</ele>
        <time>2007-05-21T05:37:47.152Z</time>
      </trkpt>
      <trkpt lat="43.89191" lon="8.03694">
        <ele>8.5</ele>
        <time>2007-05-21T05:37:26.731Z</time>
      </trkpt>
      <trkpt lat="43.89213" lon="8.03794">
        <ele>9.25</ele>
        <time>2007-05-21T05:36:56.641Z</time>
      </trkpt>
      <trkpt lat="43.89222" lon="8.03862">
        <ele>10.5</ele>
        <time>2007-05-21T05:36:36.540Z</time>
      </trkpt>
      <trkpt lat="43.89227" lon="8.03899">
        <ele>11.25</ele>
        <time>2007-05-21T05:36:25.634Z</time>
      </trkpt>
      <trkpt lat="43.8923" lon="8.03962">
        <ele>13.75</ele>
        <time>2007-05-21T05:36:07.579Z</time>
      </trkpt>
      <trkpt lat="43.89231" lon="8.04019">
        <ele>16.25</ele>
        <time>2007-05-21T05:35:50.994Z</time>
      </trkpt>
      <trkpt lat="43.89223" lon="8.04088">
        <ele>16.25</ele>
        <time>2007-05-21T05:35:30.903Z</time>
      </trkpt>
      <trkpt lat="43.89209" lon="8.04141">
        <ele>16.25</ele>
        <time>2007-05-21T05:35:14.466Z</time>
      </trkpt>
      <trkpt lat="43.89209" lon="8.04141">
        <ele>20.25</ele>
        <time>2007-05-21T05:35:14.432Z</time>
      </trkpt>
      <trkpt lat="43.89194" lon="8.04183">
        <ele>20.25</ele>
        <time>2007-05-21T05:35:00.762Z</time>
      </trkpt>
      <trkpt lat="43.89175" lon="8.04219">
        <ele>20.25</ele>
        <time>2007-05-21T05:34:47.944Z</time>
      </trkpt>
      <trkpt lat="43.88944" lon="8.04545">
        <ele>20.25</ele>
        <time>2007-05-21T05:32:35.750Z</time>
      </trkpt>
      <trkpt lat="43.88895" lon="8.0461">
        <ele>14.5</ele>
        <time>2007-05-21T05:32:08.830Z</time>
      </trkpt>
      <trkpt lat="43.88867" lon="8.04653">
        <ele>14</ele>
        <time>2007-05-21T05:31:51.874Z</time>
      </trkpt>
      <trkpt lat="43.88841" lon="8.04693">
        <ele>15.25</ele>
        <time>2007-05-21T05:31:36.435Z</time>
      </trkpt>
      <trkpt lat="43.88834" lon="8.04707">
        <ele>15</ele>
        <time>2007-05-21T05:31:31.562Z</time>
      </trkpt>
      <trkpt lat="43.88819" lon="8.04745">
        <ele>15.5</ele>
        <time>2007-05-21T05:31:18.927Z</time>
      </trkpt>
      <trkpt lat="43.88805" lon="8.04788">
        <ele>15.75</ele>
        <time>2007-05-21T05:31:05.402Z</time>
      </trkpt>
      <trkpt lat="43.88788" lon="8.04857">
        <ele>16.25</ele>
        <time>2007-05-21T05:30:44.434Z</time>
      </trkpt>
      <trkpt lat="43.88787" lon="8.04865">
        <ele>16.25</ele>
        <time>2007-05-21T05:30:41.986Z</time>
      </trkpt>
      <trkpt lat="43.88776" lon="8.04932">
        <ele>15.25</ele>
        <time>2007-05-21T05:30:22.148Z</time>
      </trkpt>
      <trkpt lat="43.88774" lon="8.05003">
        <ele>16.5</ele>
        <time>2007-05-21T05:30:01.448Z</time>
      </trkpt>
      <trkpt lat="43.88775" lon="8.05053">
        <ele>18.5</ele>
        <time>2007-05-21T05:29:47.252Z</time>
      </trkpt>
      <trkpt lat="43.88776" lon="8.05095">
        <ele>20</ele>
        <time>2007-05-21T05:29:35.063Z</time>
      </trkpt>
      <trkpt lat="43.88771" lon="8.05168">
        <ele>20</ele>
        <time>2007-05-21T05:29:13.702Z</time>
      </trkpt>
      <trkpt lat="43.88762" lon="8.05266">
        <ele>18</ele>
        <time>2007-05-21T05:28:45.348Z</time>
      </trkpt>
      <trkpt lat="43.88762" lon="8.05269">
        <ele>18</ele>
        <time>2007-05-21T05:28:44.483Z</time>
      </trkpt>
      <trkpt lat="43.88763" lon="8.05323">
        <ele>16</ele>
        <time>2007-05-21T05:28:28.711Z</time>
      </trkpt>
      <trkpt lat="43.88766" lon="8.05375">
        <ele>16.5</ele>
        <time>2007-05-21T05:28:13.838Z</time>
      </trkpt>
      <trkpt lat="43.88773" lon="8.05423">
        <ele>19</ele>
        <time>2007-05-21T05:27:59.524Z</time>
      </trkpt>
      <trkpt lat="43.88782" lon="8.05469">
        <ele>19</ele>
        <time>2007-05-21T05:27:45.968Z</time>
      </trkpt>
      <trkpt lat="43.88796" lon="8.05521">
        <ele>19</ele>
        <time>2007-05-21T05:27:29.693Z</time>
      </trkpt>
      <trkpt lat="43.88799" lon="8.05528">
        <ele>19</ele>
        <time>2007-05-21T05:27:27.559Z</time>
      </trkpt>
      <trkpt lat="43.88799" lon="8.05528">
        <ele>19</ele>
        <time>2007-05-21T05:27:27.511Z</time>
      </trkpt>
      <trkpt lat="43.88803" lon="8.0554">
        <ele>19.25</ele>
        <time>2007-05-21T05:27:23.718Z</time>
      </trkpt>
      <trkpt lat="43.88805" lon="8.05548">
        <ele>18.75</ele>
        <time>2007-05-21T05:27:21.273Z</time>
      </trkpt>
      <trkpt lat="43.88797" lon="8.05551">
        <ele>16.5</ele>
        <time>2007-05-21T05:27:18.065Z</time>
      </trkpt>
      <trkpt lat="43.88794" lon="8.05558">
        <ele>15</ele>
        <time>2007-05-21T05:27:15.886Z</time>
      </trkpt>
      <trkpt lat="43.88796" lon="8.05566">
        <ele>14.75</ele>
        <time>2007-05-21T05:27:13.356Z</time>
      </trkpt>
      <trkpt lat="43.88796" lon="8.05566">
        <ele>15</ele>
        <time>2007-05-21T05:27:13.288Z</time>
      </trkpt>
      <trkpt lat="43.88803" lon="8.05596">
        <ele>14</ele>
        <time>2007-05-21T05:27:04.174Z</time>
      </trkpt>
      <trkpt lat="43.88805" lon="8.05617">
        <ele>13.5</ele>
        <time>2007-05-21T05:26:58.062Z</time>
      </trkpt>
      <trkpt lat="43.88805" lon="8.0564">
        <ele>12.25</ele>
        <time>2007-05-21T05:26:51.476Z</time>
      </trkpt>
      <trkpt lat="43.88802" lon="8.05659">
        <ele>10.75</ele>
        <time>2007-05-21T05:26:45.912Z</time>
      </trkpt>
      <trkpt lat="43.88793" lon="8.05682">
        <ele>8.75</ele>
        <time>2007-05-21T05:26:38.195Z</time>
      </trkpt>
      <trkpt lat="43.88789" lon="8.05699">
        <ele>8.5</ele>
        <time>2007-05-21T05:26:33.150Z</time>
      </trkpt>
      <trkpt lat="43.88787" lon="8.05724">
        <ele>8.5</ele>
        <time>2007-05-21T05:26:25.775Z</time>
      </trkpt>
      <trkpt lat="43.88789" lon="8.05742">
        <ele>9</ele>
        <time>2007-05-21T05:26:20.572Z</time>
      </trkpt>
      <trkpt lat="43.88805" lon="8.0583">
        <ele>13.25</ele>
        <time>2007-05-21T05:25:54.444Z</time>
      </trkpt>
      <trkpt lat="43.88812" lon="8.05867">
        <ele>13.75</ele>
        <time>2007-05-21T05:25:43.211Z</time>
      </trkpt>
      <trkpt lat="43.88812" lon="8.05867">
        <ele>13.25</ele>
        <time>2007-05-21T05:25:43.163Z</time>
      </trkpt>
      <trkpt lat="43.88819" lon="8.059">
        <ele>14.5</ele>
        <time>2007-05-21T05:25:33.401Z</time>
      </trkpt>
      <trkpt lat="43.88822" lon="8.05912">
        <ele>14.5</ele>
        <time>2007-05-21T05:25:29.692Z</time>
      </trkpt>
      <trkpt lat="43.88825" lon="8.05926">
        <ele>15.25</ele>
        <time>2007-05-21T05:25:25.480Z</time>
      </trkpt>
      <trkpt lat="43.88838" lon="8.05959">
        <ele>17.5</ele>
        <time>2007-05-21T05:25:14.714Z</time>
      </trkpt>
      <trkpt lat="43.88844" lon="8.05985">
        <ele>19.25</ele>
        <time>2007-05-21T05:25:06.833Z</time>
      </trkpt>
      <trkpt lat="43.88846" lon="8.05999">
        <ele>19.5</ele>
        <time>2007-05-21T05:25:02.655Z</time>
      </trkpt>
      <trkpt lat="43.88849" lon="8.06082">
        <ele>17.5</ele>
        <time>2007-05-21T05:24:38.587Z</time>
      </trkpt>
      <trkpt lat="43.88849" lon="8.06082">
        <ele>19.5</ele>
        <time>2007-05-21T05:24:38.539Z</time>
      </trkpt>
      <trkpt lat="43.8885" lon="8.06103">
        <ele>17.25</ele>
        <time>2007-05-21T05:24:32.637Z</time>
      </trkpt>
      <trkpt lat="43.88858" lon="8.06146">
        <ele>20.75</ele>
        <time>2007-05-21T05:24:19.613Z</time>
      </trkpt>
      <trkpt lat="43.88854" lon="8.06148">
        <ele>18.25</ele>
        <time>2007-05-21T05:24:17.605Z</time>
        <extensions>
          <visugpx:TrkExtension xmlns:visugpx="https://www.visugpx.com/editgpx/">
            <visugpx:node>1</visugpx:node>
            </visugpx:TrkExtension>
        </extensions>
      </trkpt>
      <trkpt lat="43.88854" lon="8.06148">
        <ele>18.25</ele>
        <time>2007-05-21T05:24:17.605Z</time>
        <extensions>
          <visugpx:TrkExtension xmlns:visugpx="https://www.visugpx.com/editgpx/">
            <visugpx:node>1</visugpx:node>
            </visugpx:TrkExtension>
        </extensions>
      </trkpt>
      <trkpt lat="43.88858" lon="8.06146">
        <ele>20.75</ele>
        <time>2007-05-21T05:24:19.613Z</time>
      </trkpt>
      <trkpt lat="43.8885" lon="8.06103">
        <ele>17.25</ele>
        <time>2007-05-21T05:24:32.637Z</time>
      </trkpt>
      <trkpt lat="43.88849" lon="8.06082">
        <ele>19.5</ele>
        <time>2007-05-21T05:24:38.539Z</time>
      </trkpt>
      <trkpt lat="43.88849" lon="8.06082">
        <ele>17.5</ele>
        <time>2007-05-21T05:24:38.587Z</time>
      </trkpt>
      <trkpt lat="43.88846" lon="8.05999">
        <ele>19.5</ele>
        <time>2007-05-21T05:25:02.655Z</time>
      </trkpt>
      <trkpt lat="43.88844" lon="8.05985">
        <ele>19.25</ele>
        <time>2007-05-21T05:25:06.833Z</time>
      </trkpt>
      <trkpt lat="43.88838" lon="8.05959">
        <ele>17.5</ele>
        <time>2007-05-21T05:25:14.714Z</time>
      </trkpt>
      <trkpt lat="43.88825" lon="8.05926">
        <ele>15.25</ele>
        <time>2007-05-21T05:25:25.480Z</time>
      </trkpt>
      <trkpt lat="43.88822" lon="8.05912">
        <ele>14.5</ele>
        <time>2007-05-21T05:25:29.692Z</time>
      </trkpt>
      <trkpt lat="43.88819" lon="8.059">
        <ele>14.5</ele>
        <time>2007-05-21T05:25:33.401Z</time>
      </trkpt>
      <trkpt lat="43.88812" lon="8.05867">
        <ele>13.25</ele>
        <time>2007-05-21T05:25:43.163Z</time>
      </trkpt>
      <trkpt lat="43.88812" lon="8.05867">
        <ele>13.75</ele>
        <time>2007-05-21T05:25:43.211Z</time>
      </trkpt>
      <trkpt lat="43.88805" lon="8.0583">
        <ele>13.25</ele>
        <time>2007-05-21T05:25:54.444Z</time>
      </trkpt>
      <trkpt lat="43.88789" lon="8.05742">
        <ele>9</ele>
        <time>2007-05-21T05:26:20.572Z</time>
      </trkpt>
      <trkpt lat="43.88787" lon="8.05724">
        <ele>8.5</ele>
        <time>2007-05-21T05:26:25.775Z</time>
      </trkpt>
      <trkpt lat="43.88789" lon="8.05699">
        <ele>8.5</ele>
        <time>2007-05-21T05:26:33.150Z</time>
      </trkpt>
      <trkpt lat="43.88793" lon="8.05682">
        <ele>8.75</ele>
        <time>2007-05-21T05:26:38.195Z</time>
      </trkpt>
      <trkpt lat="43.88802" lon="8.05659">
        <ele>10.75</ele>
        <time>2007-05-21T05:26:45.912Z</time>
      </trkpt>
      <trkpt lat="43.88805" lon="8.0564">
        <ele>12.25</ele>
        <time>2007-05-21T05:26:51.476Z</time>
      </trkpt>
      <trkpt lat="43.88805" lon="8.05617">
        <ele>13.5</ele>
        <time>2007-05-21T05:26:58.062Z</time>
      </trkpt>
      <trkpt lat="43.88803" lon="8.05596">
        <ele>14</ele>
        <time>2007-05-21T05:27:04.174Z</time>
      </trkpt>
      <trkpt lat="43.88796" lon="8.05566">
        <ele>15</ele>
        <time>2007-05-21T05:27:13.288Z</time>
      </trkpt>
      <trkpt lat="43.88796" lon="8.05566">
        <ele>14.75</ele>
        <time>2007-05-21T05:27:13.356Z</time>
      </trkpt>
      <trkpt lat="43.88794" lon="8.05558">
        <ele>15</ele>
        <time>2007-05-21T05:27:15.886Z</time>
      </trkpt>
      <trkpt lat="43.88797" lon="8.05551">
        <ele>16.5</ele>
        <time>2007-05-21T05:27:18.065Z</time>
      </trkpt>
      <trkpt lat="43.88805" lon="8.05548">
        <ele>18.75</ele>
        <time>2007-05-21T05:27:21.273Z</time>
      </trkpt>
      <trkpt lat="43.88803" lon="8.0554">
        <ele>19.25</ele>
        <time>2007-05-21T05:27:23.718Z</time>
      </trkpt>
      <trkpt lat="43.88799" lon="8.05528">
        <ele>19</ele>
        <time>2007-05-21T05:27:27.511Z</time>
      </trkpt>
      <trkpt lat="43.88799" lon="8.05528">
        <ele>19</ele>
        <time>2007-05-21T05:27:27.559Z</time>
      </trkpt>
      <trkpt lat="43.88796" lon="8.05521">
        <ele>19</ele>
        <time>2007-05-21T05:27:29.693Z</time>
      </trkpt>
      <trkpt lat="43.88782" lon="8.05469">
        <ele>19</ele>
        <time>2007-05-21T05:27:45.968Z</time>
      </trkpt>
      <trkpt lat="43.88773" lon="8.05423">
        <ele>19</ele>
        <time>2007-05-21T05:27:59.524Z</time>
      </trkpt>
      <trkpt lat="43.88766" lon="8.05375">
        <ele>16.5</ele>
        <time>2007-05-21T05:28:13.838Z</time>
      </trkpt>
      <trkpt lat="43.88763" lon="8.05323">
        <ele>16</ele>
        <time>2007-05-21T05:28:28.711Z</time>
      </trkpt>
      <trkpt lat="43.88762" lon="8.05269">
        <ele>18</ele>
        <time>2007-05-21T05:28:44.483Z</time>
      </trkpt>
      <trkpt lat="43.88762" lon="8.05266">
        <ele>18</ele>
        <time>2007-05-21T05:28:45.348Z</time>
      </trkpt>
      <trkpt lat="43.88771" lon="8.05168">
        <ele>20</ele>
        <time>2007-05-21T05:29:13.702Z</time>
      </trkpt>
      <trkpt lat="43.88776" lon="8.05095">
        <ele>20</ele>
        <time>2007-05-21T05:29:35.063Z</time>
      </trkpt>
      <trkpt lat="43.88775" lon="8.05053">
        <ele>18.5</ele>
        <time>2007-05-21T05:29:47.252Z</time>
      </trkpt>
      <trkpt lat="43.88774" lon="8.05003">
        <ele>16.5</ele>
        <time>2007-05-21T05:30:01.448Z</time>
      </trkpt>
      <trkpt lat="43.88776" lon="8.04932">
        <ele>15.25</ele>
        <time>2007-05-21T05:30:22.148Z</time>
      </trkpt>
      <trkpt lat="43.88787" lon="8.04865">
        <ele>16.25</ele>
        <time>2007-05-21T05:30:41.986Z</time>
      </trkpt>
      <trkpt lat="43.88788" lon="8.04857">
        <ele>16.25</ele>
        <time>2007-05-21T05:30:44.434Z</time>
      </trkpt>
      <trkpt lat="43.88805" lon="8.04788">
        <ele>15.75</ele>
        <time>2007-05-21T05:31:05.402Z</time>
      </trkpt>
      <trkpt lat="43.88819" lon="8.04745">
        <ele>15.5</ele>
        <time>2007-05-21T05:31:18.927Z</time>
      </trkpt>
      <trkpt lat="43.88834" lon="8.04707">
        <ele>15</ele>
        <time>2007-05-21T05:31:31.562Z</time>
      </trkpt>
      <trkpt lat="43.88841" lon="8.04693">
        <ele>15.25</ele>
        <time>2007-05-21T05:31:36.435Z</time>
      </trkpt>
      <trkpt lat="43.88867" lon="8.04653">
        <ele>14</ele>
        <time>2007-05-21T05:31:51.874Z</time>
      </trkpt>
      <trkpt lat="43.88895" lon="8.0461">
        <ele>14.5</ele>
        <time>2007-05-21T05:32:08.830Z</time>
      </trkpt>
      <trkpt lat="43.88944" lon="8.04545">
        <ele>20.25</ele>
        <time>2007-05-21T05:32:35.750Z</time>
      </trkpt>
      <trkpt lat="43.89175" lon="8.04219">
        <ele>20.25</ele>
        <time>2007-05-21T05:34:47.944Z</time>
      </trkpt>
      <trkpt lat="43.89194" lon="8.04183">
        <ele>20.25</ele>
        <time>2007-05-21T05:35:00.762Z</time>
      </trkpt>
      <trkpt lat="43.89209" lon="8.04141">
        <ele>20.25</ele>
        <time>2007-05-21T05:35:14.432Z</time>
      </trkpt>
      <trkpt lat="43.89209" lon="8.04141">
        <ele>16.25</ele>
        <time>2007-05-21T05:35:14.466Z</time>
      </trkpt>
      <trkpt lat="43.89223" lon="8.04088">
        <ele>16.25</ele>
        <time>2007-05-21T05:35:30.903Z</time>
      </trkpt>
      <trkpt lat="43.89231" lon="8.04019">
        <ele>16.25</ele>
        <time>2007-05-21T05:35:50.994Z</time>
      </trkpt>
      <trkpt lat="43.8923" lon="8.03962">
        <ele>13.75</ele>
        <time>2007-05-21T05:36:07.579Z</time>
      </trkpt>
      <trkpt lat="43.89227" lon="8.03899">
        <ele>11.25</ele>
        <time>2007-05-21T05:36:25.634Z</time>
      </trkpt>
      <trkpt lat="43.89222" lon="8.03862">
        <ele>10.5</ele>
        <time>2007-05-21T05:36:36.540Z</time>
      </trkpt>
      <trkpt lat="43.89213" lon="8.03794">
        <ele>9.25</ele>
        <time>2007-05-21T05:36:56.641Z</time>
      </trkpt>
      <trkpt lat="43.89191" lon="8.03694">
        <ele>8.5</ele>
        <time>2007-05-21T05:37:26.731Z</time>
      </trkpt>
      <trkpt lat="43.89172" lon="8.03628">
        <ele>8</ele>
        <time>2007-05-21T05:37:47.152Z</time>
      </trkpt>
      <trkpt lat="43.89156" lon="8.03588">
        <ele>7.75</ele>
        <time>2007-05-21T05:38:00.532Z</time>
      </trkpt>
      <trkpt lat="43.89146" lon="8.03564">
        <ele>7.25</ele>
        <time>2007-05-21T05:38:08.515Z</time>
      </trkpt>
      <trkpt lat="43.89103" lon="8.0346">
        <ele>7.5</ele>
        <time>2007-05-21T05:38:43.203Z</time>
      </trkpt>
      <trkpt lat="43.89098" lon="8.03449">
        <ele>8</ele>
        <time>2007-05-21T05:38:46.862Z</time>
      </trkpt>
      <trkpt lat="43.89084" lon="8.03436">
        <ele>8.75</ele>
        <time>2007-05-21T05:38:53.696Z</time>
      </trkpt>
      <trkpt lat="43.8908" lon="8.0343">
        <ele>9</ele>
        <time>2007-05-21T05:38:56.095Z</time>
      </trkpt>
      <trkpt lat="43.89078" lon="8.03426">
        <ele>9.25</ele>
        <time>2007-05-21T05:38:57.410Z</time>
      </trkpt>
      <trkpt lat="43.89077" lon="8.03413">
        <ele>10</ele>
        <time>2007-05-21T05:39:01.202Z</time>
      </trkpt>
      <trkpt lat="43.8906" lon="8.0338">
        <ele>11</ele>
        <time>2007-05-21T05:39:13.155Z</time>
      </trkpt>
      <trkpt lat="43.89031" lon="8.03346">
        <ele>11.75</ele>
        <time>2007-05-21T05:39:28.374Z</time>
      </trkpt>
      <trkpt lat="43.88997" lon="8.03313">
        <ele>13.25</ele>
        <time>2007-05-21T05:39:44.743Z</time>
      </trkpt>
      <trkpt lat="43.8897" lon="8.03284">
        <ele>15.25</ele>
        <time>2007-05-21T05:39:58.371Z</time>
      </trkpt>
      <trkpt lat="43.88944" lon="8.03261">
        <ele>16</ele>
        <time>2007-05-21T05:40:10.746Z</time>
      </trkpt>
      <trkpt lat="43.88944" lon="8.03261">
        <ele>15.75</ele>
        <time>2007-05-21T05:40:10.805Z</time>
      </trkpt>
      <trkpt lat="43.88941" lon="8.03258">
        <ele>16</ele>
        <time>2007-05-21T05:40:12.469Z</time>
      </trkpt>
      <trkpt lat="43.88866" lon="8.03214">
        <ele>16</ele>
        <time>2007-05-21T05:40:44.974Z</time>
      </trkpt>
      <trkpt lat="43.88856" lon="8.03208">
        <ele>15.75</ele>
        <time>2007-05-21T05:40:49.318Z</time>
      </trkpt>
      <trkpt lat="43.88818" lon="8.03185">
        <ele>14.25</ele>
        <time>2007-05-21T05:41:05.953Z</time>
      </trkpt>
      <trkpt lat="43.88758" lon="8.03141">
        <ele>13</ele>
        <time>2007-05-21T05:41:33.143Z</time>
      </trkpt>
      <trkpt lat="43.88728" lon="8.03118">
        <ele>12.25</ele>
        <time>2007-05-21T05:41:46.905Z</time>
      </trkpt>
      <trkpt lat="43.88693" lon="8.03084">
        <ele>11</ele>
        <time>2007-05-21T05:42:03.982Z</time>
      </trkpt>
      <trkpt lat="43.88676" lon="8.03064">
        <ele>11.5</ele>
        <time>2007-05-21T05:42:13.064Z</time>
      </trkpt>
      <trkpt lat="43.88656" lon="8.03041">
        <ele>12.25</ele>
        <time>2007-05-21T05:42:23.554Z</time>
      </trkpt>
      <trkpt lat="43.88635" lon="8.03013">
        <ele>13.25</ele>
        <time>2007-05-21T05:42:34.984Z</time>
      </trkpt>
      <trkpt lat="43.88622" lon="8.02993">
        <ele>13.5</ele>
        <time>2007-05-21T05:42:42.844Z</time>
      </trkpt>
      <trkpt lat="43.88611" lon="8.02977">
        <ele>13.75</ele>
        <time>2007-05-21T05:42:49.150Z</time>
      </trkpt>
      <trkpt lat="43.88604" lon="8.02967">
        <ele>14</ele>
        <time>2007-05-21T05:42:53.261Z</time>
      </trkpt>
      <trkpt lat="43.88582" lon="8.02931">
        <ele>13.75</ele>
        <time>2007-05-21T05:43:06.857Z</time>
      </trkpt>
      <trkpt lat="43.88555" lon="8.02884">
        <ele>14.75</ele>
        <time>2007-05-21T05:43:24.361Z</time>
      </trkpt>
      <trkpt lat="43.88529" lon="8.02836">
        <ele>16.75</ele>
        <time>2007-05-21T05:43:41.659Z</time>
      </trkpt>
      <trkpt lat="43.88502" lon="8.02783">
        <ele>20.25</ele>
        <time>2007-05-21T05:44:00.457Z</time>
      </trkpt>
      <trkpt lat="43.88482" lon="8.0275">
        <ele>20.25</ele>
        <time>2007-05-21T05:44:12.785Z</time>
      </trkpt>
      <trkpt lat="43.88468" lon="8.02729">
        <ele>20.75</ele>
        <time>2007-05-21T05:44:21.284Z</time>
      </trkpt>
      <trkpt lat="43.88445" lon="8.02699">
        <ele>21.5</ele>
        <time>2007-05-21T05:44:33.840Z</time>
      </trkpt>
      <trkpt lat="43.88382" lon="8.02628">
        <ele>19.5</ele>
        <time>2007-05-21T05:45:06.279Z</time>
      </trkpt>
      <trkpt lat="43.88357" lon="8.02599">
        <ele>16.75</ele>
        <time>2007-05-21T05:45:19.479Z</time>
      </trkpt>
      <trkpt lat="43.8834" lon="8.02573">
        <ele>15.5</ele>
        <time>2007-05-21T05:45:29.524Z</time>
      </trkpt>
      <trkpt lat="43.8832" lon="8.02538">
        <ele>17.5</ele>
        <time>2007-05-21T05:45:42.381Z</time>
      </trkpt>
      <trkpt lat="43.88308" lon="8.02513">
        <ele>18.75</ele>
        <time>2007-05-21T05:45:51.196Z</time>
      </trkpt>
      <trkpt lat="43.88292" lon="8.02475">
        <ele>19.25</ele>
        <time>2007-05-21T05:46:03.807Z</time>
      </trkpt>
      <trkpt lat="43.88275" lon="8.02425">
        <ele>20</ele>
        <time>2007-05-21T05:46:19.745Z</time>
      </trkpt>
      <trkpt lat="43.8826" lon="8.02348">
        <ele>18.5</ele>
        <time>2007-05-21T05:46:42.717Z</time>
      </trkpt>
      <trkpt lat="43.88241" lon="8.02273">
        <ele>17.25</ele>
        <time>2007-05-21T05:47:05.876Z</time>
      </trkpt>
      <trkpt lat="43.88237" lon="8.02263">
        <ele>17.25</ele>
        <time>2007-05-21T05:47:09.116Z</time>
      </trkpt>
      <trkpt lat="43.88235" lon="8.02256">
        <ele>17</ele>
        <time>2007-05-21T05:47:11.147Z</time>
      </trkpt>
      <trkpt lat="43.88234" lon="8.02252">
        <ele>17</ele>
        <time>2007-05-21T05:47:12.388Z</time>
      </trkpt>
      <trkpt lat="43.88224" lon="8.02235">
        <ele>16</ele>
        <time>2007-05-21T05:47:18.808Z</time>
      </trkpt>
      <trkpt lat="43.88189" lon="8.02157">
        <ele>14</ele>
        <time>2007-05-21T05:47:45.316Z</time>
      </trkpt>
      <trkpt lat="43.88177" lon="8.02132">
        <ele>14.5</ele>
        <time>2007-05-21T05:47:54.251Z</time>
      </trkpt>
      <trkpt lat="43.88164" lon="8.02108">
        <ele>15.25</ele>
        <time>2007-05-21T05:48:02.689Z</time>
      </trkpt>
      <trkpt lat="43.88149" lon="8.02081">
        <ele>15.75</ele>
        <time>2007-05-21T05:48:12.468Z</time>
      </trkpt>
      <trkpt lat="43.88128" lon="8.02047">
        <ele>14.5</ele>
        <time>2007-05-21T05:48:25.431Z</time>
      </trkpt>
      <trkpt lat="43.88106" lon="8.02016">
        <ele>12.75</ele>
        <time>2007-05-21T05:48:38.021Z</time>
      </trkpt>
      <trkpt lat="43.88059" lon="8.01953">
        <ele>12.5</ele>
        <time>2007-05-21T05:49:04.233Z</time>
      </trkpt>
      <trkpt lat="43.88059" lon="8.01953">
        <ele>12.5</ele>
        <time>2007-05-21T05:49:04.292Z</time>
      </trkpt>
      <trkpt lat="43.8802" lon="8.01902">
        <ele>12.5</ele>
        <time>2007-05-21T05:49:25.805Z</time>
      </trkpt>
      <trkpt lat="43.88008" lon="8.01884">
        <ele>12.5</ele>
        <time>2007-05-21T05:49:32.798Z</time>
      </trkpt>
      <trkpt lat="43.87996" lon="8.01864">
        <ele>12.25</ele>
        <time>2007-05-21T05:49:40.398Z</time>
      </trkpt>
      <trkpt lat="43.87986" lon="8.01845">
        <ele>13</ele>
        <time>2007-05-21T05:49:47.289Z</time>
      </trkpt>
      <trkpt lat="43.87972" lon="8.01813">
        <ele>16.75</ele>
        <time>2007-05-21T05:49:58.059Z</time>
      </trkpt>
      <trkpt lat="43.87965" lon="8.01792">
        <ele>20.25</ele>
        <time>2007-05-21T05:50:04.763Z</time>
      </trkpt>
      <trkpt lat="43.87953" lon="8.01759">
        <ele>24.25</ele>
        <time>2007-05-21T05:50:15.388Z</time>
      </trkpt>
      <trkpt lat="43.87943" lon="8.0174">
        <ele>24</ele>
        <time>2007-05-21T05:50:22.257Z</time>
      </trkpt>
      <trkpt lat="43.8793" lon="8.01717">
        <ele>23.75</ele>
        <time>2007-05-21T05:50:30.654Z</time>
      </trkpt>
      <trkpt lat="43.87915" lon="8.01684">
        <ele>23.5</ele>
        <time>2007-05-21T05:50:41.828Z</time>
      </trkpt>
      <trkpt lat="43.87901" lon="8.01647">
        <ele>23.25</ele>
        <time>2007-05-21T05:50:53.957Z</time>
      </trkpt>
      <trkpt lat="43.87887" lon="8.01595">
        <ele>23</ele>
        <time>2007-05-21T05:51:10.089Z</time>
      </trkpt>
      <trkpt lat="43.87876" lon="8.01536">
        <ele>22.5</ele>
        <time>2007-05-21T05:51:27.661Z</time>
      </trkpt>
      <trkpt lat="43.87863" lon="8.01463">
        <ele>22.25</ele>
        <time>2007-05-21T05:51:49.284Z</time>
      </trkpt>
      <trkpt lat="43.87849" lon="8.01397">
        <ele>21.75</ele>
        <time>2007-05-21T05:52:09.141Z</time>
      </trkpt>
      <trkpt lat="43.87832" lon="8.0134">
        <ele>21.25</ele>
        <time>2007-05-21T05:52:27.148Z</time>
      </trkpt>
      <trkpt lat="43.8781" lon="8.01286">
        <ele>21</ele>
        <time>2007-05-21T05:52:44.955Z</time>
      </trkpt>
      <trkpt lat="43.87785" lon="8.01237">
        <ele>20.75</ele>
        <time>2007-05-21T05:53:02.162Z</time>
      </trkpt>
      <trkpt lat="43.87773" lon="8.01215">
        <ele>20.75</ele>
        <time>2007-05-21T05:53:10.351Z</time>
      </trkpt>
      <trkpt lat="43.87754" lon="8.01187">
        <ele>19</ele>
        <time>2007-05-21T05:53:21.601Z</time>
      </trkpt>
      <trkpt lat="43.87724" lon="8.01147">
        <ele>18</ele>
        <time>2007-05-21T05:53:37.926Z</time>
      </trkpt>
      <trkpt lat="43.87695" lon="8.01113">
        <ele>17.25</ele>
        <time>2007-05-21T05:53:53.225Z</time>
      </trkpt>
      <trkpt lat="43.87664" lon="8.01081">
        <ele>14.75</ele>
        <time>2007-05-21T05:54:08.623Z</time>
      </trkpt>
      <trkpt lat="43.87641" lon="8.01061">
        <ele>14</ele>
        <time>2007-05-21T05:54:19.519Z</time>
      </trkpt>
      <trkpt lat="43.87617" lon="8.01043">
        <ele>13</ele>
        <time>2007-05-21T05:54:30.814Z</time>
      </trkpt>
      <trkpt lat="43.87612" lon="8.01039">
        <ele>12.75</ele>
        <time>2007-05-21T05:54:33.022Z</time>
      </trkpt>
      <trkpt lat="43.87607" lon="8.01035">
        <ele>12.5</ele>
        <time>2007-05-21T05:54:35.209Z</time>
      </trkpt>
      <trkpt lat="43.87592" lon="8.01025">
        <ele>11.75</ele>
        <time>2007-05-21T05:54:41.778Z</time>
      </trkpt>
      <trkpt lat="43.87569" lon="8.01013">
        <ele>11</ele>
        <time>2007-05-21T05:54:51.729Z</time>
      </trkpt>
      <trkpt lat="43.87539" lon="8.01002">
        <ele>10.25</ele>
        <time>2007-05-21T05:55:04.228Z</time>
      </trkpt>
      <trkpt lat="43.87512" lon="8.00992">
        <ele>10</ele>
        <time>2007-05-21T05:55:15.542Z</time>
      </trkpt>
      <trkpt lat="43.87456" lon="8.00975">
        <ele>8.5</ele>
        <time>2007-05-21T05:55:38.317Z</time>
      </trkpt>
      <trkpt lat="43.87441" lon="8.00969">
        <ele>8.25</ele>
        <time>2007-05-21T05:55:44.497Z</time>
      </trkpt>
      <trkpt lat="43.8742" lon="8.0096">
        <ele>8</ele>
        <time>2007-05-21T05:55:53.562Z</time>
      </trkpt>
      <trkpt lat="43.87386" lon="8.00942">
        <ele>10.25</ele>
        <time>2007-05-21T05:56:07.935Z</time>
      </trkpt>
      <trkpt lat="43.87372" lon="8.00933">
        <ele>11.5</ele>
        <time>2007-05-21T05:56:14.290Z</time>
      </trkpt>
      <trkpt lat="43.87325" lon="8.00899">
        <ele>17</ele>
        <time>2007-05-21T05:56:35.595Z</time>
      </trkpt>
      <trkpt lat="43.87322" lon="8.00897">
        <ele>16.75</ele>
        <time>2007-05-21T05:56:36.857Z</time>
      </trkpt>
      <trkpt lat="43.87303" lon="8.00883">
        <ele>16.75</ele>
        <time>2007-05-21T05:56:45.304Z</time>
      </trkpt>
      <trkpt lat="43.87273" lon="8.00854">
        <ele>16.5</ele>
        <time>2007-05-21T05:57:00.076Z</time>
      </trkpt>
      <trkpt lat="43.87253" lon="8.00828">
        <ele>16.25</ele>
        <time>2007-05-21T05:57:10.936Z</time>
      </trkpt>
      <trkpt lat="43.87216" lon="8.00768">
        <ele>15.75</ele>
        <time>2007-05-21T05:57:33.954Z</time>
      </trkpt>
      <trkpt lat="43.87176" lon="8.00691">
        <ele>15.25</ele>
        <time>2007-05-21T05:58:01.145Z</time>
      </trkpt>
      <trkpt lat="43.87144" lon="8.00624">
        <ele>14.75</ele>
        <time>2007-05-21T05:58:24.391Z</time>
      </trkpt>
      <trkpt lat="43.8712" lon="8.00563">
        <ele>14.5</ele>
        <time>2007-05-21T05:58:44.599Z</time>
      </trkpt>
      <trkpt lat="43.87085" lon="8.00456">
        <ele>14</ele>
        <time>2007-05-21T05:59:18.543Z</time>
      </trkpt>
      <trkpt lat="43.87077" lon="8.00436">
        <ele>14</ele>
        <time>2007-05-21T05:59:25.050Z</time>
      </trkpt>
      <trkpt lat="43.87061" lon="8.00399">
        <ele>10.75</ele>
        <time>2007-05-21T05:59:37.447Z</time>
      </trkpt>
      <trkpt lat="43.8703" lon="8.0033">
        <ele>6.5</ele>
        <time>2007-05-21T06:00:01.167Z</time>
      </trkpt>
      <trkpt lat="43.87026" lon="8.00321">
        <ele>5.75</ele>
        <time>2007-05-21T06:00:04.057Z</time>
      </trkpt>
      <trkpt lat="43.87019" lon="8.00307">
        <ele>5</ele>
        <time>2007-05-21T06:00:09.082Z</time>
      </trkpt>
      <trkpt lat="43.87017" lon="8.00302">
        <ele>4.75</ele>
        <time>2007-05-21T06:00:10.700Z</time>
      </trkpt>
      <trkpt lat="43.87015" lon="8.00298">
        <ele>4.5</ele>
        <time>2007-05-21T06:00:12.224Z</time>
      </trkpt>
      <trkpt lat="43.87014" lon="8.00297">
        <ele>2.5</ele>
        <time>2007-05-21T06:00:12.645Z</time>
      </trkpt>
      <trkpt lat="43.86976" lon="8.00221">
        <ele>2.5</ele>
        <time>2007-05-21T06:00:39.303Z</time>
      </trkpt>
      <trkpt lat="43.86957" lon="8.00179">
        <ele>2</ele>
        <time>2007-05-21T06:00:53.458Z</time>
      </trkpt>
      <trkpt lat="43.8688" lon="8.00019">
        <ele>2.75</ele>
        <time>2007-05-21T06:01:49.263Z</time>
      </trkpt>
      <trkpt lat="43.86839" lon="7.9993">
        <ele>3</ele>
        <time>2007-05-21T06:02:19.770Z</time>
      </trkpt>
      <trkpt lat="43.86833" lon="7.9992">
        <ele>2.75</ele>
        <time>2007-05-21T06:02:23.501Z</time>
      </trkpt>
      <trkpt lat="43.86811" lon="7.9987">
        <ele>4.5</ele>
        <time>2007-05-21T06:02:40.479Z</time>
      </trkpt>
      <trkpt lat="43.8681" lon="7.99868">
        <ele>4.5</ele>
        <time>2007-05-21T06:02:41.089Z</time>
      </trkpt>
      <trkpt lat="43.8676" lon="7.99756">
        <ele>8</ele>
        <time>2007-05-21T06:03:19.123Z</time>
      </trkpt>
      <trkpt lat="43.86668" lon="7.99556">
        <ele>16.75</ele>
        <time>2007-05-21T06:04:27.760Z</time>
      </trkpt>
      <trkpt lat="43.86561" lon="7.99328">
        <ele>28</ele>
        <time>2007-05-21T06:05:46.330Z</time>
      </trkpt>
      <trkpt lat="43.8655" lon="7.99304">
        <ele>26.5</ele>
        <time>2007-05-21T06:05:54.429Z</time>
      </trkpt>
      <trkpt lat="43.86534" lon="7.99262">
        <ele>23.25</ele>
        <time>2007-05-21T06:06:08.284Z</time>
      </trkpt>
      <trkpt lat="43.86523" lon="7.99228">
        <ele>21.75</ele>
        <time>2007-05-21T06:06:19.180Z</time>
      </trkpt>
      <trkpt lat="43.865" lon="7.9913">
        <ele>18.75</ele>
        <time>2007-05-21T06:06:48.735Z</time>
      </trkpt>
      <trkpt lat="43.86474" lon="7.98992">
        <ele>20.75</ele>
        <time>2007-05-21T06:07:30.180Z</time>
      </trkpt>
      <trkpt lat="43.86465" lon="7.98933">
        <ele>21.75</ele>
        <time>2007-05-21T06:07:47.588Z</time>
      </trkpt>
      <trkpt lat="43.86458" lon="7.98881">
        <ele>21.75</ele>
        <time>2007-05-21T06:08:02.733Z</time>
      </trkpt>
      <trkpt lat="43.86453" lon="7.98822">
        <ele>22</ele>
        <time>2007-05-21T06:08:19.942Z</time>
      </trkpt>
      <trkpt lat="43.8645" lon="7.98768">
        <ele>24</ele>
        <time>2007-05-21T06:08:35.568Z</time>
      </trkpt>
      <trkpt lat="43.86447" lon="7.98621">
        <ele>25.75</ele>
        <time>2007-05-21T06:09:18.270Z</time>
      </trkpt>
      <trkpt lat="43.86444" lon="7.98548">
        <ele>24.25</ele>
        <time>2007-05-21T06:09:39.246Z</time>
      </trkpt>
      <trkpt lat="43.8644" lon="7.98502">
        <ele>23.25</ele>
        <time>2007-05-21T06:09:52.670Z</time>
      </trkpt>
      <trkpt lat="43.86435" lon="7.98465">
        <ele>23.5</ele>
        <time>2007-05-21T06:10:03.634Z</time>
      </trkpt>
      <trkpt lat="43.86397" lon="7.98247">
        <ele>25.75</ele>
        <time>2007-05-21T06:11:08.303Z</time>
      </trkpt>
      <trkpt lat="43.86378" lon="7.98135">
        <ele>27</ele>
        <time>2007-05-21T06:11:41.501Z</time>
      </trkpt>
      <trkpt lat="43.86371" lon="7.98102">
        <ele>27</ele>
        <time>2007-05-21T06:11:51.631Z</time>
      </trkpt>
      <trkpt lat="43.86364" lon="7.98071">
        <ele>26.25</ele>
        <time>2007-05-21T06:12:00.848Z</time>
      </trkpt>
      <trkpt lat="43.86347" lon="7.98015">
        <ele>25.75</ele>
        <time>2007-05-21T06:12:18.519Z</time>
      </trkpt>
      <trkpt lat="43.86331" lon="7.97968">
        <ele>25.25</ele>
        <time>2007-05-21T06:12:33.377Z</time>
      </trkpt>
      <trkpt lat="43.86318" lon="7.9792">
        <ele>24.75</ele>
        <time>2007-05-21T06:12:48.317Z</time>
      </trkpt>
      <trkpt lat="43.86307" lon="7.97864">
        <ele>24.5</ele>
        <time>2007-05-21T06:13:05.196Z</time>
      </trkpt>
      <trkpt lat="43.86303" lon="7.97828">
        <ele>24.5</ele>
        <time>2007-05-21T06:13:15.670Z</time>
      </trkpt>
      <trkpt lat="43.86296" lon="7.97748">
        <ele>25.5</ele>
        <time>2007-05-21T06:13:38.927Z</time>
      </trkpt>
      <trkpt lat="43.86292" lon="7.97716">
        <ele>24.75</ele>
        <time>2007-05-21T06:13:48.449Z</time>
      </trkpt>
      <trkpt lat="43.86285" lon="7.97668">
        <ele>22.75</ele>
        <time>2007-05-21T06:14:02.392Z</time>
      </trkpt>
      <trkpt lat="43.86276" lon="7.9763">
        <ele>21.25</ele>
        <time>2007-05-21T06:14:14.056Z</time>
      </trkpt>
      <trkpt lat="43.86268" lon="7.97601">
        <ele>19.5</ele>
        <time>2007-05-21T06:14:22.856Z</time>
      </trkpt>
      <trkpt lat="43.86252" lon="7.97561">
        <ele>18.5</ele>
        <time>2007-05-21T06:14:36.082Z</time>
      </trkpt>
      <trkpt lat="43.86236" lon="7.97526">
        <ele>17.5</ele>
        <time>2007-05-21T06:14:48.035Z</time>
      </trkpt>
      <trkpt lat="43.86191" lon="7.97434">
        <ele>15.25</ele>
        <time>2007-05-21T06:15:20.324Z</time>
      </trkpt>
      <trkpt lat="43.86177" lon="7.97403">
        <ele>15.25</ele>
        <time>2007-05-21T06:15:30.865Z</time>
      </trkpt>
      <trkpt lat="43.86162" lon="7.97359">
        <ele>15.75</ele>
        <time>2007-05-21T06:15:44.896Z</time>
      </trkpt>
      <trkpt lat="43.86154" lon="7.97326">
        <ele>16.75</ele>
        <time>2007-05-21T06:15:54.942Z</time>
      </trkpt>
      <trkpt lat="43.86145" lon="7.97279">
        <ele>15.5</ele>
        <time>2007-05-21T06:16:09.106Z</time>
      </trkpt>
      <trkpt lat="43.86138" lon="7.97229">
        <ele>14.5</ele>
        <time>2007-05-21T06:16:23.619Z</time>
      </trkpt>
      <trkpt lat="43.86135" lon="7.97201">
        <ele>14</ele>
        <time>2007-05-21T06:16:32.025Z</time>
      </trkpt>
      <trkpt lat="43.86124" lon="7.97139">
        <ele>13</ele>
        <time>2007-05-21T06:16:50.244Z</time>
      </trkpt>
      <trkpt lat="43.8612" lon="7.97119">
        <ele>12.5</ele>
        <time>2007-05-21T06:16:56.481Z</time>
      </trkpt>
      <trkpt lat="43.86115" lon="7.97098">
        <ele>12.25</ele>
        <time>2007-05-21T06:17:02.843Z</time>
      </trkpt>
      <trkpt lat="43.861" lon="7.97054">
        <ele>9.75</ele>
        <time>2007-05-21T06:17:17.057Z</time>
      </trkpt>
      <trkpt lat="43.8609" lon="7.97031">
        <ele>8.5</ele>
        <time>2007-05-21T06:17:24.692Z</time>
      </trkpt>
      <trkpt lat="43.86074" lon="7.96997">
        <ele>8.5</ele>
        <time>2007-05-21T06:17:36.450Z</time>
      </trkpt>
      <trkpt lat="43.86032" lon="7.9693">
        <ele>11.5</ele>
        <time>2007-05-21T06:18:02.198Z</time>
      </trkpt>
      <trkpt lat="43.86002" lon="7.96885">
        <ele>14.25</ele>
        <time>2007-05-21T06:18:19.760Z</time>
      </trkpt>
      <trkpt lat="43.85993" lon="7.96873">
        <ele>15.25</ele>
        <time>2007-05-21T06:18:24.635Z</time>
      </trkpt>
      <trkpt lat="43.85979" lon="7.96858">
        <ele>15.75</ele>
        <time>2007-05-21T06:18:31.839Z</time>
      </trkpt>
      <trkpt lat="43.85971" lon="7.9685">
        <ele>15.75</ele>
        <time>2007-05-21T06:18:35.660Z</time>
      </trkpt>
      <trkpt lat="43.85944" lon="7.96826">
        <ele>15.25</ele>
        <time>2007-05-21T06:18:48.567Z</time>
      </trkpt>
      <trkpt lat="43.85914" lon="7.96803">
        <ele>16.75</ele>
        <time>2007-05-21T06:19:02.525Z</time>
      </trkpt>
      <trkpt lat="43.85895" lon="7.96791">
        <ele>18</ele>
        <time>2007-05-21T06:19:10.639Z</time>
      </trkpt>
      <trkpt lat="43.85872" lon="7.96778">
        <ele>18.25</ele>
        <time>2007-05-21T06:19:20.562Z</time>
      </trkpt>
      <trkpt lat="43.8586" lon="7.96776">
        <ele>17</ele>
        <time>2007-05-21T06:19:25.486Z</time>
      </trkpt>
      <trkpt lat="43.8582" lon="7.96757">
        <ele>14.75</ele>
        <time>2007-05-21T06:19:42.633Z</time>
      </trkpt>
      <trkpt lat="43.85801" lon="7.96747">
        <ele>14</ele>
        <time>2007-05-21T06:19:50.666Z</time>
      </trkpt>
      <trkpt lat="43.85755" lon="7.96728">
        <ele>12.25</ele>
        <time>2007-05-21T06:20:09.696Z</time>
      </trkpt>
      <trkpt lat="43.85734" lon="7.96723">
        <ele>11.5</ele>
        <time>2007-05-21T06:20:18.325Z</time>
      </trkpt>
      <trkpt lat="43.8572" lon="7.96717">
        <ele>11.75</ele>
        <time>2007-05-21T06:20:24.429Z</time>
      </trkpt>
      <trkpt lat="43.85634" lon="7.96687">
        <ele>13.25</ele>
        <time>2007-05-21T06:20:59.728Z</time>
      </trkpt>
      <trkpt lat="43.85574" lon="7.96665">
        <ele>14.5</ele>
        <time>2007-05-21T06:21:24.736Z</time>
      </trkpt>
      <trkpt lat="43.85552" lon="7.96657">
        <ele>14.5</ele>
        <time>2007-05-21T06:21:33.774Z</time>
      </trkpt>
      <trkpt lat="43.85521" lon="7.9664">
        <ele>15.75</ele>
        <time>2007-05-21T06:21:47.227Z</time>
      </trkpt>
      <trkpt lat="43.85477" lon="7.96622">
        <ele>14.75</ele>
        <time>2007-05-21T06:22:05.405Z</time>
      </trkpt>
      <trkpt lat="43.85463" lon="7.96614">
        <ele>14.75</ele>
        <time>2007-05-21T06:22:11.531Z</time>
      </trkpt>
      <trkpt lat="43.85437" lon="7.96594">
        <ele>14.25</ele>
        <time>2007-05-21T06:22:23.485Z</time>
      </trkpt>
      <trkpt lat="43.85396" lon="7.96561">
        <ele>12.25</ele>
        <time>2007-05-21T06:22:42.673Z</time>
      </trkpt>
      <trkpt lat="43.8538" lon="7.9655">
        <ele>11.5</ele>
        <time>2007-05-21T06:22:49.665Z</time>
      </trkpt>
      <trkpt lat="43.85371" lon="7.96541">
        <ele>11.25</ele>
        <time>2007-05-21T06:22:54.230Z</time>
      </trkpt>
      <trkpt lat="43.85361" lon="7.96532">
        <ele>10.75</ele>
        <time>2007-05-21T06:22:58.924Z</time>
      </trkpt>
      <trkpt lat="43.85345" lon="7.96513">
        <ele>10.25</ele>
        <time>2007-05-21T06:23:07.305Z</time>
      </trkpt>
      <trkpt lat="43.85342" lon="7.96509">
        <ele>10.25</ele>
        <time>2007-05-21T06:23:08.914Z</time>
      </trkpt>
      <trkpt lat="43.85333" lon="7.96494">
        <ele>9.75</ele>
        <time>2007-05-21T06:23:14.584Z</time>
      </trkpt>
      <trkpt lat="43.85317" lon="7.96464">
        <ele>9.25</ele>
        <time>2007-05-21T06:23:25.580Z</time>
      </trkpt>
      <trkpt lat="43.85302" lon="7.96423">
        <ele>9</ele>
        <time>2007-05-21T06:23:38.590Z</time>
      </trkpt>
      <trkpt lat="43.8526" lon="7.9633">
        <ele>10.25</ele>
        <time>2007-05-21T06:24:10.334Z</time>
      </trkpt>
      <trkpt lat="43.8523" lon="7.96284">
        <ele>12</ele>
        <time>2007-05-21T06:24:28.444Z</time>
      </trkpt>
      <trkpt lat="43.85176" lon="7.96205">
        <ele>14</ele>
        <time>2007-05-21T06:24:59.776Z</time>
      </trkpt>
      <trkpt lat="43.85109" lon="7.96091">
        <ele>13</ele>
        <time>2007-05-21T06:25:42.246Z</time>
      </trkpt>
      <trkpt lat="43.85093" lon="7.96054">
        <ele>12.25</ele>
        <time>2007-05-21T06:25:54.775Z</time>
      </trkpt>
      <trkpt lat="43.85085" lon="7.96031">
        <ele>11.75</ele>
        <time>2007-05-21T06:26:02.327Z</time>
      </trkpt>
      <trkpt lat="43.8508" lon="7.96017">
        <ele>12</ele>
        <time>2007-05-21T06:26:06.827Z</time>
      </trkpt>
      <trkpt lat="43.85076" lon="7.96003">
        <ele>12.5</ele>
        <time>2007-05-21T06:26:11.030Z</time>
      </trkpt>
      <trkpt lat="43.85072" lon="7.95991">
        <ele>12.75</ele>
        <time>2007-05-21T06:26:15.020Z</time>
      </trkpt>
      <trkpt lat="43.85059" lon="7.95944">
        <ele>13.25</ele>
        <time>2007-05-21T06:26:29.517Z</time>
      </trkpt>
      <trkpt lat="43.85059" lon="7.95944">
        <ele>13.25</ele>
        <time>2007-05-21T06:26:29.517Z</time>
      </trkpt>
      <trkpt lat="43.85055" lon="7.95919">
        <ele>13.5</ele>
        <time>2007-05-21T06:26:37.130Z</time>
      </trkpt>
      <trkpt lat="43.85051" lon="7.95891">
        <ele>14.5</ele>
        <time>2007-05-21T06:26:46.130Z</time>
      </trkpt>
      <trkpt lat="43.85034" lon="7.95744">
        <ele>18</ele>
        <time>2007-05-21T06:27:29.130Z</time>
      </trkpt>
      <trkpt lat="43.85027" lon="7.95663">
        <ele>16.75</ele>
        <time>2007-05-21T06:27:52.130Z</time>
      </trkpt>
      <trkpt lat="43.85019" lon="7.95596">
        <ele>19.25</ele>
        <time>2007-05-21T06:28:12.130Z</time>
      </trkpt>
      <trkpt lat="43.84945" lon="7.94988">
        <ele>19.25</ele>
        <time>2007-05-21T06:31:10.130Z</time>
      </trkpt>
      <trkpt lat="43.84824" lon="7.94377">
        <ele>19.25</ele>
        <time>2007-05-21T06:34:13.130Z</time>
      </trkpt>
      <trkpt lat="43.84679" lon="7.94087">
        <ele>19.25</ele>
        <time>2007-05-21T06:35:55.130Z</time>
      </trkpt>
      <trkpt lat="43.84613" lon="7.93952">
        <ele>19.25</ele>
        <time>2007-05-21T06:36:42.130Z</time>
      </trkpt>
      <trkpt lat="43.84578" lon="7.93823">
        <ele>19</ele>
        <time>2007-05-21T06:37:22.130Z</time>
      </trkpt>
      <trkpt lat="43.84574" lon="7.93806">
        <ele>18.25</ele>
        <time>2007-05-21T06:37:27.130Z</time>
      </trkpt>
      <trkpt lat="43.84569" lon="7.9377">
        <ele>17</ele>
        <time>2007-05-21T06:37:38.130Z</time>
      </trkpt>
      <trkpt lat="43.84555" lon="7.937">
        <ele>16.75</ele>
        <time>2007-05-21T06:37:59.130Z</time>
      </trkpt>
      <trkpt lat="43.84545" lon="7.93646">
        <ele>18</ele>
        <time>2007-05-21T06:38:15.130Z</time>
      </trkpt>
      <trkpt lat="43.84539" lon="7.93619">
        <ele>18.5</ele>
        <time>2007-05-21T06:38:23.130Z</time>
      </trkpt>
      <trkpt lat="43.84533" lon="7.93586">
        <ele>19.5</ele>
        <time>2007-05-21T06:38:33.130Z</time>
      </trkpt>
      <trkpt lat="43.84525" lon="7.93537">
        <ele>17.75</ele>
        <time>2007-05-21T06:38:47.130Z</time>
      </trkpt>
      <trkpt lat="43.84521" lon="7.93498">
        <ele>16.5</ele>
        <time>2007-05-21T06:38:59.130Z</time>
      </trkpt>
      <trkpt lat="43.84518" lon="7.93456">
        <ele>16.25</ele>
        <time>2007-05-21T06:39:11.130Z</time>
      </trkpt>
      <trkpt lat="43.84515" lon="7.93383">
        <ele>18</ele>
        <time>2007-05-21T06:39:32.130Z</time>
      </trkpt>
      <trkpt lat="43.84513" lon="7.93349">
        <ele>18.25</ele>
        <time>2007-05-21T06:39:42.130Z</time>
      </trkpt>
      <trkpt lat="43.84509" lon="7.93318">
        <ele>18.25</ele>
        <time>2007-05-21T06:39:51.130Z</time>
      </trkpt>
      <trkpt lat="43.84502" lon="7.93263">
        <ele>18</ele>
        <time>2007-05-21T06:40:07.130Z</time>
      </trkpt>
      <trkpt lat="43.84494" lon="7.932">
        <ele>18.75</ele>
        <time>2007-05-21T06:40:26.130Z</time>
      </trkpt>
      <trkpt lat="43.84485" lon="7.93136">
        <ele>17.25</ele>
        <time>2007-05-21T06:40:44.130Z</time>
      </trkpt>
      <trkpt lat="43.8448" lon="7.93084">
        <ele>15.25</ele>
        <time>2007-05-21T06:41:00.130Z</time>
      </trkpt>
      <trkpt lat="43.84479" lon="7.93032">
        <ele>16.75</ele>
        <time>2007-05-21T06:41:15.130Z</time>
      </trkpt>
      <trkpt lat="43.84482" lon="7.92973">
        <ele>17.75</ele>
        <time>2007-05-21T06:41:32.130Z</time>
      </trkpt>
      <trkpt lat="43.84486" lon="7.92917">
        <ele>17.5</ele>
        <time>2007-05-21T06:41:48.130Z</time>
      </trkpt>
      <trkpt lat="43.84488" lon="7.92855">
        <ele>19</ele>
        <time>2007-05-21T06:42:06.130Z</time>
      </trkpt>
      <trkpt lat="43.84488" lon="7.92801">
        <ele>19.75</ele>
        <time>2007-05-21T06:42:22.130Z</time>
      </trkpt>
      <trkpt lat="43.84479" lon="7.92704">
        <ele>18</ele>
        <time>2007-05-21T06:42:50.130Z</time>
      </trkpt>
      <trkpt lat="43.84466" lon="7.92611">
        <ele>15.25</ele>
        <time>2007-05-21T06:43:17.130Z</time>
      </trkpt>
      <trkpt lat="43.84463" lon="7.92565">
        <ele>14</ele>
        <time>2007-05-21T06:43:31.130Z</time>
      </trkpt>
      <trkpt lat="43.84463" lon="7.92515">
        <ele>13</ele>
        <time>2007-05-21T06:43:45.130Z</time>
      </trkpt>
      <trkpt lat="43.84471" lon="7.92365">
        <ele>12.75</ele>
        <time>2007-05-21T06:44:29.130Z</time>
      </trkpt>
      <trkpt lat="43.84473" lon="7.92282">
        <ele>12.75</ele>
        <time>2007-05-21T06:44:53.130Z</time>
      </trkpt>
      <trkpt lat="43.84466" lon="7.92186">
        <ele>11.5</ele>
        <time>2007-05-21T06:45:21.130Z</time>
      </trkpt>
      <trkpt lat="43.84447" lon="7.92073">
        <ele>11</ele>
        <time>2007-05-21T06:45:54.130Z</time>
      </trkpt>
      <trkpt lat="43.84418" lon="7.91975">
        <ele>7</ele>
        <time>2007-05-21T06:46:25.130Z</time>
      </trkpt>
      <trkpt lat="43.8439" lon="7.91884">
        <ele>8</ele>
        <time>2007-05-21T06:46:53.130Z</time>
      </trkpt>
      <trkpt lat="43.84373" lon="7.91792">
        <ele>11.75</ele>
        <time>2007-05-21T06:47:21.130Z</time>
      </trkpt>
      <trkpt lat="43.84361" lon="7.91744">
        <ele>11.25</ele>
        <time>2007-05-21T06:47:35.130Z</time>
      </trkpt>
      <trkpt lat="43.84343" lon="7.91692">
        <ele>9.75</ele>
        <time>2007-05-21T06:47:52.130Z</time>
      </trkpt>
      <trkpt lat="43.84308" lon="7.91613">
        <ele>11.75</ele>
        <time>2007-05-21T06:48:19.130Z</time>
      </trkpt>
      <trkpt lat="43.84294" lon="7.91589">
        <ele>13</ele>
        <time>2007-05-21T06:48:28.130Z</time>
      </trkpt>
      <trkpt lat="43.84264" lon="7.91543">
        <ele>14.25</ele>
        <time>2007-05-21T06:48:46.130Z</time>
      </trkpt>
      <trkpt lat="43.84165" lon="7.91435">
        <ele>10.5</ele>
        <time>2007-05-21T06:49:37.130Z</time>
      </trkpt>
      <trkpt lat="43.84141" lon="7.91409">
        <ele>9</ele>
        <time>2007-05-21T06:49:48.130Z</time>
      </trkpt>
      <trkpt lat="43.84095" lon="7.91332">
        <ele>11.5</ele>
        <time>2007-05-21T06:50:18.130Z</time>
      </trkpt>
      <trkpt lat="43.84075" lon="7.91284">
        <ele>13.5</ele>
        <time>2007-05-21T06:50:33.130Z</time>
      </trkpt>
      <trkpt lat="43.84027" lon="7.91151">
        <ele>16.75</ele>
        <time>2007-05-21T06:51:16.130Z</time>
      </trkpt>
      <trkpt lat="43.83956" lon="7.91006">
        <ele>18</ele>
        <time>2007-05-21T06:52:07.130Z</time>
      </trkpt>
      <trkpt lat="43.83888" lon="7.90876">
        <ele>16.5</ele>
        <time>2007-05-21T06:52:53.130Z</time>
      </trkpt>
      <trkpt lat="43.83834" lon="7.90806">
        <ele>13</ele>
        <time>2007-05-21T06:53:23.130Z</time>
      </trkpt>
      <trkpt lat="43.83794" lon="7.90739">
        <ele>14.75</ele>
        <time>2007-05-21T06:53:49.130Z</time>
      </trkpt>
      <trkpt lat="43.83773" lon="7.90683">
        <ele>15</ele>
        <time>2007-05-21T06:54:07.130Z</time>
      </trkpt>
      <trkpt lat="43.83752" lon="7.90606">
        <ele>14.25</ele>
        <time>2007-05-21T06:54:30.130Z</time>
      </trkpt>
      <trkpt lat="43.83725" lon="7.90496">
        <ele>16.25</ele>
        <time>2007-05-21T06:55:04.130Z</time>
      </trkpt>
      <trkpt lat="43.83721" lon="7.90484">
        <ele>16.25</ele>
        <time>2007-05-21T06:55:08.130Z</time>
      </trkpt>
      <trkpt lat="43.83713" lon="7.90471">
        <ele>15.5</ele>
        <time>2007-05-21T06:55:13.130Z</time>
      </trkpt>
      <trkpt lat="43.83676" lon="7.90437">
        <ele>9.25</ele>
        <time>2007-05-21T06:55:30.130Z</time>
      </trkpt>
      <trkpt lat="43.83666" lon="7.90413">
        <ele>9.25</ele>
        <time>2007-05-21T06:55:39.130Z</time>
      </trkpt>
      <trkpt lat="43.83665" lon="7.90386">
        <ele>9.25</ele>
        <time>2007-05-21T06:55:46.130Z</time>
      </trkpt>
      <trkpt lat="43.83683" lon="7.90297">
        <ele>10</ele>
        <time>2007-05-21T06:56:13.130Z</time>
      </trkpt>
      <trkpt lat="43.8371" lon="7.90185">
        <ele>13.25</ele>
        <time>2007-05-21T06:56:47.130Z</time>
      </trkpt>
      <trkpt lat="43.83728" lon="7.90109">
        <ele>11.5</ele>
        <time>2007-05-21T06:57:11.130Z</time>
      </trkpt>
      <trkpt lat="43.83759" lon="7.90004">
        <ele>11</ele>
        <time>2007-05-21T06:57:43.130Z</time>
      </trkpt>
      <trkpt lat="43.83772" lon="7.89959">
        <ele>11.25</ele>
        <time>2007-05-21T06:57:57.130Z</time>
      </trkpt>
      <trkpt lat="43.83779" lon="7.89927">
        <ele>10.75</ele>
        <time>2007-05-21T06:58:07.130Z</time>
      </trkpt>
      <trkpt lat="43.83786" lon="7.89878">
        <ele>11.25</ele>
        <time>2007-05-21T06:58:21.130Z</time>
      </trkpt>
      <trkpt lat="43.838" lon="7.89752">
        <ele>13.5</ele>
        <time>2007-05-21T06:58:58.130Z</time>
      </trkpt>
      <trkpt lat="43.83808" lon="7.89695">
        <ele>13</ele>
        <time>2007-05-21T06:59:15.130Z</time>
      </trkpt>
      <trkpt lat="43.83815" lon="7.89623">
        <ele>13.5</ele>
        <time>2007-05-21T06:59:36.130Z</time>
      </trkpt>
      <trkpt lat="43.83827" lon="7.89493">
        <ele>16</ele>
        <time>2007-05-21T07:00:14.130Z</time>
      </trkpt>
      <trkpt lat="43.83845" lon="7.89348">
        <ele>13.5</ele>
        <time>2007-05-21T07:00:56.130Z</time>
      </trkpt>
      <trkpt lat="43.83848" lon="7.893">
        <ele>13</ele>
        <time>2007-05-21T07:01:10.130Z</time>
      </trkpt>
      <trkpt lat="43.83854" lon="7.8926">
        <ele>13</ele>
        <time>2007-05-21T07:01:22.130Z</time>
      </trkpt>
      <trkpt lat="43.83864" lon="7.89173">
        <ele>13.25</ele>
        <time>2007-05-21T07:01:47.130Z</time>
      </trkpt>
      <trkpt lat="43.83878" lon="7.89082">
        <ele>12.5</ele>
        <time>2007-05-21T07:02:14.130Z</time>
      </trkpt>
      <trkpt lat="43.8388" lon="7.89066">
        <ele>12.75</ele>
        <time>2007-05-21T07:02:19.130Z</time>
      </trkpt>
      <trkpt lat="43.8388" lon="7.89038">
        <ele>12.5</ele>
        <time>2007-05-21T07:02:27.130Z</time>
      </trkpt>
      <trkpt lat="43.83882" lon="7.89012">
        <ele>12.5</ele>
        <time>2007-05-21T07:02:35.130Z</time>
      </trkpt>
      <trkpt lat="43.83903" lon="7.88812">
        <ele>15.25</ele>
        <time>2007-05-21T07:03:33.130Z</time>
      </trkpt>
      <trkpt lat="43.83909" lon="7.88746">
        <ele>13.5</ele>
        <time>2007-05-21T07:03:53.130Z</time>
      </trkpt>
      <trkpt lat="43.83916" lon="7.88691">
        <ele>12.5</ele>
        <time>2007-05-21T07:04:08.130Z</time>
      </trkpt>
      <trkpt lat="43.83928" lon="7.88595">
        <ele>10.75</ele>
        <time>2007-05-21T07:04:37.130Z</time>
      </trkpt>
      <trkpt lat="43.8393" lon="7.88569">
        <ele>10.5</ele>
        <time>2007-05-21T07:04:44.130Z</time>
      </trkpt>
      <trkpt lat="43.83934" lon="7.8849">
        <ele>10.25</ele>
        <time>2007-05-21T07:05:07.130Z</time>
      </trkpt>
      <trkpt lat="43.83933" lon="7.88431">
        <ele>11.75</ele>
        <time>2007-05-21T07:05:24.130Z</time>
      </trkpt>
      <trkpt lat="43.8393" lon="7.88372">
        <ele>12.75</ele>
        <time>2007-05-21T07:05:41.130Z</time>
      </trkpt>
      <trkpt lat="43.83928" lon="7.88328">
        <ele>13.5</ele>
        <time>2007-05-21T07:05:54.130Z</time>
      </trkpt>
      <trkpt lat="43.83916" lon="7.88205">
        <ele>14.5</ele>
        <time>2007-05-21T07:06:30.130Z</time>
      </trkpt>
      <trkpt lat="43.83904" lon="7.88154">
        <ele>14.25</ele>
        <time>2007-05-21T07:06:45.130Z</time>
      </trkpt>
      <trkpt lat="43.83881" lon="7.88053">
        <ele>12.25</ele>
        <time>2007-05-21T07:07:16.130Z</time>
      </trkpt>
      <trkpt lat="43.83821" lon="7.87879">
        <ele>9</ele>
        <time>2007-05-21T07:08:12.130Z</time>
      </trkpt>
      <trkpt lat="43.83807" lon="7.87844">
        <ele>8.25</ele>
        <time>2007-05-21T07:08:23.130Z</time>
      </trkpt>
      <trkpt lat="43.838" lon="7.87827">
        <ele>8.5</ele>
        <time>2007-05-21T07:08:29.130Z</time>
      </trkpt>
      <trkpt lat="43.83725" lon="7.87638">
        <ele>11.75</ele>
        <time>2007-05-21T07:09:31.130Z</time>
      </trkpt>
      <trkpt lat="43.83692" lon="7.87538">
        <ele>12.5</ele>
        <time>2007-05-21T07:10:03.130Z</time>
      </trkpt>
      <trkpt lat="43.83668" lon="7.87445">
        <ele>11.25</ele>
        <time>2007-05-21T07:10:32.130Z</time>
      </trkpt>
      <trkpt lat="43.83651" lon="7.87354">
        <ele>8.5</ele>
        <time>2007-05-21T07:10:59.130Z</time>
      </trkpt>
      <trkpt lat="43.83649" lon="7.87345">
        <ele>8.25</ele>
        <time>2007-05-21T07:11:02.130Z</time>
      </trkpt>
      <trkpt lat="43.83646" lon="7.87333">
        <ele>8</ele>
        <time>2007-05-21T07:11:05.130Z</time>
      </trkpt>
      <trkpt lat="43.83643" lon="7.87321">
        <ele>8.25</ele>
        <time>2007-05-21T07:11:09.130Z</time>
      </trkpt>
      <trkpt lat="43.83641" lon="7.87311">
        <ele>8.5</ele>
        <time>2007-05-21T07:11:12.130Z</time>
      </trkpt>
      <trkpt lat="43.83615" lon="7.87189">
        <ele>10</ele>
        <time>2007-05-21T07:11:49.130Z</time>
      </trkpt>
      <trkpt lat="43.83541" lon="7.86848">
        <ele>6.75</ele>
        <time>2007-05-21T07:13:32.130Z</time>
      </trkpt>
      <trkpt lat="43.83514" lon="7.86723">
        <ele>5.75</ele>
        <time>2007-05-21T07:14:09.130Z</time>
      </trkpt>
      <trkpt lat="43.83489" lon="7.86609">
        <ele>4.75</ele>
        <time>2007-05-21T07:14:44.130Z</time>
      </trkpt>
      <trkpt lat="43.83428" lon="7.86328">
        <ele>3</ele>
        <time>2007-05-21T07:16:09.130Z</time>
      </trkpt>
      <trkpt lat="43.83424" lon="7.86309">
        <ele>3.25</ele>
        <time>2007-05-21T07:16:15.130Z</time>
      </trkpt>
      <trkpt lat="43.83356" lon="7.86026">
        <ele>3</ele>
        <time>2007-05-21T07:17:41.130Z</time>
      </trkpt>
      <trkpt lat="43.83332" lon="7.85914">
        <ele>3</ele>
        <time>2007-05-21T07:18:14.130Z</time>
      </trkpt>
      <trkpt lat="43.83315" lon="7.85813">
        <ele>4.75</ele>
        <time>2007-05-21T07:18:44.130Z</time>
      </trkpt>
      <trkpt lat="43.83305" lon="7.85731">
        <ele>5.25</ele>
        <time>2007-05-21T07:19:08.130Z</time>
      </trkpt>
      <trkpt lat="43.83282" lon="7.85618">
        <ele>7.75</ele>
        <time>2007-05-21T07:19:41.947Z</time>
      </trkpt>
      <trkpt lat="43.83282" lon="7.85618">
        <ele>7.75</ele>
        <time>2007-05-21T07:19:41.995Z</time>
      </trkpt>
      <trkpt lat="43.83278" lon="7.85616">
        <ele>7.75</ele>
        <time>2007-05-21T07:19:43.762Z</time>
      </trkpt>
      <trkpt lat="43.83271" lon="7.85618">
        <ele>7.5</ele>
        <time>2007-05-21T07:19:46.627Z</time>
      </trkpt>
      <trkpt lat="43.8326" lon="7.85617">
        <ele>7.25</ele>
        <time>2007-05-21T07:19:50.997Z</time>
      </trkpt>
      <trkpt lat="43.83248" lon="7.85614">
        <ele>7.25</ele>
        <time>2007-05-21T07:19:55.719Z</time>
      </trkpt>
      <trkpt lat="43.83248" lon="7.85614">
        <ele>7.25</ele>
        <time>2007-05-21T07:19:55.719Z</time>
      </trkpt>
      <trkpt lat="43.8324" lon="7.85565">
        <ele>8.5</ele>
        <time>2007-05-21T07:20:10.449Z</time>
      </trkpt>
      <trkpt lat="43.83241" lon="7.85559">
        <ele>8.5</ele>
        <time>2007-05-21T07:20:12.096Z</time>
      </trkpt>
      <trkpt lat="43.83244" lon="7.85553">
        <ele>8.75</ele>
        <time>2007-05-21T07:20:14.136Z</time>
      </trkpt>
      <trkpt lat="43.83246" lon="7.85552">
        <ele>8.75</ele>
        <time>2007-05-21T07:20:14.939Z</time>
      </trkpt>
      <trkpt lat="43.8325" lon="7.85551">
        <ele>8.75</ele>
        <time>2007-05-21T07:20:16.573Z</time>
      </trkpt>
      <trkpt lat="43.83249" lon="7.85545">
        <ele>8.75</ele>
        <time>2007-05-21T07:20:18.259Z</time>
      </trkpt>
      <trkpt lat="43.83248" lon="7.8554">
        <ele>9</ele>
        <time>2007-05-21T07:20:19.867Z</time>
      </trkpt>
      <trkpt lat="43.83243" lon="7.85542">
        <ele>9</ele>
        <time>2007-05-21T07:20:21.785Z</time>
      </trkpt>
      <trkpt lat="43.8324" lon="7.85541">
        <ele>9</ele>
        <time>2007-05-21T07:20:22.918Z</time>
      </trkpt>
      <trkpt lat="43.83237" lon="7.85535">
        <ele>9</ele>
        <time>2007-05-21T07:20:25.270Z</time>
      </trkpt>
      <trkpt lat="43.83236" lon="7.85533">
        <ele>8.75</ele>
        <time>2007-05-21T07:20:25.963Z</time>
      </trkpt>
      <trkpt lat="43.83236" lon="7.85533">
        <ele>8.75</ele>
        <time>2007-05-21T07:20:26.011Z</time>
      </trkpt>
      <trkpt lat="43.83219" lon="7.85434">
        <ele>8.75</ele>
        <time>2007-05-21T07:20:58.538Z</time>
      </trkpt>
      <trkpt lat="43.83219" lon="7.85422">
        <ele>8.5</ele>
        <time>2007-05-21T07:21:02.138Z</time>
      </trkpt>
      <trkpt lat="43.83209" lon="7.85367">
        <ele>9.5</ele>
        <time>2007-05-21T07:21:18.519Z</time>
      </trkpt>
      <trkpt lat="43.83204" lon="7.85351">
        <ele>9.75</ele>
        <time>2007-05-21T07:21:23.523Z</time>
      </trkpt>
      <trkpt lat="43.83199" lon="7.85349">
        <ele>9.75</ele>
        <time>2007-05-21T07:21:25.527Z</time>
      </trkpt>
      <trkpt lat="43.83193" lon="7.85312">
        <ele>10</ele>
        <time>2007-05-21T07:21:36.621Z</time>
      </trkpt>
      <trkpt lat="43.83195" lon="7.85306">
        <ele>10</ele>
        <time>2007-05-21T07:21:38.625Z</time>
      </trkpt>
      <trkpt lat="43.83199" lon="7.85302">
        <ele>10.25</ele>
        <time>2007-05-21T07:21:40.428Z</time>
      </trkpt>
      <trkpt lat="43.83205" lon="7.853">
        <ele>10.25</ele>
        <time>2007-05-21T07:21:43.086Z</time>
      </trkpt>
      <trkpt lat="43.83208" lon="7.85296">
        <ele>10.25</ele>
        <time>2007-05-21T07:21:44.814Z</time>
      </trkpt>
      <trkpt lat="43.83201" lon="7.85258">
        <ele>10.5</ele>
        <time>2007-05-21T07:21:56.165Z</time>
      </trkpt>
      <trkpt lat="43.83186" lon="7.85188">
        <ele>11.5</ele>
        <time>2007-05-21T07:22:17.314Z</time>
      </trkpt>
      <trkpt lat="43.83184" lon="7.85176">
        <ele>11.75</ele>
        <time>2007-05-21T07:22:20.797Z</time>
      </trkpt>
      <trkpt lat="43.83183" lon="7.8517">
        <ele>11.75</ele>
        <time>2007-05-21T07:22:22.527Z</time>
      </trkpt>
      <trkpt lat="43.83175" lon="7.85127">
        <ele>11.5</ele>
        <time>2007-05-21T07:22:35.363Z</time>
      </trkpt>
      <trkpt lat="43.83165" lon="7.8508">
        <ele>11</ele>
        <time>2007-05-21T07:22:49.689Z</time>
      </trkpt>
      <trkpt lat="43.83165" lon="7.8508">
        <ele>11</ele>
        <time>2007-05-21T07:22:49.689Z</time>
      </trkpt>
      <trkpt lat="43.83155" lon="7.85042">
        <ele>11</ele>
        <time>2007-05-21T07:22:53.130Z</time>
      </trkpt>
      <trkpt lat="43.83142" lon="7.85028">
        <ele>10.75</ele>
        <time>2007-05-21T07:23:00.130Z</time>
      </trkpt>
      <trkpt lat="43.83128" lon="7.8499">
        <ele>10.75</ele>
        <time>2007-05-21T07:23:12.130Z</time>
      </trkpt>
      <trkpt lat="43.83124" lon="7.8498">
        <ele>11</ele>
        <time>2007-05-21T07:23:15.130Z</time>
      </trkpt>
      <trkpt lat="43.83118" lon="7.84966">
        <ele>11</ele>
        <time>2007-05-21T07:23:20.130Z</time>
      </trkpt>
      <trkpt lat="43.83104" lon="7.84936">
        <ele>11.25</ele>
        <time>2007-05-21T07:23:31.130Z</time>
      </trkpt>
      <trkpt lat="43.83089" lon="7.84911">
        <ele>11.25</ele>
        <time>2007-05-21T07:23:40.130Z</time>
      </trkpt>
      <trkpt lat="43.83083" lon="7.849">
        <ele>11</ele>
        <time>2007-05-21T07:23:44.130Z</time>
      </trkpt>
      <trkpt lat="43.83076" lon="7.84887">
        <ele>10.75</ele>
        <time>2007-05-21T07:23:49.130Z</time>
      </trkpt>
      <trkpt lat="43.83067" lon="7.84868">
        <ele>10.5</ele>
        <time>2007-05-21T07:23:55.130Z</time>
      </trkpt>
      <trkpt lat="43.82975" lon="7.84716">
        <ele>20.5</ele>
        <time>2007-05-21T07:24:53.130Z</time>
      </trkpt>
      <trkpt lat="43.82904" lon="7.84595">
        <ele>24</ele>
        <time>2007-05-21T07:25:38.130Z</time>
      </trkpt>
      <trkpt lat="43.82902" lon="7.84592">
        <ele>24</ele>
        <time>2007-05-21T07:25:39.130Z</time>
      </trkpt>
      <trkpt lat="43.82844" lon="7.84499">
        <ele>21.5</ele>
        <time>2007-05-21T07:26:14.130Z</time>
      </trkpt>
      <trkpt lat="43.82771" lon="7.84376">
        <ele>21</ele>
        <time>2007-05-21T07:27:00.130Z</time>
      </trkpt>
      <trkpt lat="43.82715" lon="7.84284">
        <ele>19.25</ele>
        <time>2007-05-21T07:27:35.130Z</time>
      </trkpt>
      <trkpt lat="43.82691" lon="7.84242">
        <ele>16.25</ele>
        <time>2007-05-21T07:27:50.130Z</time>
      </trkpt>
      <trkpt lat="43.82659" lon="7.84192">
        <ele>13</ele>
        <time>2007-05-21T07:28:10.130Z</time>
      </trkpt>
      <trkpt lat="43.82635" lon="7.84161">
        <ele>13.25</ele>
        <time>2007-05-21T07:28:23.130Z</time>
      </trkpt>
      <trkpt lat="43.8262" lon="7.84145">
        <ele>13.5</ele>
        <time>2007-05-21T07:28:31.130Z</time>
      </trkpt>
      <trkpt lat="43.82595" lon="7.8412">
        <ele>13.5</ele>
        <time>2007-05-21T07:28:43.130Z</time>
      </trkpt>
      <trkpt lat="43.82516" lon="7.84068">
        <ele>14</ele>
        <time>2007-05-21T07:29:18.130Z</time>
      </trkpt>
      <trkpt lat="43.82497" lon="7.84055">
        <ele>14.5</ele>
        <time>2007-05-21T07:29:27.130Z</time>
      </trkpt>
      <trkpt lat="43.82469" lon="7.84044">
        <ele>16</ele>
        <time>2007-05-21T07:29:38.130Z</time>
      </trkpt>
      <trkpt lat="43.82442" lon="7.84035">
        <ele>17.5</ele>
        <time>2007-05-21T07:29:50.130Z</time>
      </trkpt>
      <trkpt lat="43.82376" lon="7.84024">
        <ele>20.5</ele>
        <time>2007-05-21T07:30:16.130Z</time>
      </trkpt>
      <trkpt lat="43.82363" lon="7.84021">
        <ele>20.5</ele>
        <time>2007-05-21T07:30:21.130Z</time>
      </trkpt>
      <trkpt lat="43.82312" lon="7.84011">
        <ele>21</ele>
        <time>2007-05-21T07:30:42.130Z</time>
      </trkpt>
      <trkpt lat="43.82299" lon="7.84009">
        <ele>20.25</ele>
        <time>2007-05-21T07:30:47.130Z</time>
      </trkpt>
      <trkpt lat="43.82279" lon="7.84002">
        <ele>19.5</ele>
        <time>2007-05-21T07:30:56.130Z</time>
      </trkpt>
      <trkpt lat="43.82252" lon="7.83989">
        <ele>19.25</ele>
        <time>2007-05-21T07:31:07.130Z</time>
      </trkpt>
      <trkpt lat="43.82222" lon="7.83971">
        <ele>20.75</ele>
        <time>2007-05-21T07:31:20.130Z</time>
      </trkpt>
      <trkpt lat="43.82195" lon="7.83952">
        <ele>20.25</ele>
        <time>2007-05-21T07:31:32.130Z</time>
      </trkpt>
      <trkpt lat="43.82168" lon="7.8393">
        <ele>17</ele>
        <time>2007-05-21T07:31:45.130Z</time>
      </trkpt>
      <trkpt lat="43.8215" lon="7.83911">
        <ele>15</ele>
        <time>2007-05-21T07:31:54.130Z</time>
      </trkpt>
      <trkpt lat="43.8214" lon="7.83897">
        <ele>14</ele>
        <time>2007-05-21T07:32:00.130Z</time>
      </trkpt>
      <trkpt lat="43.82104" lon="7.83853">
        <ele>9.75</ele>
        <time>2007-05-21T07:32:19.130Z</time>
      </trkpt>
      <trkpt lat="43.82096" lon="7.83842">
        <ele>8.75</ele>
        <time>2007-05-21T07:32:23.130Z</time>
      </trkpt>
      <trkpt lat="43.82084" lon="7.83822">
        <ele>7.25</ele>
        <time>2007-05-21T07:32:31.130Z</time>
      </trkpt>
      <trkpt lat="43.82074" lon="7.83805">
        <ele>7.75</ele>
        <time>2007-05-21T07:32:37.130Z</time>
      </trkpt>
      <trkpt lat="43.82034" lon="7.83729">
        <ele>8.25</ele>
        <time>2007-05-21T07:33:04.130Z</time>
      </trkpt>
      <trkpt lat="43.82023" lon="7.83706">
        <ele>8.25</ele>
        <time>2007-05-21T07:33:12.130Z</time>
      </trkpt>
      <trkpt lat="43.82017" lon="7.83696">
        <ele>8.25</ele>
        <time>2007-05-21T07:33:16.130Z</time>
      </trkpt>
      <trkpt lat="43.81967" lon="7.83616">
        <ele>10.25</ele>
        <time>2007-05-21T07:33:47.130Z</time>
      </trkpt>
      <trkpt lat="43.81929" lon="7.83574">
        <ele>12.5</ele>
        <time>2007-05-21T07:34:06.130Z</time>
      </trkpt>
      <trkpt lat="43.81891" lon="7.83545">
        <ele>13.75</ele>
        <time>2007-05-21T07:34:23.130Z</time>
      </trkpt>
      <trkpt lat="43.81888" lon="7.83543">
        <ele>13.5</ele>
        <time>2007-05-21T07:34:25.130Z</time>
      </trkpt>
      <trkpt lat="43.81887" lon="7.83542">
        <ele>13.75</ele>
        <time>2007-05-21T07:34:25.130Z</time>
      </trkpt>
      <trkpt lat="43.81873" lon="7.83531">
        <ele>13.75</ele>
        <time>2007-05-21T07:34:32.130Z</time>
      </trkpt>
      <trkpt lat="43.8182" lon="7.83471">
        <ele>16.75</ele>
        <time>2007-05-21T07:34:59.130Z</time>
      </trkpt>
      <trkpt lat="43.8178" lon="7.83416">
        <ele>17.75</ele>
        <time>2007-05-21T07:35:22.130Z</time>
      </trkpt>
      <trkpt lat="43.8172" lon="7.83292">
        <ele>20.75</ele>
        <time>2007-05-21T07:36:05.130Z</time>
      </trkpt>
      <trkpt lat="43.81716" lon="7.83276">
        <ele>21.5</ele>
        <time>2007-05-21T07:36:10.130Z</time>
      </trkpt>
      <trkpt lat="43.8171" lon="7.83253">
        <ele>21.5</ele>
        <time>2007-05-21T07:36:17.130Z</time>
      </trkpt>
      <trkpt lat="43.81656" lon="7.83142">
        <ele>21.5</ele>
        <time>2007-05-21T07:36:56.130Z</time>
      </trkpt>
      <trkpt lat="43.81647" lon="7.8307">
        <ele>21.5</ele>
        <time>2007-05-21T07:37:17.130Z</time>
      </trkpt>
      <trkpt lat="43.81647" lon="7.83064">
        <ele>21.5</ele>
        <time>2007-05-21T07:37:18.130Z</time>
      </trkpt>
      <trkpt lat="43.81649" lon="7.83055">
        <ele>21.5</ele>
        <time>2007-05-21T07:37:21.130Z</time>
      </trkpt>
      <trkpt lat="43.81687" lon="7.82903">
        <ele>21.5</ele>
        <time>2007-05-21T07:38:08.130Z</time>
      </trkpt>
      <trkpt lat="43.81705" lon="7.82864">
        <ele>21.5</ele>
        <time>2007-05-21T07:38:21.130Z</time>
      </trkpt>
      <trkpt lat="43.8171" lon="7.82851">
        <ele>21.25</ele>
        <time>2007-05-21T07:38:25.130Z</time>
      </trkpt>
      <trkpt lat="43.81715" lon="7.82832">
        <ele>20.75</ele>
        <time>2007-05-21T07:38:31.130Z</time>
      </trkpt>
      <trkpt lat="43.81725" lon="7.82801">
        <ele>19.75</ele>
        <time>2007-05-21T07:38:41.130Z</time>
      </trkpt>
      <trkpt lat="43.8174" lon="7.82765">
        <ele>18.5</ele>
        <time>2007-05-21T07:38:53.130Z</time>
      </trkpt>
      <trkpt lat="43.81765" lon="7.82714">
        <ele>18</ele>
        <time>2007-05-21T07:39:11.130Z</time>
      </trkpt>
      <trkpt lat="43.81795" lon="7.82658">
        <ele>17.25</ele>
        <time>2007-05-21T07:39:31.130Z</time>
      </trkpt>
      <trkpt lat="43.81818" lon="7.8261">
        <ele>17</ele>
        <time>2007-05-21T07:39:48.130Z</time>
      </trkpt>
      <trkpt lat="43.81824" lon="7.82596">
        <ele>16.5</ele>
        <time>2007-05-21T07:39:52.130Z</time>
      </trkpt>
      <trkpt lat="43.81831" lon="7.82571">
        <ele>15.5</ele>
        <time>2007-05-21T07:40:00.130Z</time>
      </trkpt>
      <trkpt lat="43.81836" lon="7.82559">
        <ele>15.75</ele>
        <time>2007-05-21T07:40:04.130Z</time>
      </trkpt>
      <trkpt lat="43.8186" lon="7.82481">
        <ele>16.5</ele>
        <time>2007-05-21T07:40:29.130Z</time>
      </trkpt>
      <trkpt lat="43.81872" lon="7.82436">
        <ele>15.75</ele>
        <time>2007-05-21T07:40:42.130Z</time>
      </trkpt>
      <trkpt lat="43.81875" lon="7.82429">
        <ele>15.75</ele>
        <time>2007-05-21T07:40:45.130Z</time>
      </trkpt>
      <trkpt lat="43.81887" lon="7.82391">
        <ele>15.75</ele>
        <time>2007-05-21T07:40:57.130Z</time>
      </trkpt>
      <trkpt lat="43.81899" lon="7.82362">
        <ele>15.75</ele>
        <time>2007-05-21T07:41:06.130Z</time>
      </trkpt>
      <trkpt lat="43.81921" lon="7.82311">
        <ele>13</ele>
        <time>2007-05-21T07:41:24.130Z</time>
      </trkpt>
      <trkpt lat="43.81929" lon="7.82295">
        <ele>13.25</ele>
        <time>2007-05-21T07:41:29.130Z</time>
      </trkpt>
      <trkpt lat="43.81982" lon="7.82195">
        <ele>15</ele>
        <time>2007-05-21T07:42:05.130Z</time>
      </trkpt>
      <trkpt lat="43.81999" lon="7.82159">
        <ele>15</ele>
        <time>2007-05-21T07:42:18.130Z</time>
      </trkpt>
      <trkpt lat="43.82029" lon="7.82089">
        <ele>17.75</ele>
        <time>2007-05-21T07:42:41.130Z</time>
      </trkpt>
      <trkpt lat="43.82038" lon="7.82066">
        <ele>19.5</ele>
        <time>2007-05-21T07:42:49.130Z</time>
      </trkpt>
      <trkpt lat="43.82041" lon="7.82057">
        <ele>20</ele>
        <time>2007-05-21T07:42:52.130Z</time>
      </trkpt>
      <trkpt lat="43.82052" lon="7.82032">
        <ele>22.5</ele>
        <time>2007-05-21T07:43:00.130Z</time>
      </trkpt>
      <trkpt lat="43.82061" lon="7.82008">
        <ele>24.25</ele>
        <time>2007-05-21T07:43:08.130Z</time>
      </trkpt>
      <trkpt lat="43.82131" lon="7.81819">
        <ele>24.25</ele>
        <time>2007-05-21T07:44:09.130Z</time>
      </trkpt>
      <trkpt lat="43.82142" lon="7.81793">
        <ele>24.25</ele>
        <time>2007-05-21T07:44:18.130Z</time>
      </trkpt>
      <trkpt lat="43.82155" lon="7.81755">
        <ele>24.25</ele>
        <time>2007-05-21T07:44:30.130Z</time>
      </trkpt>
      <trkpt lat="43.82158" lon="7.81743">
        <ele>24.25</ele>
        <time>2007-05-21T07:44:34.130Z</time>
      </trkpt>
      <trkpt lat="43.82171" lon="7.81698">
        <ele>13.25</ele>
        <time>2007-05-21T07:44:48.130Z</time>
      </trkpt>
      <trkpt lat="43.82183" lon="7.81653">
        <ele>13.25</ele>
        <time>2007-05-21T07:45:02.130Z</time>
      </trkpt>
      <trkpt lat="43.82187" lon="7.81643">
        <ele>14</ele>
        <time>2007-05-21T07:45:05.130Z</time>
      </trkpt>
      <trkpt lat="43.82211" lon="7.81549">
        <ele>14</ele>
        <time>2007-05-21T07:45:34.130Z</time>
      </trkpt>
      <trkpt lat="43.82215" lon="7.81532">
        <ele>14</ele>
        <time>2007-05-21T07:45:39.130Z</time>
      </trkpt>
      <trkpt lat="43.82237" lon="7.81426">
        <ele>14</ele>
        <time>2007-05-21T07:46:11.130Z</time>
      </trkpt>
      <trkpt lat="43.82244" lon="7.81374">
        <ele>14</ele>
        <time>2007-05-21T07:46:26.130Z</time>
      </trkpt>
      <trkpt lat="43.82247" lon="7.81364">
        <ele>14</ele>
        <time>2007-05-21T07:46:29.130Z</time>
      </trkpt>
      <trkpt lat="43.8226" lon="7.81252">
        <ele>11.25</ele>
        <time>2007-05-21T07:47:02.130Z</time>
      </trkpt>
      <trkpt lat="43.82284" lon="7.81059">
        <ele>14</ele>
        <time>2007-05-21T07:47:59.130Z</time>
      </trkpt>
      <trkpt lat="43.82299" lon="7.80948">
        <ele>12</ele>
        <time>2007-05-21T07:48:31.130Z</time>
      </trkpt>
      <trkpt lat="43.82306" lon="7.80893">
        <ele>12.5</ele>
        <time>2007-05-21T07:48:48.130Z</time>
      </trkpt>
      <trkpt lat="43.82309" lon="7.80873">
        <ele>13.5</ele>
        <time>2007-05-21T07:48:53.130Z</time>
      </trkpt>
      <trkpt lat="43.82313" lon="7.80834">
        <ele>15</ele>
        <time>2007-05-21T07:49:05.130Z</time>
      </trkpt>
      <trkpt lat="43.82317" lon="7.80809">
        <ele>15</ele>
        <time>2007-05-21T07:49:12.130Z</time>
      </trkpt>
      <trkpt lat="43.82334" lon="7.80674">
        <ele>12.25</ele>
        <time>2007-05-21T07:49:52.130Z</time>
      </trkpt>
      <trkpt lat="43.82336" lon="7.80663">
        <ele>12.25</ele>
        <time>2007-05-21T07:49:55.130Z</time>
      </trkpt>
      <trkpt lat="43.82338" lon="7.80649">
        <ele>12.5</ele>
        <time>2007-05-21T07:49:59.130Z</time>
      </trkpt>
      <trkpt lat="43.82341" lon="7.80617">
        <ele>12.75</ele>
        <time>2007-05-21T07:50:09.130Z</time>
      </trkpt>
      <trkpt lat="43.82344" lon="7.80582">
        <ele>13</ele>
        <time>2007-05-21T07:50:19.130Z</time>
      </trkpt>
      <trkpt lat="43.82345" lon="7.80567">
        <ele>14.25</ele>
        <time>2007-05-21T07:50:23.130Z</time>
      </trkpt>
      <trkpt lat="43.82346" lon="7.80529">
        <ele>16.5</ele>
        <time>2007-05-21T07:50:34.130Z</time>
      </trkpt>
      <trkpt lat="43.82345" lon="7.80498">
        <ele>18</ele>
        <time>2007-05-21T07:50:43.130Z</time>
      </trkpt>
      <trkpt lat="43.82344" lon="7.80462">
        <ele>16.5</ele>
        <time>2007-05-21T07:50:54.130Z</time>
      </trkpt>
      <trkpt lat="43.82339" lon="7.8042">
        <ele>14</ele>
        <time>2007-05-21T07:51:06.130Z</time>
      </trkpt>
      <trkpt lat="43.82332" lon="7.80379">
        <ele>14</ele>
        <time>2007-05-21T07:51:18.130Z</time>
      </trkpt>
      <trkpt lat="43.82321" lon="7.80318">
        <ele>12.5</ele>
        <time>2007-05-21T07:51:36.130Z</time>
      </trkpt>
      <trkpt lat="43.82316" lon="7.80299">
        <ele>12.25</ele>
        <time>2007-05-21T07:51:42.130Z</time>
      </trkpt>
      <trkpt lat="43.82315" lon="7.80294">
        <ele>12</ele>
        <time>2007-05-21T07:51:44.130Z</time>
      </trkpt>
      <trkpt lat="43.82314" lon="7.80293">
        <ele>12</ele>
        <time>2007-05-21T07:51:44.130Z</time>
      </trkpt>
      <trkpt lat="43.82313" lon="7.80287">
        <ele>11.75</ele>
        <time>2007-05-21T07:51:46.130Z</time>
      </trkpt>
      <trkpt lat="43.82304" lon="7.80261">
        <ele>11</ele>
        <time>2007-05-21T07:51:54.130Z</time>
      </trkpt>
      <trkpt lat="43.82284" lon="7.80211">
        <ele>9.25</ele>
        <time>2007-05-21T07:52:11.130Z</time>
      </trkpt>
      <trkpt lat="43.82265" lon="7.80169">
        <ele>8.5</ele>
        <time>2007-05-21T07:52:25.130Z</time>
      </trkpt>
      <trkpt lat="43.8225" lon="7.80139">
        <ele>9.5</ele>
        <time>2007-05-21T07:52:35.130Z</time>
      </trkpt>
      <trkpt lat="43.82231" lon="7.80109">
        <ele>9.5</ele>
        <time>2007-05-21T07:52:47.130Z</time>
      </trkpt>
      <trkpt lat="43.82214" lon="7.80075">
        <ele>9</ele>
        <time>2007-05-21T07:52:59.130Z</time>
      </trkpt>
      <trkpt lat="43.82199" lon="7.80049">
        <ele>7.5</ele>
        <time>2007-05-21T07:53:09.130Z</time>
      </trkpt>
      <trkpt lat="43.82184" lon="7.80022">
        <ele>6.25</ele>
        <time>2007-05-21T07:53:19.130Z</time>
      </trkpt>
      <trkpt lat="43.82175" lon="7.80006">
        <ele>5.5</ele>
        <time>2007-05-21T07:53:24.130Z</time>
      </trkpt>
      <trkpt lat="43.82147" lon="7.79959">
        <ele>6</ele>
        <time>2007-05-21T07:53:42.130Z</time>
      </trkpt>
      <trkpt lat="43.82102" lon="7.79873">
        <ele>5.5</ele>
        <time>2007-05-21T07:54:13.130Z</time>
      </trkpt>
      <trkpt lat="43.82074" lon="7.79812">
        <ele>6</ele>
        <time>2007-05-21T07:54:34.130Z</time>
      </trkpt>
      <trkpt lat="43.82061" lon="7.79772">
        <ele>6.75</ele>
        <time>2007-05-21T07:54:47.130Z</time>
      </trkpt>
      <trkpt lat="43.82051" lon="7.79736">
        <ele>7.5</ele>
        <time>2007-05-21T07:54:57.130Z</time>
      </trkpt>
      <trkpt lat="43.82042" lon="7.79694">
        <ele>8.25</ele>
        <time>2007-05-21T07:55:10.130Z</time>
      </trkpt>
      <trkpt lat="43.82034" lon="7.7965">
        <ele>8.5</ele>
        <time>2007-05-21T07:55:23.130Z</time>
      </trkpt>
      <trkpt lat="43.8203" lon="7.79612">
        <ele>7.25</ele>
        <time>2007-05-21T07:55:34.130Z</time>
      </trkpt>
      <trkpt lat="43.82027" lon="7.79572">
        <ele>6.5</ele>
        <time>2007-05-21T07:55:46.130Z</time>
      </trkpt>
      <trkpt lat="43.82027" lon="7.79551">
        <ele>6.5</ele>
        <time>2007-05-21T07:55:52.130Z</time>
      </trkpt>
      <trkpt lat="43.82028" lon="7.79481">
        <ele>7</ele>
        <time>2007-05-21T07:56:12.130Z</time>
      </trkpt>
      <trkpt lat="43.8203" lon="7.79453">
        <ele>7.5</ele>
        <time>2007-05-21T07:56:20.130Z</time>
      </trkpt>
      <trkpt lat="43.82036" lon="7.79404">
        <ele>8.5</ele>
        <time>2007-05-21T07:56:35.130Z</time>
      </trkpt>
      <trkpt lat="43.82042" lon="7.79369">
        <ele>9.25</ele>
        <time>2007-05-21T07:56:45.130Z</time>
      </trkpt>
      <trkpt lat="43.82059" lon="7.7929">
        <ele>11.25</ele>
        <time>2007-05-21T07:57:09.130Z</time>
      </trkpt>
      <trkpt lat="43.82066" lon="7.79257">
        <ele>11.75</ele>
        <time>2007-05-21T07:57:19.130Z</time>
      </trkpt>
      <trkpt lat="43.82071" lon="7.79227">
        <ele>12</ele>
        <time>2007-05-21T07:57:28.130Z</time>
      </trkpt>
      <trkpt lat="43.82077" lon="7.79165">
        <ele>12</ele>
        <time>2007-05-21T07:57:46.130Z</time>
      </trkpt>
      <trkpt lat="43.82079" lon="7.79135">
        <ele>11.5</ele>
        <time>2007-05-21T07:57:55.130Z</time>
      </trkpt>
      <trkpt lat="43.82079" lon="7.79103">
        <ele>10.75</ele>
        <time>2007-05-21T07:58:04.130Z</time>
      </trkpt>
      <trkpt lat="43.82077" lon="7.79049">
        <ele>9.75</ele>
        <time>2007-05-21T07:58:20.130Z</time>
      </trkpt>
      <trkpt lat="43.8207" lon="7.78987">
        <ele>8.5</ele>
        <time>2007-05-21T07:58:38.130Z</time>
      </trkpt>
      <trkpt lat="43.82063" lon="7.78948">
        <ele>8.5</ele>
        <time>2007-05-21T07:58:49.130Z</time>
      </trkpt>
      <trkpt lat="43.82055" lon="7.7891">
        <ele>8.25</ele>
        <time>2007-05-21T07:59:01.130Z</time>
      </trkpt>
      <trkpt lat="43.82043" lon="7.78834">
        <ele>7.5</ele>
        <time>2007-05-21T07:59:23.130Z</time>
      </trkpt>
      <trkpt lat="43.8203" lon="7.78754">
        <ele>7.25</ele>
        <time>2007-05-21T07:59:47.130Z</time>
      </trkpt>
      <trkpt lat="43.82017" lon="7.78683">
        <ele>8.25</ele>
        <time>2007-05-21T08:00:08.130Z</time>
      </trkpt>
      <trkpt lat="43.81988" lon="7.78515">
        <ele>8.25</ele>
        <time>2007-05-21T08:00:58.130Z</time>
      </trkpt>
      <trkpt lat="43.81977" lon="7.78448">
        <ele>13</ele>
        <time>2007-05-21T08:01:18.130Z</time>
      </trkpt>
      <trkpt lat="43.81959" lon="7.78348">
        <ele>13.25</ele>
        <time>2007-05-21T08:01:48.130Z</time>
      </trkpt>
      <trkpt lat="43.81952" lon="7.78317">
        <ele>13.25</ele>
        <time>2007-05-21T08:01:57.130Z</time>
      </trkpt>
      <trkpt lat="43.81934" lon="7.78254">
        <ele>13.5</ele>
        <time>2007-05-21T08:02:17.130Z</time>
      </trkpt>
      <trkpt lat="43.81928" lon="7.78238">
        <ele>13.75</ele>
        <time>2007-05-21T08:02:22.130Z</time>
      </trkpt>
      <trkpt lat="43.81917" lon="7.78211">
        <ele>14.25</ele>
        <time>2007-05-21T08:02:31.130Z</time>
      </trkpt>
      <trkpt lat="43.81905" lon="7.78184">
        <ele>14.25</ele>
        <time>2007-05-21T08:02:40.130Z</time>
      </trkpt>
      <trkpt lat="43.81886" lon="7.78146">
        <ele>15.5</ele>
        <time>2007-05-21T08:02:54.130Z</time>
      </trkpt>
      <trkpt lat="43.81874" lon="7.78127">
        <ele>15.75</ele>
        <time>2007-05-21T08:03:01.130Z</time>
      </trkpt>
      <trkpt lat="43.8187" lon="7.78119">
        <ele>15.75</ele>
        <time>2007-05-21T08:03:04.130Z</time>
      </trkpt>
      <trkpt lat="43.81859" lon="7.78104">
        <ele>16</ele>
        <time>2007-05-21T08:03:10.130Z</time>
      </trkpt>
      <trkpt lat="43.81837" lon="7.78074">
        <ele>16.25</ele>
        <time>2007-05-21T08:03:22.130Z</time>
      </trkpt>
      <trkpt lat="43.81819" lon="7.78053">
        <ele>15.5</ele>
        <time>2007-05-21T08:03:32.130Z</time>
      </trkpt>
      <trkpt lat="43.81799" lon="7.78033">
        <ele>14.75</ele>
        <time>2007-05-21T08:03:41.130Z</time>
      </trkpt>
      <trkpt lat="43.81791" lon="7.78026">
        <ele>14.5</ele>
        <time>2007-05-21T08:03:45.130Z</time>
      </trkpt>
      <trkpt lat="43.81765" lon="7.78004">
        <ele>13.75</ele>
        <time>2007-05-21T08:03:57.130Z</time>
      </trkpt>
      <trkpt lat="43.81736" lon="7.77982">
        <ele>12</ele>
        <time>2007-05-21T08:04:11.130Z</time>
      </trkpt>
      <trkpt lat="43.81696" lon="7.77953">
        <ele>10.75</ele>
        <time>2007-05-21T08:04:29.130Z</time>
      </trkpt>
      <trkpt lat="43.81668" lon="7.77932">
        <ele>10.75</ele>
        <time>2007-05-21T08:04:42.130Z</time>
      </trkpt>
      <trkpt lat="43.81662" lon="7.77926">
        <ele>10</ele>
        <time>2007-05-21T08:04:45.130Z</time>
      </trkpt>
      <trkpt lat="43.81643" lon="7.77907">
        <ele>9</ele>
        <time>2007-05-21T08:04:54.130Z</time>
      </trkpt>
      <trkpt lat="43.81631" lon="7.77894">
        <ele>8.75</ele>
        <time>2007-05-21T08:05:00.130Z</time>
      </trkpt>
      <trkpt lat="43.81628" lon="7.77891">
        <ele>8.75</ele>
        <time>2007-05-21T08:05:01.130Z</time>
      </trkpt>
      <trkpt lat="43.81627" lon="7.7789">
        <ele>8.75</ele>
        <time>2007-05-21T08:05:02.130Z</time>
      </trkpt>
      <trkpt lat="43.81605" lon="7.77868">
        <ele>9.25</ele>
        <time>2007-05-21T08:05:13.130Z</time>
      </trkpt>
      <trkpt lat="43.81578" lon="7.77837">
        <ele>11</ele>
        <time>2007-05-21T08:05:27.130Z</time>
      </trkpt>
      <trkpt lat="43.81544" lon="7.77795">
        <ele>9.5</ele>
        <time>2007-05-21T08:05:45.130Z</time>
      </trkpt>
      <trkpt lat="43.81528" lon="7.77771">
        <ele>9</ele>
        <time>2007-05-21T08:05:55.130Z</time>
      </trkpt>
      <trkpt lat="43.81508" lon="7.77739">
        <ele>9</ele>
        <time>2007-05-21T08:06:07.130Z</time>
      </trkpt>
      <trkpt lat="43.81502" lon="7.77728">
        <ele>9.5</ele>
        <time>2007-05-21T08:06:11.130Z</time>
      </trkpt>
      <trkpt lat="43.81493" lon="7.77709">
        <ele>10.5</ele>
        <time>2007-05-21T08:06:17.130Z</time>
      </trkpt>
      <trkpt lat="43.81484" lon="7.7769">
        <ele>11.5</ele>
        <time>2007-05-21T08:06:24.130Z</time>
      </trkpt>
      <trkpt lat="43.81474" lon="7.77664">
        <ele>12.5</ele>
        <time>2007-05-21T08:06:33.130Z</time>
      </trkpt>
      <trkpt lat="43.81464" lon="7.77638">
        <ele>12</ele>
        <time>2007-05-21T08:06:41.130Z</time>
      </trkpt>
      <trkpt lat="43.81454" lon="7.77607">
        <ele>11</ele>
        <time>2007-05-21T08:06:51.130Z</time>
      </trkpt>
      <trkpt lat="43.81446" lon="7.77578">
        <ele>10</ele>
        <time>2007-05-21T08:07:00.130Z</time>
      </trkpt>
      <trkpt lat="43.81443" lon="7.77563">
        <ele>9.75</ele>
        <time>2007-05-21T08:07:05.130Z</time>
      </trkpt>
      <trkpt lat="43.81441" lon="7.77548">
        <ele>9.5</ele>
        <time>2007-05-21T08:07:09.130Z</time>
      </trkpt>
      <trkpt lat="43.8144" lon="7.77521">
        <ele>9.25</ele>
        <time>2007-05-21T08:07:17.130Z</time>
      </trkpt>
      <trkpt lat="43.8144" lon="7.77517">
        <ele>9.25</ele>
        <time>2007-05-21T08:07:18.130Z</time>
      </trkpt>
      <trkpt lat="43.81438" lon="7.77512">
        <ele>9.25</ele>
        <time>2007-05-21T08:07:19.130Z</time>
      </trkpt>
      <trkpt lat="43.81435" lon="7.7751">
        <ele>9</ele>
        <time>2007-05-21T08:07:21.130Z</time>
      </trkpt>
      <trkpt lat="43.81434" lon="7.77505">
        <ele>8.75</ele>
        <time>2007-05-21T08:07:22.130Z</time>
      </trkpt>
      <trkpt lat="43.8143" lon="7.7749">
        <ele>8.25</ele>
        <time>2007-05-21T08:07:27.130Z</time>
      </trkpt>
      <trkpt lat="43.81428" lon="7.7747">
        <ele>8</ele>
        <time>2007-05-21T08:07:33.130Z</time>
      </trkpt>
      <trkpt lat="43.81424" lon="7.77425">
        <ele>7.75</ele>
        <time>2007-05-21T08:07:46.130Z</time>
      </trkpt>
      <trkpt lat="43.81414" lon="7.77332">
        <ele>9.75</ele>
        <time>2007-05-21T08:08:13.130Z</time>
      </trkpt>
      <trkpt lat="43.81405" lon="7.77257">
        <ele>9.5</ele>
        <time>2007-05-21T08:08:35.130Z</time>
      </trkpt>
      <trkpt lat="43.81402" lon="7.77244">
        <ele>9.25</ele>
        <time>2007-05-21T08:08:39.130Z</time>
      </trkpt>
      <trkpt lat="43.814" lon="7.77223">
        <ele>8.5</ele>
        <time>2007-05-21T08:08:45.130Z</time>
      </trkpt>
      <trkpt lat="43.81387" lon="7.77113">
        <ele>7.5</ele>
        <time>2007-05-21T08:09:17.130Z</time>
      </trkpt>
      <trkpt lat="43.81388" lon="7.77106">
        <ele>7.75</ele>
        <time>2007-05-21T08:09:19.130Z</time>
      </trkpt>
      <trkpt lat="43.81389" lon="7.771">
        <ele>8</ele>
        <time>2007-05-21T08:09:21.130Z</time>
      </trkpt>
      <trkpt lat="43.81388" lon="7.77096">
        <ele>8</ele>
        <time>2007-05-21T08:09:22.130Z</time>
      </trkpt>
      <trkpt lat="43.8138" lon="7.77052">
        <ele>9</ele>
        <time>2007-05-21T08:09:35.130Z</time>
      </trkpt>
      <trkpt lat="43.81378" lon="7.77037">
        <ele>9.5</ele>
        <time>2007-05-21T08:09:40.130Z</time>
      </trkpt>
      <trkpt lat="43.81376" lon="7.77025">
        <ele>9.75</ele>
        <time>2007-05-21T08:09:43.130Z</time>
      </trkpt>
      <trkpt lat="43.81368" lon="7.76995">
        <ele>10.25</ele>
        <time>2007-05-21T08:09:53.130Z</time>
      </trkpt>
      <trkpt lat="43.81354" lon="7.76959">
        <ele>10</ele>
        <time>2007-05-21T08:10:05.130Z</time>
      </trkpt>
      <trkpt lat="43.81331" lon="7.76908">
        <ele>8.5</ele>
        <time>2007-05-21T08:10:22.130Z</time>
      </trkpt>
      <trkpt lat="43.81313" lon="7.76869">
        <ele>9.75</ele>
        <time>2007-05-21T08:10:35.130Z</time>
      </trkpt>
      <trkpt lat="43.81276" lon="7.76791">
        <ele>9.75</ele>
        <time>2007-05-21T08:11:02.130Z</time>
      </trkpt>
      <trkpt lat="43.8126" lon="7.76758">
        <ele>9.25</ele>
        <time>2007-05-21T08:11:14.130Z</time>
      </trkpt>
      <trkpt lat="43.81245" lon="7.76727">
        <ele>9.25</ele>
        <time>2007-05-21T08:11:24.130Z</time>
      </trkpt>
      <trkpt lat="43.81232" lon="7.767">
        <ele>9.25</ele>
        <time>2007-05-21T08:11:34.130Z</time>
      </trkpt>
      <trkpt lat="43.81212" lon="7.76664">
        <ele>13.5</ele>
        <time>2007-05-21T08:11:47.130Z</time>
      </trkpt>
      <trkpt lat="43.81179" lon="7.76616">
        <ele>11.25</ele>
        <time>2007-05-21T08:12:06.130Z</time>
      </trkpt>
      <trkpt lat="43.81166" lon="7.76598">
        <ele>11.25</ele>
        <time>2007-05-21T08:12:13.130Z</time>
      </trkpt>
      <trkpt lat="43.81091" lon="7.76509">
        <ele>9.25</ele>
        <time>2007-05-21T08:12:53.130Z</time>
      </trkpt>
      <trkpt lat="43.81066" lon="7.76475">
        <ele>9.5</ele>
        <time>2007-05-21T08:13:07.130Z</time>
      </trkpt>
      <trkpt lat="43.81058" lon="7.76462">
        <ele>9.75</ele>
        <time>2007-05-21T08:13:12.130Z</time>
      </trkpt>
      <trkpt lat="43.81033" lon="7.76419">
        <ele>10.25</ele>
        <time>2007-05-21T08:13:28.130Z</time>
      </trkpt>
      <trkpt lat="43.81002" lon="7.76358">
        <ele>11.25</ele>
        <time>2007-05-21T08:13:50.130Z</time>
      </trkpt>
      <trkpt lat="43.80937" lon="7.76221">
        <ele>9</ele>
        <time>2007-05-21T08:14:37.130Z</time>
      </trkpt>
      <trkpt lat="43.80934" lon="7.76214">
        <ele>8.75</ele>
        <time>2007-05-21T08:14:39.130Z</time>
      </trkpt>
      <trkpt lat="43.80922" lon="7.76186">
        <ele>7.5</ele>
        <time>2007-05-21T08:14:49.130Z</time>
      </trkpt>
      <trkpt lat="43.80912" lon="7.76164">
        <ele>6.75</ele>
        <time>2007-05-21T08:14:56.130Z</time>
      </trkpt>
      <trkpt lat="43.80902" lon="7.76139">
        <ele>6.5</ele>
        <time>2007-05-21T08:15:05.130Z</time>
      </trkpt>
      <trkpt lat="43.80887" lon="7.76098">
        <ele>6.25</ele>
        <time>2007-05-21T08:15:18.130Z</time>
      </trkpt>
      <trkpt lat="43.8088" lon="7.76074">
        <ele>6.25</ele>
        <time>2007-05-21T08:15:25.130Z</time>
      </trkpt>
      <trkpt lat="43.80867" lon="7.76027">
        <ele>6</ele>
        <time>2007-05-21T08:15:40.130Z</time>
      </trkpt>
      <trkpt lat="43.80857" lon="7.75983">
        <ele>5.75</ele>
        <time>2007-05-21T08:15:53.130Z</time>
      </trkpt>
      <trkpt lat="43.80853" lon="7.75967">
        <ele>5.75</ele>
        <time>2007-05-21T08:15:58.130Z</time>
      </trkpt>
      <trkpt lat="43.80848" lon="7.75939">
        <ele>5.75</ele>
        <time>2007-05-21T08:16:07.130Z</time>
      </trkpt>
      <trkpt lat="43.8084" lon="7.7588">
        <ele>5.75</ele>
        <time>2007-05-21T08:16:24.130Z</time>
      </trkpt>
      <trkpt lat="43.80836" lon="7.75836">
        <ele>6</ele>
        <time>2007-05-21T08:16:37.130Z</time>
      </trkpt>
      <trkpt lat="43.8083" lon="7.75753">
        <ele>7.25</ele>
        <time>2007-05-21T08:17:01.130Z</time>
      </trkpt>
      <trkpt lat="43.80828" lon="7.75689">
        <ele>6</ele>
        <time>2007-05-21T08:17:19.130Z</time>
      </trkpt>
      <trkpt lat="43.80828" lon="7.75626">
        <ele>6.5</ele>
        <time>2007-05-21T08:17:37.130Z</time>
      </trkpt>
      <trkpt lat="43.80827" lon="7.75598">
        <ele>7.25</ele>
        <time>2007-05-21T08:17:46.130Z</time>
      </trkpt>
      <trkpt lat="43.80823" lon="7.75522">
        <ele>9.25</ele>
        <time>2007-05-21T08:18:08.130Z</time>
      </trkpt>
      <trkpt lat="43.80817" lon="7.75461">
        <ele>10</ele>
        <time>2007-05-21T08:18:26.130Z</time>
      </trkpt>
      <trkpt lat="43.80804" lon="7.75401">
        <ele>10</ele>
        <time>2007-05-21T08:18:44.130Z</time>
      </trkpt>
      <trkpt lat="43.80798" lon="7.75376">
        <ele>10.5</ele>
        <time>2007-05-21T08:18:52.130Z</time>
      </trkpt>
      <trkpt lat="43.80785" lon="7.75332">
        <ele>11.25</ele>
        <time>2007-05-21T08:19:05.130Z</time>
      </trkpt>
      <trkpt lat="43.80769" lon="7.75289">
        <ele>14.25</ele>
        <time>2007-05-21T08:19:19.130Z</time>
      </trkpt>
      <trkpt lat="43.80757" lon="7.75262">
        <ele>15.5</ele>
        <time>2007-05-21T08:19:28.130Z</time>
      </trkpt>
      <trkpt lat="43.80747" lon="7.7524">
        <ele>16</ele>
        <time>2007-05-21T08:19:35.130Z</time>
      </trkpt>
      <trkpt lat="43.80713" lon="7.75175">
        <ele>15</ele>
        <time>2007-05-21T08:19:59.130Z</time>
      </trkpt>
      <trkpt lat="43.80618" lon="7.75008">
        <ele>14.25</ele>
        <time>2007-05-21T08:21:00.130Z</time>
      </trkpt>
      <trkpt lat="43.80615" lon="7.75002">
        <ele>14</ele>
        <time>2007-05-21T08:21:03.130Z</time>
      </trkpt>
      <trkpt lat="43.80535" lon="7.74859">
        <ele>15.75</ele>
        <time>2007-05-21T08:21:55.130Z</time>
      </trkpt>
      <trkpt lat="43.80518" lon="7.7483">
        <ele>14.5</ele>
        <time>2007-05-21T08:22:06.130Z</time>
      </trkpt>
      <trkpt lat="43.80435" lon="7.74704">
        <ele>16.75</ele>
        <time>2007-05-21T08:22:55.130Z</time>
      </trkpt>
      <trkpt lat="43.80431" lon="7.74697">
        <ele>17</ele>
        <time>2007-05-21T08:22:58.130Z</time>
      </trkpt>
      <trkpt lat="43.79875" lon="7.73335">
        <ele>17</ele>
        <time>2007-05-21T08:30:30.130Z</time>
      </trkpt>
      <trkpt lat="43.79804" lon="7.73166">
        <ele>17</ele>
        <time>2007-05-21T08:31:27.130Z</time>
      </trkpt>
      <trkpt lat="43.79792" lon="7.73109">
        <ele>17</ele>
        <time>2007-05-21T08:31:44.130Z</time>
      </trkpt>
      <trkpt lat="43.79794" lon="7.73041">
        <ele>17</ele>
        <time>2007-05-21T08:32:04.130Z</time>
      </trkpt>
      <trkpt lat="43.79805" lon="7.72943">
        <ele>17</ele>
        <time>2007-05-21T08:32:32.130Z</time>
      </trkpt>
      <trkpt lat="43.79826" lon="7.72732">
        <ele>17.75</ele>
        <time>2007-05-21T08:33:34.130Z</time>
      </trkpt>
      <trkpt lat="43.79841" lon="7.7265">
        <ele>12.75</ele>
        <time>2007-05-21T08:33:58.130Z</time>
      </trkpt>
      <trkpt lat="43.79848" lon="7.72621">
        <ele>13</ele>
        <time>2007-05-21T08:34:07.130Z</time>
      </trkpt>
      <trkpt lat="43.7989" lon="7.72475">
        <ele>13</ele>
        <time>2007-05-21T08:34:53.130Z</time>
      </trkpt>
      <trkpt lat="43.79912" lon="7.72403">
        <ele>13</ele>
        <time>2007-05-21T08:35:15.130Z</time>
      </trkpt>
      <trkpt lat="43.79928" lon="7.72348">
        <ele>9.75</ele>
        <time>2007-05-21T08:35:32.130Z</time>
      </trkpt>
      <trkpt lat="43.79941" lon="7.72293">
        <ele>9.5</ele>
        <time>2007-05-21T08:35:49.130Z</time>
      </trkpt>
      <trkpt lat="43.79961" lon="7.72197">
        <ele>8.5</ele>
        <time>2007-05-21T08:36:18.130Z</time>
      </trkpt>
      <trkpt lat="43.79974" lon="7.72127">
        <ele>8</ele>
        <time>2007-05-21T08:36:39.130Z</time>
      </trkpt>
      <trkpt lat="43.80015" lon="7.71888">
        <ele>12.75</ele>
        <time>2007-05-21T08:37:50.130Z</time>
      </trkpt>
      <trkpt lat="43.80043" lon="7.71764">
        <ele>9.25</ele>
        <time>2007-05-21T08:38:28.130Z</time>
      </trkpt>
      <trkpt lat="43.80068" lon="7.71666">
        <ele>6.25</ele>
        <time>2007-05-21T08:38:58.130Z</time>
      </trkpt>
      <trkpt lat="43.80112" lon="7.71484">
        <ele>7.25</ele>
        <time>2007-05-21T08:39:53.130Z</time>
      </trkpt>
      <trkpt lat="43.80119" lon="7.71449">
        <ele>7.75</ele>
        <time>2007-05-21T08:40:04.130Z</time>
      </trkpt>
      <trkpt lat="43.80124" lon="7.71413">
        <ele>8.25</ele>
        <time>2007-05-21T08:40:14.130Z</time>
      </trkpt>
      <trkpt lat="43.80132" lon="7.71346">
        <ele>9.25</ele>
        <time>2007-05-21T08:40:34.130Z</time>
      </trkpt>
      <trkpt lat="43.80137" lon="7.71271">
        <ele>9.25</ele>
        <time>2007-05-21T08:40:56.130Z</time>
      </trkpt>
      <trkpt lat="43.80143" lon="7.71271">
        <ele>4.9</ele>
        <extensions>
          <visugpx:TrkExtension xmlns:visugpx="https://www.visugpx.com/editgpx/">
            <visugpx:node>2</visugpx:node>
            </visugpx:TrkExtension>
        </extensions>
      </trkpt>
    </trkseg>
  </trk>
</gpx>